<?xml version="1.0" encoding="UTF-8" standalone="no" ?>
<gpx xmlns="http://www.topografix.com/GPX/1/1" xmlns:xsi="http://www.w3.org/2001/XMLSchema-instance" xsi:schemaLocation="http://www.topografix.com/GPX/1/1 http://www.topografix.com/GPX/1/1/gpx.xsd" version="1.1" creator="VisuGPX - https://www.visugpx.com">
  <metadata>
    <name>Trace randonnée Méthamis </name>
    <desc><![CDATA[Sortie du 11 novembre 2011 effectuée par 10 randonneurs du SCLapalud]]></desc>
  </metadata>
  <trk>
    <name><![CDATA[ACTIVE LOG]]></name>
    <trkseg>
      <trkpt lat="44.01567" lon="5.22532">
        <ele>76.562134</ele>
        <time>2011-11-11T09:31:43Z</time>
      </trkpt>
      <trkpt lat="44.0156" lon="5.22535">
        <ele>78.965454</ele>
        <time>2011-11-11T09:32:05Z</time>
      </trkpt>
      <trkpt lat="44.01554" lon="5.22533">
        <ele>79.446045</ele>
        <time>2011-11-11T09:32:11Z</time>
      </trkpt>
      <trkpt lat="44.01559" lon="5.22545">
        <ele>82.330078</ele>
        <time>2011-11-11T09:32:23Z</time>
      </trkpt>
      <trkpt lat="44.01573" lon="5.22555">
        <ele>85.213989</ele>
        <time>2011-11-11T09:32:38Z</time>
      </trkpt>
      <trkpt lat="44.0158" lon="5.2256">
        <ele>87.136597</ele>
        <time>2011-11-11T09:32:43Z</time>
      </trkpt>
      <trkpt lat="44.0159" lon="5.22564">
        <ele>89.059326</ele>
        <time>2011-11-11T09:32:55Z</time>
      </trkpt>
      <trkpt lat="44.01599" lon="5.22567">
        <ele>90.981934</ele>
        <time>2011-11-11T09:33:04Z</time>
      </trkpt>
      <trkpt lat="44.01609" lon="5.22563">
        <ele>91.462524</ele>
        <time>2011-11-11T09:33:10Z</time>
      </trkpt>
      <trkpt lat="44.01613" lon="5.2257">
        <ele>92.904541</ele>
        <time>2011-11-11T09:33:29Z</time>
      </trkpt>
      <trkpt lat="44.01619" lon="5.22581">
        <ele>95.307739</ele>
        <time>2011-11-11T09:33:39Z</time>
      </trkpt>
      <trkpt lat="44.01625" lon="5.22599">
        <ele>98.672485</ele>
        <time>2011-11-11T09:33:55Z</time>
      </trkpt>
      <trkpt lat="44.01636" lon="5.22602">
        <ele>101.556396</ele>
        <time>2011-11-11T09:34:08Z</time>
      </trkpt>
      <trkpt lat="44.01642" lon="5.22608">
        <ele>105.882446</ele>
        <time>2011-11-11T09:34:25Z</time>
      </trkpt>
      <trkpt lat="44.01642" lon="5.22608">
        <ele>105.882446</ele>
        <time>2011-11-11T09:34:26Z</time>
      </trkpt>
      <trkpt lat="44.01644" lon="5.22621">
        <ele>108.285645</ele>
        <time>2011-11-11T09:34:42Z</time>
      </trkpt>
      <trkpt lat="44.01641" lon="5.22625">
        <ele>109.246948</ele>
        <time>2011-11-11T09:34:47Z</time>
      </trkpt>
      <trkpt lat="44.01636" lon="5.22636">
        <ele>111.650269</ele>
        <time>2011-11-11T09:35:00Z</time>
      </trkpt>
      <trkpt lat="44.01633" lon="5.22644">
        <ele>112.611572</ele>
        <time>2011-11-11T09:35:16Z</time>
      </trkpt>
      <trkpt lat="44.01621" lon="5.22666">
        <ele>114.053589</ele>
        <time>2011-11-11T09:35:31Z</time>
      </trkpt>
      <trkpt lat="44.01614" lon="5.22676">
        <ele>115.976196</ele>
        <time>2011-11-11T09:35:41Z</time>
      </trkpt>
      <trkpt lat="44.01611" lon="5.22687">
        <ele>117.898804</ele>
        <time>2011-11-11T09:35:55Z</time>
      </trkpt>
      <trkpt lat="44.01608" lon="5.2269">
        <ele>118.860107</ele>
        <time>2011-11-11T09:36:12Z</time>
      </trkpt>
      <trkpt lat="44.01611" lon="5.22688">
        <ele>119.821411</ele>
        <time>2011-11-11T09:36:17Z</time>
      </trkpt>
      <trkpt lat="44.01606" lon="5.22701">
        <ele>122.224731</ele>
        <time>2011-11-11T09:36:34Z</time>
      </trkpt>
      <trkpt lat="44.01606" lon="5.22702">
        <ele>123.186157</ele>
        <time>2011-11-11T09:36:55Z</time>
      </trkpt>
      <trkpt lat="44.01613" lon="5.22682">
        <ele>125.108765</ele>
        <time>2011-11-11T09:37:09Z</time>
      </trkpt>
      <trkpt lat="44.01617" lon="5.22667">
        <ele>127.511963</ele>
        <time>2011-11-11T09:37:25Z</time>
      </trkpt>
      <trkpt lat="44.01623" lon="5.22657">
        <ele>127.511963</ele>
        <time>2011-11-11T09:37:33Z</time>
      </trkpt>
      <trkpt lat="44.01616" lon="5.22641">
        <ele>127.031372</ele>
        <time>2011-11-11T09:37:46Z</time>
      </trkpt>
      <trkpt lat="44.0161" lon="5.22629">
        <ele>125.108765</ele>
        <time>2011-11-11T09:37:56Z</time>
      </trkpt>
      <trkpt lat="44.01607" lon="5.22628">
        <ele>125.108765</ele>
        <time>2011-11-11T09:38:00Z</time>
      </trkpt>
      <trkpt lat="44.0159" lon="5.22638">
        <ele>125.108765</ele>
        <time>2011-11-11T09:38:16Z</time>
      </trkpt>
      <trkpt lat="44.01589" lon="5.22641">
        <ele>125.108765</ele>
        <time>2011-11-11T09:38:18Z</time>
      </trkpt>
      <trkpt lat="44.01576" lon="5.2266">
        <ele>124.147339</ele>
        <time>2011-11-11T09:38:28Z</time>
      </trkpt>
      <trkpt lat="44.01578" lon="5.22671">
        <ele>124.147339</ele>
        <time>2011-11-11T09:38:36Z</time>
      </trkpt>
      <trkpt lat="44.01575" lon="5.22672">
        <ele>123.666748</ele>
        <time>2011-11-11T09:38:42Z</time>
      </trkpt>
      <trkpt lat="44.01573" lon="5.22663">
        <ele>122.705444</ele>
        <time>2011-11-11T09:38:51Z</time>
      </trkpt>
      <trkpt lat="44.0157" lon="5.22656">
        <ele>122.224731</ele>
        <time>2011-11-11T09:38:56Z</time>
      </trkpt>
      <trkpt lat="44.01568" lon="5.22636">
        <ele>121.744141</ele>
        <time>2011-11-11T09:39:06Z</time>
      </trkpt>
      <trkpt lat="44.01566" lon="5.22624">
        <ele>121.26355</ele>
        <time>2011-11-11T09:39:18Z</time>
      </trkpt>
      <trkpt lat="44.01564" lon="5.22627">
        <ele>121.26355</ele>
        <time>2011-11-11T09:39:24Z</time>
      </trkpt>
      <trkpt lat="44.01561" lon="5.22634">
        <ele>121.26355</ele>
        <time>2011-11-11T09:39:35Z</time>
      </trkpt>
      <trkpt lat="44.01553" lon="5.22637">
        <ele>120.782837</ele>
        <time>2011-11-11T09:39:50Z</time>
      </trkpt>
      <trkpt lat="44.01552" lon="5.22636">
        <ele>120.782837</ele>
        <time>2011-11-11T09:39:52Z</time>
      </trkpt>
      <trkpt lat="44.0155" lon="5.22619">
        <ele>120.782837</ele>
        <time>2011-11-11T09:40:07Z</time>
      </trkpt>
      <trkpt lat="44.0155" lon="5.22605">
        <ele>120.302124</ele>
        <time>2011-11-11T09:40:20Z</time>
      </trkpt>
      <trkpt lat="44.0155" lon="5.22601">
        <ele>120.302124</ele>
        <time>2011-11-11T09:40:23Z</time>
      </trkpt>
      <trkpt lat="44.01547" lon="5.22591">
        <ele>119.821411</ele>
        <time>2011-11-11T09:40:30Z</time>
      </trkpt>
      <trkpt lat="44.01543" lon="5.22591">
        <ele>119.821411</ele>
        <time>2011-11-11T09:40:34Z</time>
      </trkpt>
      <trkpt lat="44.0154" lon="5.22598">
        <ele>119.34082</ele>
        <time>2011-11-11T09:40:39Z</time>
      </trkpt>
      <trkpt lat="44.01536" lon="5.22603">
        <ele>119.34082</ele>
        <time>2011-11-11T09:40:45Z</time>
      </trkpt>
      <trkpt lat="44.01532" lon="5.22606">
        <ele>119.34082</ele>
        <time>2011-11-11T09:40:49Z</time>
      </trkpt>
      <trkpt lat="44.01531" lon="5.22608">
        <ele>119.34082</ele>
        <time>2011-11-11T09:40:51Z</time>
      </trkpt>
      <trkpt lat="44.01506" lon="5.22622">
        <ele>117.418213</ele>
        <time>2011-11-11T09:41:13Z</time>
      </trkpt>
      <trkpt lat="44.01505" lon="5.22623">
        <ele>117.898804</ele>
        <time>2011-11-11T09:41:14Z</time>
      </trkpt>
      <trkpt lat="44.01498" lon="5.22623">
        <ele>117.898804</ele>
        <time>2011-11-11T09:41:28Z</time>
      </trkpt>
      <trkpt lat="44.01497" lon="5.22622">
        <ele>117.898804</ele>
        <time>2011-11-11T09:41:30Z</time>
      </trkpt>
      <trkpt lat="44.0149" lon="5.22622">
        <ele>119.34082</ele>
        <time>2011-11-11T09:41:42Z</time>
      </trkpt>
      <trkpt lat="44.01491" lon="5.22624">
        <ele>119.34082</ele>
        <time>2011-11-11T09:41:45Z</time>
      </trkpt>
      <trkpt lat="44.0149" lon="5.22628">
        <ele>119.821411</ele>
        <time>2011-11-11T09:41:49Z</time>
      </trkpt>
      <trkpt lat="44.01478" lon="5.22637">
        <ele>120.302124</ele>
        <time>2011-11-11T09:42:05Z</time>
      </trkpt>
      <trkpt lat="44.0148" lon="5.22637">
        <ele>122.224731</ele>
        <time>2011-11-11T09:42:26Z</time>
      </trkpt>
      <trkpt lat="44.01479" lon="5.22636">
        <ele>124.628052</ele>
        <time>2011-11-11T09:42:41Z</time>
      </trkpt>
      <trkpt lat="44.0147" lon="5.22649">
        <ele>124.147339</ele>
        <time>2011-11-11T09:42:53Z</time>
      </trkpt>
      <trkpt lat="44.01448" lon="5.22681">
        <ele>125.589355</ele>
        <time>2011-11-11T09:43:20Z</time>
      </trkpt>
      <trkpt lat="44.01456" lon="5.22711">
        <ele>125.108765</ele>
        <time>2011-11-11T09:43:37Z</time>
      </trkpt>
      <trkpt lat="44.01471" lon="5.22735">
        <ele>125.589355</ele>
        <time>2011-11-11T09:43:56Z</time>
      </trkpt>
      <trkpt lat="44.01495" lon="5.22765">
        <ele>126.069946</ele>
        <time>2011-11-11T09:44:21Z</time>
      </trkpt>
      <trkpt lat="44.01497" lon="5.22771">
        <ele>126.550659</ele>
        <time>2011-11-11T09:44:32Z</time>
      </trkpt>
      <trkpt lat="44.01514" lon="5.22795">
        <ele>125.589355</ele>
        <time>2011-11-11T09:44:51Z</time>
      </trkpt>
      <trkpt lat="44.01519" lon="5.22802">
        <ele>125.589355</ele>
        <time>2011-11-11T09:44:56Z</time>
      </trkpt>
      <trkpt lat="44.01523" lon="5.22808">
        <ele>126.550659</ele>
        <time>2011-11-11T09:45:01Z</time>
      </trkpt>
      <trkpt lat="44.0153" lon="5.22812">
        <ele>126.069946</ele>
        <time>2011-11-11T09:45:06Z</time>
      </trkpt>
      <trkpt lat="44.01547" lon="5.22836">
        <ele>126.069946</ele>
        <time>2011-11-11T09:45:25Z</time>
      </trkpt>
      <trkpt lat="44.01548" lon="5.22842">
        <ele>126.069946</ele>
        <time>2011-11-11T09:45:28Z</time>
      </trkpt>
      <trkpt lat="44.01553" lon="5.22849">
        <ele>125.589355</ele>
        <time>2011-11-11T09:45:34Z</time>
      </trkpt>
      <trkpt lat="44.01562" lon="5.2286">
        <ele>125.589355</ele>
        <time>2011-11-11T09:45:47Z</time>
      </trkpt>
      <trkpt lat="44.01566" lon="5.22861">
        <ele>126.069946</ele>
        <time>2011-11-11T09:45:51Z</time>
      </trkpt>
      <trkpt lat="44.01588" lon="5.22888">
        <ele>125.108765</ele>
        <time>2011-11-11T09:46:15Z</time>
      </trkpt>
      <trkpt lat="44.01602" lon="5.22904">
        <ele>124.628052</ele>
        <time>2011-11-11T09:46:33Z</time>
      </trkpt>
      <trkpt lat="44.01612" lon="5.22911">
        <ele>124.147339</ele>
        <time>2011-11-11T09:46:41Z</time>
      </trkpt>
      <trkpt lat="44.01635" lon="5.22935">
        <ele>122.705444</ele>
        <time>2011-11-11T09:47:03Z</time>
      </trkpt>
      <trkpt lat="44.01639" lon="5.22943">
        <ele>122.705444</ele>
        <time>2011-11-11T09:47:08Z</time>
      </trkpt>
      <trkpt lat="44.01657" lon="5.22965">
        <ele>121.26355</ele>
        <time>2011-11-11T09:47:25Z</time>
      </trkpt>
      <trkpt lat="44.01659" lon="5.22966">
        <ele>120.782837</ele>
        <time>2011-11-11T09:47:27Z</time>
      </trkpt>
      <trkpt lat="44.01661" lon="5.22971">
        <ele>120.782837</ele>
        <time>2011-11-11T09:47:30Z</time>
      </trkpt>
      <trkpt lat="44.01671" lon="5.2298">
        <ele>119.34082</ele>
        <time>2011-11-11T09:47:42Z</time>
      </trkpt>
      <trkpt lat="44.01673" lon="5.22983">
        <ele>119.34082</ele>
        <time>2011-11-11T09:47:44Z</time>
      </trkpt>
      <trkpt lat="44.01675" lon="5.22985">
        <ele>118.860107</ele>
        <time>2011-11-11T09:47:46Z</time>
      </trkpt>
      <trkpt lat="44.01686" lon="5.22994">
        <ele>118.379395</ele>
        <time>2011-11-11T09:47:55Z</time>
      </trkpt>
      <trkpt lat="44.01702" lon="5.23016">
        <ele>117.418213</ele>
        <time>2011-11-11T09:48:10Z</time>
      </trkpt>
      <trkpt lat="44.01705" lon="5.2302">
        <ele>117.418213</ele>
        <time>2011-11-11T09:48:14Z</time>
      </trkpt>
      <trkpt lat="44.01707" lon="5.2302">
        <ele>116.9375</ele>
        <time>2011-11-11T09:48:16Z</time>
      </trkpt>
      <trkpt lat="44.01714" lon="5.23028">
        <ele>116.9375</ele>
        <time>2011-11-11T09:48:26Z</time>
      </trkpt>
      <trkpt lat="44.01731" lon="5.23046">
        <ele>116.456787</ele>
        <time>2011-11-11T09:48:38Z</time>
      </trkpt>
      <trkpt lat="44.01735" lon="5.23049">
        <ele>116.456787</ele>
        <time>2011-11-11T09:48:42Z</time>
      </trkpt>
      <trkpt lat="44.01759" lon="5.23059">
        <ele>115.495605</ele>
        <time>2011-11-11T09:49:00Z</time>
      </trkpt>
      <trkpt lat="44.01771" lon="5.23065">
        <ele>115.014893</ele>
        <time>2011-11-11T09:49:10Z</time>
      </trkpt>
      <trkpt lat="44.01778" lon="5.23066">
        <ele>114.53418</ele>
        <time>2011-11-11T09:49:14Z</time>
      </trkpt>
      <trkpt lat="44.01783" lon="5.23079">
        <ele>113.572998</ele>
        <time>2011-11-11T09:49:31Z</time>
      </trkpt>
      <trkpt lat="44.01799" lon="5.23093">
        <ele>113.572998</ele>
        <time>2011-11-11T09:49:51Z</time>
      </trkpt>
      <trkpt lat="44.01803" lon="5.23096">
        <ele>113.092285</ele>
        <time>2011-11-11T09:49:54Z</time>
      </trkpt>
      <trkpt lat="44.01817" lon="5.23117">
        <ele>113.572998</ele>
        <time>2011-11-11T09:50:04Z</time>
      </trkpt>
      <trkpt lat="44.01821" lon="5.23122">
        <ele>113.572998</ele>
        <time>2011-11-11T09:50:10Z</time>
      </trkpt>
      <trkpt lat="44.0183" lon="5.23135">
        <ele>114.053589</ele>
        <time>2011-11-11T09:50:24Z</time>
      </trkpt>
      <trkpt lat="44.01839" lon="5.23146">
        <ele>114.053589</ele>
        <time>2011-11-11T09:50:38Z</time>
      </trkpt>
      <trkpt lat="44.01854" lon="5.23156">
        <ele>114.053589</ele>
        <time>2011-11-11T09:50:47Z</time>
      </trkpt>
      <trkpt lat="44.01866" lon="5.23171">
        <ele>114.053589</ele>
        <time>2011-11-11T09:51:02Z</time>
      </trkpt>
      <trkpt lat="44.01871" lon="5.23173">
        <ele>114.53418</ele>
        <time>2011-11-11T09:51:07Z</time>
      </trkpt>
      <trkpt lat="44.01884" lon="5.23185">
        <ele>114.053589</ele>
        <time>2011-11-11T09:51:19Z</time>
      </trkpt>
      <trkpt lat="44.0189" lon="5.23186">
        <ele>114.053589</ele>
        <time>2011-11-11T09:51:24Z</time>
      </trkpt>
      <trkpt lat="44.01895" lon="5.23189">
        <ele>114.053589</ele>
        <time>2011-11-11T09:51:28Z</time>
      </trkpt>
      <trkpt lat="44.01905" lon="5.23187">
        <ele>114.53418</ele>
        <time>2011-11-11T09:51:37Z</time>
      </trkpt>
      <trkpt lat="44.01909" lon="5.23187">
        <ele>114.53418</ele>
        <time>2011-11-11T09:51:40Z</time>
      </trkpt>
      <trkpt lat="44.0192" lon="5.23189">
        <ele>114.053589</ele>
        <time>2011-11-11T09:51:50Z</time>
      </trkpt>
      <trkpt lat="44.01925" lon="5.23189">
        <ele>114.53418</ele>
        <time>2011-11-11T09:51:53Z</time>
      </trkpt>
      <trkpt lat="44.01932" lon="5.23188">
        <ele>115.014893</ele>
        <time>2011-11-11T09:51:59Z</time>
      </trkpt>
      <trkpt lat="44.0194" lon="5.2319">
        <ele>115.014893</ele>
        <time>2011-11-11T09:52:18Z</time>
      </trkpt>
      <trkpt lat="44.01939" lon="5.23191">
        <ele>115.014893</ele>
        <time>2011-11-11T09:52:25Z</time>
      </trkpt>
      <trkpt lat="44.01938" lon="5.23203">
        <ele>115.976196</ele>
        <time>2011-11-11T09:52:43Z</time>
      </trkpt>
      <trkpt lat="44.0194" lon="5.23186">
        <ele>114.53418</ele>
        <time>2011-11-11T09:53:02Z</time>
      </trkpt>
      <trkpt lat="44.01946" lon="5.2319">
        <ele>115.014893</ele>
        <time>2011-11-11T09:53:29Z</time>
      </trkpt>
      <trkpt lat="44.01948" lon="5.23194">
        <ele>115.014893</ele>
        <time>2011-11-11T09:53:33Z</time>
      </trkpt>
      <trkpt lat="44.01967" lon="5.23195">
        <ele>115.014893</ele>
        <time>2011-11-11T09:53:51Z</time>
      </trkpt>
      <trkpt lat="44.01971" lon="5.23195">
        <ele>115.014893</ele>
        <time>2011-11-11T09:53:55Z</time>
      </trkpt>
      <trkpt lat="44.01974" lon="5.23196">
        <ele>115.014893</ele>
        <time>2011-11-11T09:53:57Z</time>
      </trkpt>
      <trkpt lat="44.01986" lon="5.23196">
        <ele>115.495605</ele>
        <time>2011-11-11T09:54:10Z</time>
      </trkpt>
      <trkpt lat="44.01986" lon="5.23199">
        <ele>115.495605</ele>
        <time>2011-11-11T09:54:12Z</time>
      </trkpt>
      <trkpt lat="44.01991" lon="5.23209">
        <ele>115.976196</ele>
        <time>2011-11-11T09:54:29Z</time>
      </trkpt>
      <trkpt lat="44.01992" lon="5.23207">
        <ele>116.9375</ele>
        <time>2011-11-11T09:54:44Z</time>
      </trkpt>
      <trkpt lat="44.01995" lon="5.23201">
        <ele>118.860107</ele>
        <time>2011-11-11T09:55:06Z</time>
      </trkpt>
      <trkpt lat="44.01997" lon="5.23203">
        <ele>118.860107</ele>
        <time>2011-11-11T09:55:26Z</time>
      </trkpt>
      <trkpt lat="44.01998" lon="5.23205">
        <ele>120.302124</ele>
        <time>2011-11-11T09:55:28Z</time>
      </trkpt>
      <trkpt lat="44.02" lon="5.2321">
        <ele>120.302124</ele>
        <time>2011-11-11T09:55:32Z</time>
      </trkpt>
      <trkpt lat="44.02002" lon="5.23211">
        <ele>120.302124</ele>
        <time>2011-11-11T09:55:34Z</time>
      </trkpt>
      <trkpt lat="44.02004" lon="5.23218">
        <ele>120.302124</ele>
        <time>2011-11-11T09:55:53Z</time>
      </trkpt>
      <trkpt lat="44.02005" lon="5.23225">
        <ele>120.302124</ele>
        <time>2011-11-11T09:56:03Z</time>
      </trkpt>
      <trkpt lat="44.02012" lon="5.23229">
        <ele>120.782837</ele>
        <time>2011-11-11T09:56:10Z</time>
      </trkpt>
      <trkpt lat="44.02016" lon="5.23238">
        <ele>120.782837</ele>
        <time>2011-11-11T09:56:13Z</time>
      </trkpt>
      <trkpt lat="44.02018" lon="5.23241">
        <ele>120.302124</ele>
        <time>2011-11-11T09:56:16Z</time>
      </trkpt>
      <trkpt lat="44.02019" lon="5.23246">
        <ele>120.782837</ele>
        <time>2011-11-11T09:56:19Z</time>
      </trkpt>
      <trkpt lat="44.02011" lon="5.23259">
        <ele>120.782837</ele>
        <time>2011-11-11T09:56:31Z</time>
      </trkpt>
      <trkpt lat="44.02007" lon="5.23257">
        <ele>120.782837</ele>
        <time>2011-11-11T09:56:43Z</time>
      </trkpt>
      <trkpt lat="44.0199" lon="5.2328">
        <ele>121.26355</ele>
        <time>2011-11-11T09:56:54Z</time>
      </trkpt>
      <trkpt lat="44.01987" lon="5.23283">
        <ele>121.26355</ele>
        <time>2011-11-11T09:56:56Z</time>
      </trkpt>
      <trkpt lat="44.01978" lon="5.23299">
        <ele>121.26355</ele>
        <time>2011-11-11T09:57:09Z</time>
      </trkpt>
      <trkpt lat="44.01975" lon="5.23305">
        <ele>121.26355</ele>
        <time>2011-11-11T09:57:14Z</time>
      </trkpt>
      <trkpt lat="44.01971" lon="5.23307">
        <ele>121.26355</ele>
        <time>2011-11-11T09:57:17Z</time>
      </trkpt>
      <trkpt lat="44.01968" lon="5.23314">
        <ele>121.26355</ele>
        <time>2011-11-11T09:57:21Z</time>
      </trkpt>
      <trkpt lat="44.01964" lon="5.23322">
        <ele>121.26355</ele>
        <time>2011-11-11T09:57:24Z</time>
      </trkpt>
      <trkpt lat="44.01961" lon="5.23327">
        <ele>121.26355</ele>
        <time>2011-11-11T09:57:27Z</time>
      </trkpt>
      <trkpt lat="44.0195" lon="5.23341">
        <ele>121.26355</ele>
        <time>2011-11-11T09:57:38Z</time>
      </trkpt>
      <trkpt lat="44.01946" lon="5.23347">
        <ele>121.26355</ele>
        <time>2011-11-11T09:57:45Z</time>
      </trkpt>
      <trkpt lat="44.01946" lon="5.2336">
        <ele>121.744141</ele>
        <time>2011-11-11T09:57:51Z</time>
      </trkpt>
      <trkpt lat="44.01951" lon="5.23387">
        <ele>121.744141</ele>
        <time>2011-11-11T09:58:04Z</time>
      </trkpt>
      <trkpt lat="44.01956" lon="5.23393">
        <ele>121.744141</ele>
        <time>2011-11-11T09:58:10Z</time>
      </trkpt>
      <trkpt lat="44.01961" lon="5.23399">
        <ele>121.744141</ele>
        <time>2011-11-11T09:58:14Z</time>
      </trkpt>
      <trkpt lat="44.01965" lon="5.23403">
        <ele>121.744141</ele>
        <time>2011-11-11T09:58:19Z</time>
      </trkpt>
      <trkpt lat="44.01962" lon="5.23424">
        <ele>122.224731</ele>
        <time>2011-11-11T09:58:30Z</time>
      </trkpt>
      <trkpt lat="44.01963" lon="5.23438">
        <ele>121.744141</ele>
        <time>2011-11-11T09:58:36Z</time>
      </trkpt>
      <trkpt lat="44.01967" lon="5.23465">
        <ele>122.224731</ele>
        <time>2011-11-11T09:58:52Z</time>
      </trkpt>
      <trkpt lat="44.01965" lon="5.23468">
        <ele>122.224731</ele>
        <time>2011-11-11T09:58:53Z</time>
      </trkpt>
      <trkpt lat="44.01974" lon="5.23486">
        <ele>122.224731</ele>
        <time>2011-11-11T09:59:05Z</time>
      </trkpt>
      <trkpt lat="44.01977" lon="5.23492">
        <ele>122.224731</ele>
        <time>2011-11-11T09:59:10Z</time>
      </trkpt>
      <trkpt lat="44.01981" lon="5.235">
        <ele>122.705444</ele>
        <time>2011-11-11T09:59:18Z</time>
      </trkpt>
      <trkpt lat="44.01987" lon="5.23515">
        <ele>122.705444</ele>
        <time>2011-11-11T09:59:29Z</time>
      </trkpt>
      <trkpt lat="44.01996" lon="5.23542">
        <ele>123.186157</ele>
        <time>2011-11-11T09:59:47Z</time>
      </trkpt>
      <trkpt lat="44.01994" lon="5.23533">
        <ele>123.186157</ele>
        <time>2011-11-11T10:00:08Z</time>
      </trkpt>
      <trkpt lat="44.02008" lon="5.23534">
        <ele>123.186157</ele>
        <time>2011-11-11T10:00:50Z</time>
      </trkpt>
      <trkpt lat="44.02023" lon="5.2355">
        <ele>123.186157</ele>
        <time>2011-11-11T10:01:05Z</time>
      </trkpt>
      <trkpt lat="44.02026" lon="5.2356">
        <ele>123.666748</ele>
        <time>2011-11-11T10:01:22Z</time>
      </trkpt>
      <trkpt lat="44.02038" lon="5.23568">
        <ele>123.666748</ele>
        <time>2011-11-11T10:01:46Z</time>
      </trkpt>
      <trkpt lat="44.02039" lon="5.23567">
        <ele>123.666748</ele>
        <time>2011-11-11T10:01:53Z</time>
      </trkpt>
      <trkpt lat="44.02043" lon="5.23569">
        <ele>123.666748</ele>
        <time>2011-11-11T10:01:56Z</time>
      </trkpt>
      <trkpt lat="44.02055" lon="5.23582">
        <ele>124.147339</ele>
        <time>2011-11-11T10:02:08Z</time>
      </trkpt>
      <trkpt lat="44.02057" lon="5.23588">
        <ele>124.147339</ele>
        <time>2011-11-11T10:02:11Z</time>
      </trkpt>
      <trkpt lat="44.02058" lon="5.23592">
        <ele>124.628052</ele>
        <time>2011-11-11T10:02:14Z</time>
      </trkpt>
      <trkpt lat="44.02062" lon="5.23603">
        <ele>124.628052</ele>
        <time>2011-11-11T10:02:22Z</time>
      </trkpt>
      <trkpt lat="44.02069" lon="5.23614">
        <ele>124.628052</ele>
        <time>2011-11-11T10:02:35Z</time>
      </trkpt>
      <trkpt lat="44.02073" lon="5.23627">
        <ele>124.628052</ele>
        <time>2011-11-11T10:02:44Z</time>
      </trkpt>
      <trkpt lat="44.02077" lon="5.2363">
        <ele>124.628052</ele>
        <time>2011-11-11T10:02:51Z</time>
      </trkpt>
      <trkpt lat="44.02084" lon="5.23641">
        <ele>124.628052</ele>
        <time>2011-11-11T10:03:01Z</time>
      </trkpt>
      <trkpt lat="44.0208" lon="5.23655">
        <ele>124.628052</ele>
        <time>2011-11-11T10:03:09Z</time>
      </trkpt>
      <trkpt lat="44.02088" lon="5.23663">
        <ele>124.628052</ele>
        <time>2011-11-11T10:03:21Z</time>
      </trkpt>
      <trkpt lat="44.02091" lon="5.23667">
        <ele>125.108765</ele>
        <time>2011-11-11T10:03:27Z</time>
      </trkpt>
      <trkpt lat="44.02098" lon="5.23682">
        <ele>125.108765</ele>
        <time>2011-11-11T10:03:43Z</time>
      </trkpt>
      <trkpt lat="44.02097" lon="5.23683">
        <ele>125.108765</ele>
        <time>2011-11-11T10:03:44Z</time>
      </trkpt>
      <trkpt lat="44.02096" lon="5.23692">
        <ele>125.108765</ele>
        <time>2011-11-11T10:03:50Z</time>
      </trkpt>
      <trkpt lat="44.02089" lon="5.23729">
        <ele>125.589355</ele>
        <time>2011-11-11T10:04:13Z</time>
      </trkpt>
      <trkpt lat="44.02089" lon="5.2375">
        <ele>127.031372</ele>
        <time>2011-11-11T10:04:27Z</time>
      </trkpt>
      <trkpt lat="44.02093" lon="5.23757">
        <ele>127.511963</ele>
        <time>2011-11-11T10:04:33Z</time>
      </trkpt>
      <trkpt lat="44.02092" lon="5.23782">
        <ele>129.915283</ele>
        <time>2011-11-11T10:04:54Z</time>
      </trkpt>
      <trkpt lat="44.0209" lon="5.23785">
        <ele>129.915283</ele>
        <time>2011-11-11T10:04:56Z</time>
      </trkpt>
      <trkpt lat="44.02086" lon="5.23804">
        <ele>131.837891</ele>
        <time>2011-11-11T10:05:12Z</time>
      </trkpt>
      <trkpt lat="44.02074" lon="5.23839">
        <ele>134.721924</ele>
        <time>2011-11-11T10:05:41Z</time>
      </trkpt>
      <trkpt lat="44.02071" lon="5.23861">
        <ele>136.644653</ele>
        <time>2011-11-11T10:05:57Z</time>
      </trkpt>
      <trkpt lat="44.02073" lon="5.23882">
        <ele>139.047852</ele>
        <time>2011-11-11T10:06:18Z</time>
      </trkpt>
      <trkpt lat="44.02093" lon="5.23897">
        <ele>140.970459</ele>
        <time>2011-11-11T10:06:37Z</time>
      </trkpt>
      <trkpt lat="44.02098" lon="5.23901">
        <ele>141.45105</ele>
        <time>2011-11-11T10:06:42Z</time>
      </trkpt>
      <trkpt lat="44.02105" lon="5.23912">
        <ele>141.931763</ele>
        <time>2011-11-11T10:06:51Z</time>
      </trkpt>
      <trkpt lat="44.02117" lon="5.23924">
        <ele>143.85437</ele>
        <time>2011-11-11T10:07:07Z</time>
      </trkpt>
      <trkpt lat="44.02134" lon="5.23935">
        <ele>146.738403</ele>
        <time>2011-11-11T10:07:29Z</time>
      </trkpt>
      <trkpt lat="44.02138" lon="5.23952">
        <ele>148.661011</ele>
        <time>2011-11-11T10:07:43Z</time>
      </trkpt>
      <trkpt lat="44.02151" lon="5.23967">
        <ele>151.064209</ele>
        <time>2011-11-11T10:08:03Z</time>
      </trkpt>
      <trkpt lat="44.02155" lon="5.23981">
        <ele>231.334351</ele>
        <time>2011-11-11T10:08:15Z</time>
      </trkpt>
      <trkpt lat="44.02157" lon="5.23981">
        <ele>231.334351</ele>
        <time>2011-11-11T10:08:16Z</time>
      </trkpt>
      <trkpt lat="44.02172" lon="5.23998">
        <ele>233.25708</ele>
        <time>2011-11-11T10:08:39Z</time>
      </trkpt>
      <trkpt lat="44.02199" lon="5.24015">
        <ele>236.140991</ele>
        <time>2011-11-11T10:09:02Z</time>
      </trkpt>
      <trkpt lat="44.02203" lon="5.24018">
        <ele>237.102295</ele>
        <time>2011-11-11T10:09:09Z</time>
      </trkpt>
      <trkpt lat="44.02192" lon="5.24044">
        <ele>240.467041</ele>
        <time>2011-11-11T10:09:36Z</time>
      </trkpt>
      <trkpt lat="44.02181" lon="5.24067">
        <ele>243.35083</ele>
        <time>2011-11-11T10:09:57Z</time>
      </trkpt>
      <trkpt lat="44.02183" lon="5.24072">
        <ele>244.792847</ele>
        <time>2011-11-11T10:10:23Z</time>
      </trkpt>
      <trkpt lat="44.02183" lon="5.24072">
        <ele>250.0802</ele>
        <time>2011-11-11T10:11:28Z</time>
      </trkpt>
      <trkpt lat="44.02181" lon="5.24074">
        <ele>249.599487</ele>
        <time>2011-11-11T10:12:15Z</time>
      </trkpt>
      <trkpt lat="44.02182" lon="5.24079">
        <ele>252.483398</ele>
        <time>2011-11-11T10:12:57Z</time>
      </trkpt>
      <trkpt lat="44.02179" lon="5.24096">
        <ele>255.36731</ele>
        <time>2011-11-11T10:13:16Z</time>
      </trkpt>
      <trkpt lat="44.02176" lon="5.24111">
        <ele>257.290039</ele>
        <time>2011-11-11T10:13:31Z</time>
      </trkpt>
      <trkpt lat="44.02176" lon="5.24114">
        <ele>257.770752</ele>
        <time>2011-11-11T10:13:34Z</time>
      </trkpt>
      <trkpt lat="44.02175" lon="5.24117">
        <ele>258.251343</ele>
        <time>2011-11-11T10:13:36Z</time>
      </trkpt>
      <trkpt lat="44.02176" lon="5.24132">
        <ele>259.212646</ele>
        <time>2011-11-11T10:13:44Z</time>
      </trkpt>
      <trkpt lat="44.02174" lon="5.24148">
        <ele>260.654541</ele>
        <time>2011-11-11T10:13:59Z</time>
      </trkpt>
      <trkpt lat="44.02171" lon="5.2417">
        <ele>262.577148</ele>
        <time>2011-11-11T10:14:14Z</time>
      </trkpt>
      <trkpt lat="44.0217" lon="5.24199">
        <ele>264.980591</ele>
        <time>2011-11-11T10:14:32Z</time>
      </trkpt>
      <trkpt lat="44.0217" lon="5.242">
        <ele>264.980591</ele>
        <time>2011-11-11T10:14:33Z</time>
      </trkpt>
      <trkpt lat="44.0217" lon="5.24205">
        <ele>265.461304</ele>
        <time>2011-11-11T10:14:36Z</time>
      </trkpt>
      <trkpt lat="44.02166" lon="5.24224">
        <ele>266.903198</ele>
        <time>2011-11-11T10:14:49Z</time>
      </trkpt>
      <trkpt lat="44.02166" lon="5.24227">
        <ele>266.903198</ele>
        <time>2011-11-11T10:14:52Z</time>
      </trkpt>
      <trkpt lat="44.02165" lon="5.24231">
        <ele>267.864502</ele>
        <time>2011-11-11T10:14:56Z</time>
      </trkpt>
      <trkpt lat="44.02163" lon="5.24235">
        <ele>268.345093</ele>
        <time>2011-11-11T10:15:00Z</time>
      </trkpt>
      <trkpt lat="44.02165" lon="5.24256">
        <ele>270.748413</ele>
        <time>2011-11-11T10:15:16Z</time>
      </trkpt>
      <trkpt lat="44.02164" lon="5.24274">
        <ele>272.671143</ele>
        <time>2011-11-11T10:15:30Z</time>
      </trkpt>
      <trkpt lat="44.02164" lon="5.24277">
        <ele>272.671143</ele>
        <time>2011-11-11T10:15:32Z</time>
      </trkpt>
      <trkpt lat="44.02166" lon="5.24289">
        <ele>274.113037</ele>
        <time>2011-11-11T10:15:42Z</time>
      </trkpt>
      <trkpt lat="44.02167" lon="5.24304">
        <ele>276.035645</ele>
        <time>2011-11-11T10:15:56Z</time>
      </trkpt>
      <trkpt lat="44.02168" lon="5.24308">
        <ele>276.516357</ele>
        <time>2011-11-11T10:16:00Z</time>
      </trkpt>
      <trkpt lat="44.02167" lon="5.24328">
        <ele>278.919678</ele>
        <time>2011-11-11T10:16:17Z</time>
      </trkpt>
      <trkpt lat="44.0216" lon="5.24349">
        <ele>281.803589</ele>
        <time>2011-11-11T10:16:37Z</time>
      </trkpt>
      <trkpt lat="44.02159" lon="5.24352">
        <ele>282.765015</ele>
        <time>2011-11-11T10:16:40Z</time>
      </trkpt>
      <trkpt lat="44.02154" lon="5.24367">
        <ele>284.687622</ele>
        <time>2011-11-11T10:16:57Z</time>
      </trkpt>
      <trkpt lat="44.0215" lon="5.24391">
        <ele>287.571411</ele>
        <time>2011-11-11T10:17:16Z</time>
      </trkpt>
      <trkpt lat="44.0215" lon="5.24402">
        <ele>288.532959</ele>
        <time>2011-11-11T10:17:25Z</time>
      </trkpt>
      <trkpt lat="44.02154" lon="5.24418">
        <ele>290.455566</ele>
        <time>2011-11-11T10:17:38Z</time>
      </trkpt>
      <trkpt lat="44.02154" lon="5.2444">
        <ele>292.858765</ele>
        <time>2011-11-11T10:18:00Z</time>
      </trkpt>
      <trkpt lat="44.02156" lon="5.24462">
        <ele>295.261963</ele>
        <time>2011-11-11T10:18:18Z</time>
      </trkpt>
      <trkpt lat="44.02157" lon="5.24485">
        <ele>298.626709</ele>
        <time>2011-11-11T10:18:38Z</time>
      </trkpt>
      <trkpt lat="44.0216" lon="5.24498">
        <ele>300.549316</ele>
        <time>2011-11-11T10:18:51Z</time>
      </trkpt>
      <trkpt lat="44.02163" lon="5.24513">
        <ele>302.471924</ele>
        <time>2011-11-11T10:19:04Z</time>
      </trkpt>
      <trkpt lat="44.02163" lon="5.24514">
        <ele>302.471924</ele>
        <time>2011-11-11T10:19:05Z</time>
      </trkpt>
      <trkpt lat="44.02164" lon="5.24522">
        <ele>303.433228</ele>
        <time>2011-11-11T10:19:12Z</time>
      </trkpt>
      <trkpt lat="44.02168" lon="5.24538">
        <ele>304.394653</ele>
        <time>2011-11-11T10:19:23Z</time>
      </trkpt>
      <trkpt lat="44.02169" lon="5.2455">
        <ele>305.355957</ele>
        <time>2011-11-11T10:19:32Z</time>
      </trkpt>
      <trkpt lat="44.02173" lon="5.24575">
        <ele>307.759277</ele>
        <time>2011-11-11T10:19:50Z</time>
      </trkpt>
      <trkpt lat="44.02177" lon="5.2459">
        <ele>308.720459</ele>
        <time>2011-11-11T10:20:02Z</time>
      </trkpt>
      <trkpt lat="44.02177" lon="5.24594">
        <ele>309.201172</ele>
        <time>2011-11-11T10:20:05Z</time>
      </trkpt>
      <trkpt lat="44.02179" lon="5.246">
        <ele>309.681885</ele>
        <time>2011-11-11T10:20:09Z</time>
      </trkpt>
      <trkpt lat="44.0218" lon="5.24606">
        <ele>310.162476</ele>
        <time>2011-11-11T10:20:14Z</time>
      </trkpt>
      <trkpt lat="44.02184" lon="5.24621">
        <ele>311.123779</ele>
        <time>2011-11-11T10:20:26Z</time>
      </trkpt>
      <trkpt lat="44.02184" lon="5.24643">
        <ele>313.527222</ele>
        <time>2011-11-11T10:20:44Z</time>
      </trkpt>
      <trkpt lat="44.02185" lon="5.24653">
        <ele>314.007813</ele>
        <time>2011-11-11T10:20:52Z</time>
      </trkpt>
      <trkpt lat="44.0219" lon="5.24668">
        <ele>314.969116</ele>
        <time>2011-11-11T10:21:03Z</time>
      </trkpt>
      <trkpt lat="44.02191" lon="5.24679">
        <ele>316.411011</ele>
        <time>2011-11-11T10:21:13Z</time>
      </trkpt>
      <trkpt lat="44.02192" lon="5.24684">
        <ele>316.411011</ele>
        <time>2011-11-11T10:21:16Z</time>
      </trkpt>
      <trkpt lat="44.02193" lon="5.24694">
        <ele>316.891724</ele>
        <time>2011-11-11T10:21:23Z</time>
      </trkpt>
      <trkpt lat="44.02196" lon="5.24713">
        <ele>317.853027</ele>
        <time>2011-11-11T10:21:38Z</time>
      </trkpt>
      <trkpt lat="44.02196" lon="5.24714">
        <ele>318.333618</ele>
        <time>2011-11-11T10:21:39Z</time>
      </trkpt>
      <trkpt lat="44.02198" lon="5.24735">
        <ele>319.295044</ele>
        <time>2011-11-11T10:21:53Z</time>
      </trkpt>
      <trkpt lat="44.02198" lon="5.24741">
        <ele>319.295044</ele>
        <time>2011-11-11T10:21:57Z</time>
      </trkpt>
      <trkpt lat="44.02197" lon="5.24762">
        <ele>320.737061</ele>
        <time>2011-11-11T10:22:12Z</time>
      </trkpt>
      <trkpt lat="44.022" lon="5.24778">
        <ele>321.698364</ele>
        <time>2011-11-11T10:22:25Z</time>
      </trkpt>
      <trkpt lat="44.02202" lon="5.24794">
        <ele>323.140381</ele>
        <time>2011-11-11T10:22:39Z</time>
      </trkpt>
      <trkpt lat="44.02204" lon="5.24805">
        <ele>323.620972</ele>
        <time>2011-11-11T10:22:46Z</time>
      </trkpt>
      <trkpt lat="44.02205" lon="5.24815">
        <ele>324.101563</ele>
        <time>2011-11-11T10:22:54Z</time>
      </trkpt>
      <trkpt lat="44.02205" lon="5.24818">
        <ele>324.582275</ele>
        <time>2011-11-11T10:22:56Z</time>
      </trkpt>
      <trkpt lat="44.02205" lon="5.24838">
        <ele>326.02417</ele>
        <time>2011-11-11T10:23:13Z</time>
      </trkpt>
      <trkpt lat="44.02204" lon="5.24852">
        <ele>326.985596</ele>
        <time>2011-11-11T10:23:26Z</time>
      </trkpt>
      <trkpt lat="44.02202" lon="5.24863">
        <ele>327.946777</ele>
        <time>2011-11-11T10:23:34Z</time>
      </trkpt>
      <trkpt lat="44.02199" lon="5.24878">
        <ele>329.388916</ele>
        <time>2011-11-11T10:23:48Z</time>
      </trkpt>
      <trkpt lat="44.02198" lon="5.24897">
        <ele>330.830933</ele>
        <time>2011-11-11T10:24:03Z</time>
      </trkpt>
      <trkpt lat="44.02199" lon="5.24903">
        <ele>331.311523</ele>
        <time>2011-11-11T10:24:09Z</time>
      </trkpt>
      <trkpt lat="44.02193" lon="5.24921">
        <ele>333.234131</ele>
        <time>2011-11-11T10:24:26Z</time>
      </trkpt>
      <trkpt lat="44.0219" lon="5.24927">
        <ele>333.234131</ele>
        <time>2011-11-11T10:24:31Z</time>
      </trkpt>
      <trkpt lat="44.02182" lon="5.24949">
        <ele>335.637329</ele>
        <time>2011-11-11T10:24:51Z</time>
      </trkpt>
      <trkpt lat="44.02176" lon="5.24969">
        <ele>338.521484</ele>
        <time>2011-11-11T10:25:10Z</time>
      </trkpt>
      <trkpt lat="44.02175" lon="5.24979">
        <ele>339.963379</ele>
        <time>2011-11-11T10:25:26Z</time>
      </trkpt>
      <trkpt lat="44.02166" lon="5.25">
        <ele>342.366699</ele>
        <time>2011-11-11T10:25:47Z</time>
      </trkpt>
      <trkpt lat="44.02159" lon="5.25023">
        <ele>345.25061</ele>
        <time>2011-11-11T10:26:09Z</time>
      </trkpt>
      <trkpt lat="44.02155" lon="5.25045">
        <ele>347.653931</ele>
        <time>2011-11-11T10:26:29Z</time>
      </trkpt>
      <trkpt lat="44.02146" lon="5.25059">
        <ele>350.057251</ele>
        <time>2011-11-11T10:26:47Z</time>
      </trkpt>
      <trkpt lat="44.02137" lon="5.25077">
        <ele>352.460571</ele>
        <time>2011-11-11T10:27:06Z</time>
      </trkpt>
      <trkpt lat="44.02132" lon="5.25088">
        <ele>354.383179</ele>
        <time>2011-11-11T10:27:23Z</time>
      </trkpt>
      <trkpt lat="44.02121" lon="5.25105">
        <ele>357.747803</ele>
        <time>2011-11-11T10:27:45Z</time>
      </trkpt>
      <trkpt lat="44.02109" lon="5.25121">
        <ele>360.631714</ele>
        <time>2011-11-11T10:28:06Z</time>
      </trkpt>
      <trkpt lat="44.02104" lon="5.25139">
        <ele>363.996338</ele>
        <time>2011-11-11T10:28:24Z</time>
      </trkpt>
      <trkpt lat="44.02098" lon="5.25151">
        <ele>365.438354</ele>
        <time>2011-11-11T10:28:36Z</time>
      </trkpt>
      <trkpt lat="44.02096" lon="5.25153">
        <ele>365.918945</ele>
        <time>2011-11-11T10:28:38Z</time>
      </trkpt>
      <trkpt lat="44.02089" lon="5.25169">
        <ele>367.841553</ele>
        <time>2011-11-11T10:28:53Z</time>
      </trkpt>
      <trkpt lat="44.02076" lon="5.25186">
        <ele>370.725586</ele>
        <time>2011-11-11T10:29:12Z</time>
      </trkpt>
      <trkpt lat="44.02062" lon="5.25204">
        <ele>373.609497</ele>
        <time>2011-11-11T10:29:37Z</time>
      </trkpt>
      <trkpt lat="44.02055" lon="5.25221">
        <ele>375.532104</ele>
        <time>2011-11-11T10:29:54Z</time>
      </trkpt>
      <trkpt lat="44.02057" lon="5.25231">
        <ele>376.49353</ele>
        <time>2011-11-11T10:30:01Z</time>
      </trkpt>
      <trkpt lat="44.02052" lon="5.25251">
        <ele>379.377441</ele>
        <time>2011-11-11T10:30:19Z</time>
      </trkpt>
      <trkpt lat="44.02052" lon="5.25255">
        <ele>380.338745</ele>
        <time>2011-11-11T10:30:42Z</time>
      </trkpt>
      <trkpt lat="44.02051" lon="5.25251">
        <ele>380.819458</ele>
        <time>2011-11-11T10:31:10Z</time>
      </trkpt>
      <trkpt lat="44.02053" lon="5.25254">
        <ele>381.300049</ele>
        <time>2011-11-11T10:33:08Z</time>
      </trkpt>
      <trkpt lat="44.02052" lon="5.25254">
        <ele>381.300049</ele>
        <time>2011-11-11T10:33:37Z</time>
      </trkpt>
      <trkpt lat="44.02052" lon="5.25256">
        <ele>382.742065</ele>
        <time>2011-11-11T10:33:52Z</time>
      </trkpt>
      <trkpt lat="44.02053" lon="5.25257">
        <ele>382.261353</ele>
        <time>2011-11-11T10:34:47Z</time>
      </trkpt>
      <trkpt lat="44.02049" lon="5.25272">
        <ele>384.664795</ele>
        <time>2011-11-11T10:35:29Z</time>
      </trkpt>
      <trkpt lat="44.02042" lon="5.25305">
        <ele>387.548584</ele>
        <time>2011-11-11T10:35:54Z</time>
      </trkpt>
      <trkpt lat="44.0204" lon="5.25324">
        <ele>390.432617</ele>
        <time>2011-11-11T10:36:10Z</time>
      </trkpt>
      <trkpt lat="44.02041" lon="5.25345">
        <ele>391.874512</ele>
        <time>2011-11-11T10:36:26Z</time>
      </trkpt>
      <trkpt lat="44.02041" lon="5.25374">
        <ele>394.758545</ele>
        <time>2011-11-11T10:36:49Z</time>
      </trkpt>
      <trkpt lat="44.0204" lon="5.25385">
        <ele>396.200562</ele>
        <time>2011-11-11T10:37:03Z</time>
      </trkpt>
      <trkpt lat="44.02034" lon="5.25411">
        <ele>399.084351</ele>
        <time>2011-11-11T10:37:28Z</time>
      </trkpt>
      <trkpt lat="44.02027" lon="5.25432">
        <ele>401.968506</ele>
        <time>2011-11-11T10:37:49Z</time>
      </trkpt>
      <trkpt lat="44.0203" lon="5.25455">
        <ele>404.371704</ele>
        <time>2011-11-11T10:38:07Z</time>
      </trkpt>
      <trkpt lat="44.0203" lon="5.25458">
        <ele>404.371704</ele>
        <time>2011-11-11T10:38:09Z</time>
      </trkpt>
      <trkpt lat="44.02032" lon="5.2546">
        <ele>404.852295</ele>
        <time>2011-11-11T10:38:11Z</time>
      </trkpt>
      <trkpt lat="44.02033" lon="5.25465">
        <ele>405.333008</ele>
        <time>2011-11-11T10:38:14Z</time>
      </trkpt>
      <trkpt lat="44.02038" lon="5.25482">
        <ele>407.255615</ele>
        <time>2011-11-11T10:38:30Z</time>
      </trkpt>
      <trkpt lat="44.0204" lon="5.25495">
        <ele>408.697632</ele>
        <time>2011-11-11T10:38:40Z</time>
      </trkpt>
      <trkpt lat="44.02041" lon="5.255">
        <ele>409.178345</ele>
        <time>2011-11-11T10:38:45Z</time>
      </trkpt>
      <trkpt lat="44.02042" lon="5.25508">
        <ele>410.139648</ele>
        <time>2011-11-11T10:38:51Z</time>
      </trkpt>
      <trkpt lat="44.02042" lon="5.25516">
        <ele>410.620239</ele>
        <time>2011-11-11T10:38:58Z</time>
      </trkpt>
      <trkpt lat="44.02041" lon="5.2552">
        <ele>411.100952</ele>
        <time>2011-11-11T10:39:01Z</time>
      </trkpt>
      <trkpt lat="44.02043" lon="5.25532">
        <ele>412.542847</ele>
        <time>2011-11-11T10:39:11Z</time>
      </trkpt>
      <trkpt lat="44.02042" lon="5.25535">
        <ele>413.02356</ele>
        <time>2011-11-11T10:39:13Z</time>
      </trkpt>
      <trkpt lat="44.02042" lon="5.25544">
        <ele>413.504272</ele>
        <time>2011-11-11T10:39:21Z</time>
      </trkpt>
      <trkpt lat="44.02042" lon="5.25556">
        <ele>415.42688</ele>
        <time>2011-11-11T10:39:31Z</time>
      </trkpt>
      <trkpt lat="44.0204" lon="5.25571">
        <ele>416.868896</ele>
        <time>2011-11-11T10:39:47Z</time>
      </trkpt>
      <trkpt lat="44.02039" lon="5.25585">
        <ele>418.310791</ele>
        <time>2011-11-11T10:39:59Z</time>
      </trkpt>
      <trkpt lat="44.02041" lon="5.25595">
        <ele>419.272217</ele>
        <time>2011-11-11T10:40:06Z</time>
      </trkpt>
      <trkpt lat="44.02039" lon="5.25603">
        <ele>419.752808</ele>
        <time>2011-11-11T10:40:12Z</time>
      </trkpt>
      <trkpt lat="44.02039" lon="5.25608">
        <ele>420.233398</ele>
        <time>2011-11-11T10:40:16Z</time>
      </trkpt>
      <trkpt lat="44.02039" lon="5.25618">
        <ele>421.675415</ele>
        <time>2011-11-11T10:40:27Z</time>
      </trkpt>
      <trkpt lat="44.02039" lon="5.25623">
        <ele>422.156006</ele>
        <time>2011-11-11T10:40:30Z</time>
      </trkpt>
      <trkpt lat="44.02037" lon="5.25639">
        <ele>424.559448</ele>
        <time>2011-11-11T10:40:48Z</time>
      </trkpt>
      <trkpt lat="44.02035" lon="5.25659">
        <ele>426.482056</ele>
        <time>2011-11-11T10:41:05Z</time>
      </trkpt>
      <trkpt lat="44.02037" lon="5.25673">
        <ele>427.92395</ele>
        <time>2011-11-11T10:41:17Z</time>
      </trkpt>
      <trkpt lat="44.02033" lon="5.25687">
        <ele>429.846558</ele>
        <time>2011-11-11T10:41:33Z</time>
      </trkpt>
      <trkpt lat="44.02031" lon="5.25703">
        <ele>431.288574</ele>
        <time>2011-11-11T10:41:46Z</time>
      </trkpt>
      <trkpt lat="44.02028" lon="5.2572">
        <ele>433.211304</ele>
        <time>2011-11-11T10:42:00Z</time>
      </trkpt>
      <trkpt lat="44.02026" lon="5.25743">
        <ele>435.133911</ele>
        <time>2011-11-11T10:42:16Z</time>
      </trkpt>
      <trkpt lat="44.02025" lon="5.25749">
        <ele>435.614502</ele>
        <time>2011-11-11T10:42:20Z</time>
      </trkpt>
      <trkpt lat="44.02015" lon="5.25769">
        <ele>437.537109</ele>
        <time>2011-11-11T10:42:37Z</time>
      </trkpt>
      <trkpt lat="44.02014" lon="5.25774">
        <ele>438.017822</ele>
        <time>2011-11-11T10:42:42Z</time>
      </trkpt>
      <trkpt lat="44.02008" lon="5.25792">
        <ele>439.94043</ele>
        <time>2011-11-11T10:42:59Z</time>
      </trkpt>
      <trkpt lat="44.02004" lon="5.25807">
        <ele>441.863159</ele>
        <time>2011-11-11T10:43:14Z</time>
      </trkpt>
      <trkpt lat="44.01997" lon="5.25825">
        <ele>443.785767</ele>
        <time>2011-11-11T10:43:29Z</time>
      </trkpt>
      <trkpt lat="44.01994" lon="5.25838">
        <ele>445.227661</ele>
        <time>2011-11-11T10:43:42Z</time>
      </trkpt>
      <trkpt lat="44.0199" lon="5.25854">
        <ele>446.669678</ele>
        <time>2011-11-11T10:44:00Z</time>
      </trkpt>
      <trkpt lat="44.01988" lon="5.2587">
        <ele>447.630981</ele>
        <time>2011-11-11T10:44:12Z</time>
      </trkpt>
      <trkpt lat="44.01984" lon="5.25886">
        <ele>449.553711</ele>
        <time>2011-11-11T10:44:26Z</time>
      </trkpt>
      <trkpt lat="44.0198" lon="5.25904">
        <ele>451.476318</ele>
        <time>2011-11-11T10:44:42Z</time>
      </trkpt>
      <trkpt lat="44.01979" lon="5.25919">
        <ele>453.398926</ele>
        <time>2011-11-11T10:44:55Z</time>
      </trkpt>
      <trkpt lat="44.01978" lon="5.25938">
        <ele>455.321533</ele>
        <time>2011-11-11T10:45:12Z</time>
      </trkpt>
      <trkpt lat="44.01978" lon="5.25958">
        <ele>458.205566</ele>
        <time>2011-11-11T10:45:27Z</time>
      </trkpt>
      <trkpt lat="44.01978" lon="5.25976">
        <ele>460.608765</ele>
        <time>2011-11-11T10:45:44Z</time>
      </trkpt>
      <trkpt lat="44.01974" lon="5.25993">
        <ele>463.492798</ele>
        <time>2011-11-11T10:46:02Z</time>
      </trkpt>
      <trkpt lat="44.01966" lon="5.26005">
        <ele>465.415527</ele>
        <time>2011-11-11T10:46:18Z</time>
      </trkpt>
      <trkpt lat="44.01959" lon="5.26017">
        <ele>467.818726</ele>
        <time>2011-11-11T10:46:33Z</time>
      </trkpt>
      <trkpt lat="44.01954" lon="5.26031">
        <ele>469.741333</ele>
        <time>2011-11-11T10:46:46Z</time>
      </trkpt>
      <trkpt lat="44.01949" lon="5.26044">
        <ele>471.18335</ele>
        <time>2011-11-11T10:46:59Z</time>
      </trkpt>
      <trkpt lat="44.01945" lon="5.26055">
        <ele>472.144653</ele>
        <time>2011-11-11T10:47:23Z</time>
      </trkpt>
      <trkpt lat="44.01943" lon="5.2606">
        <ele>473.106079</ele>
        <time>2011-11-11T10:47:43Z</time>
      </trkpt>
      <trkpt lat="44.01941" lon="5.26068">
        <ele>475.028687</ele>
        <time>2011-11-11T10:48:06Z</time>
      </trkpt>
      <trkpt lat="44.01935" lon="5.26087">
        <ele>477.912476</ele>
        <time>2011-11-11T10:48:23Z</time>
      </trkpt>
      <trkpt lat="44.01932" lon="5.26091">
        <ele>481.757813</ele>
        <time>2011-11-11T10:48:31Z</time>
      </trkpt>
      <trkpt lat="44.01933" lon="5.26094">
        <ele>478.393188</ele>
        <time>2011-11-11T10:48:37Z</time>
      </trkpt>
      <trkpt lat="44.01932" lon="5.2609">
        <ele>478.873901</ele>
        <time>2011-11-11T10:49:53Z</time>
      </trkpt>
      <trkpt lat="44.01929" lon="5.261">
        <ele>480.315918</ele>
        <time>2011-11-11T10:50:27Z</time>
      </trkpt>
      <trkpt lat="44.01926" lon="5.26122">
        <ele>483.68042</ele>
        <time>2011-11-11T10:50:51Z</time>
      </trkpt>
      <trkpt lat="44.01924" lon="5.26136">
        <ele>485.603027</ele>
        <time>2011-11-11T10:51:06Z</time>
      </trkpt>
      <trkpt lat="44.01914" lon="5.26157">
        <ele>488.487183</ele>
        <time>2011-11-11T10:51:37Z</time>
      </trkpt>
      <trkpt lat="44.01909" lon="5.26175">
        <ele>490.890381</ele>
        <time>2011-11-11T10:51:58Z</time>
      </trkpt>
      <trkpt lat="44.01899" lon="5.26188">
        <ele>493.774292</ele>
        <time>2011-11-11T10:52:20Z</time>
      </trkpt>
      <trkpt lat="44.01896" lon="5.26209">
        <ele>495.696899</ele>
        <time>2011-11-11T10:52:38Z</time>
      </trkpt>
      <trkpt lat="44.01887" lon="5.26227">
        <ele>498.580933</ele>
        <time>2011-11-11T10:52:54Z</time>
      </trkpt>
      <trkpt lat="44.01886" lon="5.26232">
        <ele>499.061523</ele>
        <time>2011-11-11T10:52:58Z</time>
      </trkpt>
      <trkpt lat="44.01883" lon="5.26238">
        <ele>500.022949</ele>
        <time>2011-11-11T10:53:03Z</time>
      </trkpt>
      <trkpt lat="44.01878" lon="5.26253">
        <ele>501.945557</ele>
        <time>2011-11-11T10:53:18Z</time>
      </trkpt>
      <trkpt lat="44.01874" lon="5.26268">
        <ele>503.868164</ele>
        <time>2011-11-11T10:53:37Z</time>
      </trkpt>
      <trkpt lat="44.01868" lon="5.26284">
        <ele>505.790894</ele>
        <time>2011-11-11T10:53:52Z</time>
      </trkpt>
      <trkpt lat="44.01867" lon="5.26289">
        <ele>506.271484</ele>
        <time>2011-11-11T10:54:12Z</time>
      </trkpt>
      <trkpt lat="44.0186" lon="5.263">
        <ele>507.713501</ele>
        <time>2011-11-11T10:54:22Z</time>
      </trkpt>
      <trkpt lat="44.01853" lon="5.2632">
        <ele>510.116699</ele>
        <time>2011-11-11T10:54:40Z</time>
      </trkpt>
      <trkpt lat="44.01847" lon="5.26329">
        <ele>512.52002</ele>
        <time>2011-11-11T10:54:55Z</time>
      </trkpt>
      <trkpt lat="44.01834" lon="5.26348">
        <ele>515.884644</ele>
        <time>2011-11-11T10:55:16Z</time>
      </trkpt>
      <trkpt lat="44.01825" lon="5.26362">
        <ele>518.287842</ele>
        <time>2011-11-11T10:55:31Z</time>
      </trkpt>
      <trkpt lat="44.01824" lon="5.26372">
        <ele>519.249268</ele>
        <time>2011-11-11T10:55:39Z</time>
      </trkpt>
      <trkpt lat="44.01811" lon="5.26393">
        <ele>522.133179</ele>
        <time>2011-11-11T10:55:59Z</time>
      </trkpt>
      <trkpt lat="44.01803" lon="5.26406">
        <ele>524.536499</ele>
        <time>2011-11-11T10:56:15Z</time>
      </trkpt>
      <trkpt lat="44.01794" lon="5.26421">
        <ele>526.939819</ele>
        <time>2011-11-11T10:56:39Z</time>
      </trkpt>
      <trkpt lat="44.01792" lon="5.26444">
        <ele>529.34314</ele>
        <time>2011-11-11T10:56:57Z</time>
      </trkpt>
      <trkpt lat="44.01791" lon="5.26466">
        <ele>532.227051</ele>
        <time>2011-11-11T10:57:16Z</time>
      </trkpt>
      <trkpt lat="44.01799" lon="5.26483">
        <ele>534.149658</ele>
        <time>2011-11-11T10:57:31Z</time>
      </trkpt>
      <trkpt lat="44.01812" lon="5.26481">
        <ele>536.072388</ele>
        <time>2011-11-11T10:57:48Z</time>
      </trkpt>
      <trkpt lat="44.0183" lon="5.26476">
        <ele>537.994995</ele>
        <time>2011-11-11T10:58:09Z</time>
      </trkpt>
      <trkpt lat="44.01843" lon="5.26472">
        <ele>539.43689</ele>
        <time>2011-11-11T10:58:28Z</time>
      </trkpt>
      <trkpt lat="44.01859" lon="5.26461">
        <ele>541.359497</ele>
        <time>2011-11-11T10:58:48Z</time>
      </trkpt>
      <trkpt lat="44.01866" lon="5.26461">
        <ele>542.320923</ele>
        <time>2011-11-11T10:59:02Z</time>
      </trkpt>
      <trkpt lat="44.01867" lon="5.26461">
        <ele>542.320923</ele>
        <time>2011-11-11T11:00:07Z</time>
      </trkpt>
      <trkpt lat="44.01867" lon="5.26462">
        <ele>545.685547</ele>
        <time>2011-11-11T11:01:25Z</time>
      </trkpt>
      <trkpt lat="44.01867" lon="5.26462">
        <ele>542.320923</ele>
        <time>2011-11-11T11:01:43Z</time>
      </trkpt>
      <trkpt lat="44.01867" lon="5.26461">
        <ele>546.16626</ele>
        <time>2011-11-11T11:04:48Z</time>
      </trkpt>
      <trkpt lat="44.01867" lon="5.26461">
        <ele>543.282104</ele>
        <time>2011-11-11T11:05:26Z</time>
      </trkpt>
      <trkpt lat="44.01863" lon="5.26466">
        <ele>545.204834</ele>
        <time>2011-11-11T11:06:33Z</time>
      </trkpt>
      <trkpt lat="44.01859" lon="5.26472">
        <ele>545.685547</ele>
        <time>2011-11-11T11:06:41Z</time>
      </trkpt>
      <trkpt lat="44.01851" lon="5.26485">
        <ele>547.127441</ele>
        <time>2011-11-11T11:07:00Z</time>
      </trkpt>
      <trkpt lat="44.0185" lon="5.26486">
        <ele>547.127441</ele>
        <time>2011-11-11T11:07:01Z</time>
      </trkpt>
      <trkpt lat="44.01842" lon="5.26496">
        <ele>548.088867</ele>
        <time>2011-11-11T11:07:14Z</time>
      </trkpt>
      <trkpt lat="44.0183" lon="5.26511">
        <ele>550.011475</ele>
        <time>2011-11-11T11:07:33Z</time>
      </trkpt>
      <trkpt lat="44.01819" lon="5.26526">
        <ele>551.453369</ele>
        <time>2011-11-11T11:07:51Z</time>
      </trkpt>
      <trkpt lat="44.01814" lon="5.26533">
        <ele>552.895264</ele>
        <time>2011-11-11T11:08:00Z</time>
      </trkpt>
      <trkpt lat="44.01808" lon="5.26536">
        <ele>553.375977</ele>
        <time>2011-11-11T11:08:07Z</time>
      </trkpt>
      <trkpt lat="44.01798" lon="5.26543">
        <ele>554.817871</ele>
        <time>2011-11-11T11:08:21Z</time>
      </trkpt>
      <trkpt lat="44.01795" lon="5.26544">
        <ele>554.817871</ele>
        <time>2011-11-11T11:08:24Z</time>
      </trkpt>
      <trkpt lat="44.01783" lon="5.26547">
        <ele>555.779297</ele>
        <time>2011-11-11T11:08:39Z</time>
      </trkpt>
      <trkpt lat="44.01782" lon="5.26547">
        <ele>555.779297</ele>
        <time>2011-11-11T11:08:40Z</time>
      </trkpt>
      <trkpt lat="44.01772" lon="5.26551">
        <ele>557.221436</ele>
        <time>2011-11-11T11:08:54Z</time>
      </trkpt>
      <trkpt lat="44.01763" lon="5.26554">
        <ele>558.66333</ele>
        <time>2011-11-11T11:09:07Z</time>
      </trkpt>
      <trkpt lat="44.01753" lon="5.26554">
        <ele>560.105225</ele>
        <time>2011-11-11T11:09:21Z</time>
      </trkpt>
      <trkpt lat="44.01745" lon="5.26559">
        <ele>561.06665</ele>
        <time>2011-11-11T11:09:35Z</time>
      </trkpt>
      <trkpt lat="44.01733" lon="5.26566">
        <ele>562.508545</ele>
        <time>2011-11-11T11:09:53Z</time>
      </trkpt>
      <trkpt lat="44.01731" lon="5.26568">
        <ele>562.989258</ele>
        <time>2011-11-11T11:09:56Z</time>
      </trkpt>
      <trkpt lat="44.01729" lon="5.26581">
        <ele>563.950439</ele>
        <time>2011-11-11T11:10:09Z</time>
      </trkpt>
      <trkpt lat="44.01727" lon="5.26595">
        <ele>564.911865</ele>
        <time>2011-11-11T11:10:21Z</time>
      </trkpt>
      <trkpt lat="44.01726" lon="5.26601">
        <ele>564.911865</ele>
        <time>2011-11-11T11:10:26Z</time>
      </trkpt>
      <trkpt lat="44.01724" lon="5.26619">
        <ele>565.873291</ele>
        <time>2011-11-11T11:10:41Z</time>
      </trkpt>
      <trkpt lat="44.0172" lon="5.26631">
        <ele>566.35376</ele>
        <time>2011-11-11T11:10:54Z</time>
      </trkpt>
      <trkpt lat="44.0172" lon="5.26635">
        <ele>566.35376</ele>
        <time>2011-11-11T11:10:58Z</time>
      </trkpt>
      <trkpt lat="44.01718" lon="5.26665">
        <ele>566.834473</ele>
        <time>2011-11-11T11:11:16Z</time>
      </trkpt>
      <trkpt lat="44.01717" lon="5.26685">
        <ele>567.315186</ele>
        <time>2011-11-11T11:11:30Z</time>
      </trkpt>
      <trkpt lat="44.01709" lon="5.26706">
        <ele>567.795654</ele>
        <time>2011-11-11T11:11:45Z</time>
      </trkpt>
      <trkpt lat="44.01705" lon="5.26716">
        <ele>567.795654</ele>
        <time>2011-11-11T11:11:54Z</time>
      </trkpt>
      <trkpt lat="44.01698" lon="5.26734">
        <ele>568.75708</ele>
        <time>2011-11-11T11:12:06Z</time>
      </trkpt>
      <trkpt lat="44.01689" lon="5.26761">
        <ele>568.75708</ele>
        <time>2011-11-11T11:12:24Z</time>
      </trkpt>
      <trkpt lat="44.01682" lon="5.26772">
        <ele>568.75708</ele>
        <time>2011-11-11T11:12:33Z</time>
      </trkpt>
      <trkpt lat="44.01667" lon="5.26808">
        <ele>569.237793</ele>
        <time>2011-11-11T11:12:56Z</time>
      </trkpt>
      <trkpt lat="44.01654" lon="5.26842">
        <ele>570.679688</ele>
        <time>2011-11-11T11:13:20Z</time>
      </trkpt>
      <trkpt lat="44.01654" lon="5.26845">
        <ele>571.1604</ele>
        <time>2011-11-11T11:13:22Z</time>
      </trkpt>
      <trkpt lat="44.0165" lon="5.2685">
        <ele>571.1604</ele>
        <time>2011-11-11T11:13:26Z</time>
      </trkpt>
      <trkpt lat="44.01645" lon="5.26861">
        <ele>572.121826</ele>
        <time>2011-11-11T11:13:34Z</time>
      </trkpt>
      <trkpt lat="44.01643" lon="5.26866">
        <ele>572.602539</ele>
        <time>2011-11-11T11:13:37Z</time>
      </trkpt>
      <trkpt lat="44.01641" lon="5.2687">
        <ele>572.602539</ele>
        <time>2011-11-11T11:13:40Z</time>
      </trkpt>
      <trkpt lat="44.01636" lon="5.26886">
        <ele>574.044434</ele>
        <time>2011-11-11T11:13:52Z</time>
      </trkpt>
      <trkpt lat="44.01631" lon="5.26895">
        <ele>574.525146</ele>
        <time>2011-11-11T11:13:59Z</time>
      </trkpt>
      <trkpt lat="44.0163" lon="5.269">
        <ele>575.005859</ele>
        <time>2011-11-11T11:14:03Z</time>
      </trkpt>
      <trkpt lat="44.01629" lon="5.26908">
        <ele>575.486328</ele>
        <time>2011-11-11T11:14:09Z</time>
      </trkpt>
      <trkpt lat="44.01625" lon="5.26914">
        <ele>576.447754</ele>
        <time>2011-11-11T11:14:16Z</time>
      </trkpt>
      <trkpt lat="44.01611" lon="5.26944">
        <ele>578.851074</ele>
        <time>2011-11-11T11:14:41Z</time>
      </trkpt>
      <trkpt lat="44.01608" lon="5.26951">
        <ele>579.812256</ele>
        <time>2011-11-11T11:14:47Z</time>
      </trkpt>
      <trkpt lat="44.01602" lon="5.26971">
        <ele>581.734863</ele>
        <time>2011-11-11T11:15:05Z</time>
      </trkpt>
      <trkpt lat="44.01601" lon="5.26975">
        <ele>581.734863</ele>
        <time>2011-11-11T11:15:09Z</time>
      </trkpt>
      <trkpt lat="44.01596" lon="5.26989">
        <ele>583.176758</ele>
        <time>2011-11-11T11:15:21Z</time>
      </trkpt>
      <trkpt lat="44.0159" lon="5.27004">
        <ele>584.618896</ele>
        <time>2011-11-11T11:15:35Z</time>
      </trkpt>
      <trkpt lat="44.01584" lon="5.27019">
        <ele>586.541504</ele>
        <time>2011-11-11T11:15:49Z</time>
      </trkpt>
      <trkpt lat="44.01577" lon="5.27036">
        <ele>587.502686</ele>
        <time>2011-11-11T11:16:04Z</time>
      </trkpt>
      <trkpt lat="44.01567" lon="5.27056">
        <ele>589.90625</ele>
        <time>2011-11-11T11:16:23Z</time>
      </trkpt>
      <trkpt lat="44.0156" lon="5.2707">
        <ele>590.867432</ele>
        <time>2011-11-11T11:16:35Z</time>
      </trkpt>
      <trkpt lat="44.01551" lon="5.27092">
        <ele>592.30957</ele>
        <time>2011-11-11T11:16:54Z</time>
      </trkpt>
      <trkpt lat="44.01546" lon="5.27107">
        <ele>593.751465</ele>
        <time>2011-11-11T11:17:11Z</time>
      </trkpt>
      <trkpt lat="44.01545" lon="5.27112">
        <ele>593.751465</ele>
        <time>2011-11-11T11:17:24Z</time>
      </trkpt>
      <trkpt lat="44.01545" lon="5.27111">
        <ele>593.751465</ele>
        <time>2011-11-11T11:18:17Z</time>
      </trkpt>
      <trkpt lat="44.01544" lon="5.27114">
        <ele>595.193359</ele>
        <time>2011-11-11T11:20:39Z</time>
      </trkpt>
      <trkpt lat="44.01535" lon="5.27135">
        <ele>595.193359</ele>
        <time>2011-11-11T11:20:59Z</time>
      </trkpt>
      <trkpt lat="44.01528" lon="5.27162">
        <ele>594.712646</ele>
        <time>2011-11-11T11:21:19Z</time>
      </trkpt>
      <trkpt lat="44.01522" lon="5.27186">
        <ele>593.751465</ele>
        <time>2011-11-11T11:21:39Z</time>
      </trkpt>
      <trkpt lat="44.01516" lon="5.27215">
        <ele>593.270752</ele>
        <time>2011-11-11T11:21:59Z</time>
      </trkpt>
      <trkpt lat="44.01508" lon="5.27249">
        <ele>590.867432</ele>
        <time>2011-11-11T11:22:25Z</time>
      </trkpt>
      <trkpt lat="44.01503" lon="5.27268">
        <ele>589.425537</ele>
        <time>2011-11-11T11:22:43Z</time>
      </trkpt>
      <trkpt lat="44.01496" lon="5.27304">
        <ele>587.021973</ele>
        <time>2011-11-11T11:23:05Z</time>
      </trkpt>
      <trkpt lat="44.01489" lon="5.27338">
        <ele>586.060791</ele>
        <time>2011-11-11T11:23:24Z</time>
      </trkpt>
      <trkpt lat="44.01485" lon="5.27353">
        <ele>585.580078</ele>
        <time>2011-11-11T11:23:33Z</time>
      </trkpt>
      <trkpt lat="44.01483" lon="5.27365">
        <ele>584.618896</ele>
        <time>2011-11-11T11:23:40Z</time>
      </trkpt>
      <trkpt lat="44.0148" lon="5.27407">
        <ele>582.696289</ele>
        <time>2011-11-11T11:24:05Z</time>
      </trkpt>
      <trkpt lat="44.01479" lon="5.27441">
        <ele>579.812256</ele>
        <time>2011-11-11T11:24:24Z</time>
      </trkpt>
      <trkpt lat="44.01477" lon="5.27469">
        <ele>578.370361</ele>
        <time>2011-11-11T11:24:41Z</time>
      </trkpt>
      <trkpt lat="44.01475" lon="5.27494">
        <ele>577.40918</ele>
        <time>2011-11-11T11:24:55Z</time>
      </trkpt>
      <trkpt lat="44.01474" lon="5.27525">
        <ele>575.967041</ele>
        <time>2011-11-11T11:25:13Z</time>
      </trkpt>
      <trkpt lat="44.01473" lon="5.27566">
        <ele>574.044434</ele>
        <time>2011-11-11T11:25:36Z</time>
      </trkpt>
      <trkpt lat="44.01471" lon="5.27612">
        <ele>572.602539</ele>
        <time>2011-11-11T11:26:02Z</time>
      </trkpt>
      <trkpt lat="44.01469" lon="5.27656">
        <ele>570.679688</ele>
        <time>2011-11-11T11:26:27Z</time>
      </trkpt>
      <trkpt lat="44.0147" lon="5.27693">
        <ele>570.198975</ele>
        <time>2011-11-11T11:26:49Z</time>
      </trkpt>
      <trkpt lat="44.01479" lon="5.27727">
        <ele>570.198975</ele>
        <time>2011-11-11T11:27:09Z</time>
      </trkpt>
      <trkpt lat="44.0149" lon="5.27753">
        <ele>570.198975</ele>
        <time>2011-11-11T11:27:25Z</time>
      </trkpt>
      <trkpt lat="44.015" lon="5.27776">
        <ele>569.718506</ele>
        <time>2011-11-11T11:27:42Z</time>
      </trkpt>
      <trkpt lat="44.01501" lon="5.27778">
        <ele>569.718506</ele>
        <time>2011-11-11T11:27:43Z</time>
      </trkpt>
      <trkpt lat="44.0151" lon="5.27802">
        <ele>568.75708</ele>
        <time>2011-11-11T11:27:59Z</time>
      </trkpt>
      <trkpt lat="44.01521" lon="5.27826">
        <ele>566.834473</ele>
        <time>2011-11-11T11:28:17Z</time>
      </trkpt>
      <trkpt lat="44.01531" lon="5.27847">
        <ele>565.392578</ele>
        <time>2011-11-11T11:28:32Z</time>
      </trkpt>
      <trkpt lat="44.01538" lon="5.27863">
        <ele>564.431152</ele>
        <time>2011-11-11T11:28:43Z</time>
      </trkpt>
      <trkpt lat="44.01545" lon="5.27887">
        <ele>562.508545</ele>
        <time>2011-11-11T11:29:00Z</time>
      </trkpt>
      <trkpt lat="44.0155" lon="5.27907">
        <ele>562.028076</ele>
        <time>2011-11-11T11:29:15Z</time>
      </trkpt>
      <trkpt lat="44.01554" lon="5.27916">
        <ele>561.547363</ele>
        <time>2011-11-11T11:29:22Z</time>
      </trkpt>
      <trkpt lat="44.01554" lon="5.27931">
        <ele>561.06665</ele>
        <time>2011-11-11T11:29:31Z</time>
      </trkpt>
      <trkpt lat="44.01557" lon="5.27947">
        <ele>561.06665</ele>
        <time>2011-11-11T11:29:41Z</time>
      </trkpt>
      <trkpt lat="44.01557" lon="5.2795">
        <ele>561.06665</ele>
        <time>2011-11-11T11:29:43Z</time>
      </trkpt>
      <trkpt lat="44.01561" lon="5.27978">
        <ele>560.105225</ele>
        <time>2011-11-11T11:30:00Z</time>
      </trkpt>
      <trkpt lat="44.01568" lon="5.28013">
        <ele>559.624756</ele>
        <time>2011-11-11T11:30:19Z</time>
      </trkpt>
      <trkpt lat="44.01574" lon="5.28042">
        <ele>559.144043</ele>
        <time>2011-11-11T11:30:34Z</time>
      </trkpt>
      <trkpt lat="44.01576" lon="5.28053">
        <ele>559.144043</ele>
        <time>2011-11-11T11:30:46Z</time>
      </trkpt>
      <trkpt lat="44.01575" lon="5.28068">
        <ele>558.182861</ele>
        <time>2011-11-11T11:32:01Z</time>
      </trkpt>
      <trkpt lat="44.01576" lon="5.28068">
        <ele>558.182861</ele>
        <time>2011-11-11T11:32:49Z</time>
      </trkpt>
      <trkpt lat="44.01568" lon="5.28076">
        <ele>557.702148</ele>
        <time>2011-11-11T11:33:47Z</time>
      </trkpt>
      <trkpt lat="44.01563" lon="5.28077">
        <ele>557.221436</ele>
        <time>2011-11-11T11:33:53Z</time>
      </trkpt>
      <trkpt lat="44.01537" lon="5.2808">
        <ele>557.221436</ele>
        <time>2011-11-11T11:34:19Z</time>
      </trkpt>
      <trkpt lat="44.01521" lon="5.28079">
        <ele>557.702148</ele>
        <time>2011-11-11T11:34:36Z</time>
      </trkpt>
      <trkpt lat="44.01502" lon="5.28077">
        <ele>560.105225</ele>
        <time>2011-11-11T11:34:59Z</time>
      </trkpt>
      <trkpt lat="44.0148" lon="5.28077">
        <ele>562.989258</ele>
        <time>2011-11-11T11:35:24Z</time>
      </trkpt>
      <trkpt lat="44.01476" lon="5.28078">
        <ele>564.431152</ele>
        <time>2011-11-11T11:35:51Z</time>
      </trkpt>
      <trkpt lat="44.01469" lon="5.28078">
        <ele>565.392578</ele>
        <time>2011-11-11T11:36:08Z</time>
      </trkpt>
      <trkpt lat="44.01469" lon="5.28078">
        <ele>566.35376</ele>
        <time>2011-11-11T11:36:33Z</time>
      </trkpt>
      <trkpt lat="44.0147" lon="5.28077">
        <ele>564.911865</ele>
        <time>2011-11-11T11:37:19Z</time>
      </trkpt>
      <trkpt lat="44.01468" lon="5.28064">
        <ele>564.431152</ele>
        <time>2011-11-11T11:37:37Z</time>
      </trkpt>
      <trkpt lat="44.0147" lon="5.28066">
        <ele>564.431152</ele>
        <time>2011-11-11T11:37:50Z</time>
      </trkpt>
      <trkpt lat="44.0147" lon="5.28063">
        <ele>564.431152</ele>
        <time>2011-11-11T11:37:52Z</time>
      </trkpt>
      <trkpt lat="44.01462" lon="5.28036">
        <ele>564.431152</ele>
        <time>2011-11-11T11:38:13Z</time>
      </trkpt>
      <trkpt lat="44.01447" lon="5.27992">
        <ele>563.469971</ele>
        <time>2011-11-11T11:38:45Z</time>
      </trkpt>
      <trkpt lat="44.01433" lon="5.27973">
        <ele>562.989258</ele>
        <time>2011-11-11T11:39:05Z</time>
      </trkpt>
      <trkpt lat="44.01415" lon="5.27951">
        <ele>561.547363</ele>
        <time>2011-11-11T11:39:27Z</time>
      </trkpt>
      <trkpt lat="44.01392" lon="5.27923">
        <ele>561.06665</ele>
        <time>2011-11-11T11:39:54Z</time>
      </trkpt>
      <trkpt lat="44.01379" lon="5.27904">
        <ele>561.06665</ele>
        <time>2011-11-11T11:40:12Z</time>
      </trkpt>
      <trkpt lat="44.01353" lon="5.2787">
        <ele>561.547363</ele>
        <time>2011-11-11T11:40:43Z</time>
      </trkpt>
      <trkpt lat="44.01326" lon="5.27833">
        <ele>561.547363</ele>
        <time>2011-11-11T11:41:17Z</time>
      </trkpt>
      <trkpt lat="44.01311" lon="5.27815">
        <ele>561.06665</ele>
        <time>2011-11-11T11:41:34Z</time>
      </trkpt>
      <trkpt lat="44.01287" lon="5.27788">
        <ele>560.585938</ele>
        <time>2011-11-11T11:42:02Z</time>
      </trkpt>
      <trkpt lat="44.01261" lon="5.27756">
        <ele>559.144043</ele>
        <time>2011-11-11T11:42:35Z</time>
      </trkpt>
      <trkpt lat="44.01231" lon="5.27726">
        <ele>558.182861</ele>
        <time>2011-11-11T11:43:07Z</time>
      </trkpt>
      <trkpt lat="44.012" lon="5.2771">
        <ele>556.26001</ele>
        <time>2011-11-11T11:43:37Z</time>
      </trkpt>
      <trkpt lat="44.01165" lon="5.27686">
        <ele>553.375977</ele>
        <time>2011-11-11T11:44:11Z</time>
      </trkpt>
      <trkpt lat="44.01135" lon="5.2767">
        <ele>552.414551</ele>
        <time>2011-11-11T11:44:40Z</time>
      </trkpt>
      <trkpt lat="44.0112" lon="5.27662">
        <ele>551.453369</ele>
        <time>2011-11-11T11:45:03Z</time>
      </trkpt>
      <trkpt lat="44.01117" lon="5.27665">
        <ele>551.934082</ele>
        <time>2011-11-11T11:45:21Z</time>
      </trkpt>
      <trkpt lat="44.01114" lon="5.27672">
        <ele>551.453369</ele>
        <time>2011-11-11T11:45:29Z</time>
      </trkpt>
      <trkpt lat="44.01118" lon="5.27713">
        <ele>548.569336</ele>
        <time>2011-11-11T11:45:57Z</time>
      </trkpt>
      <trkpt lat="44.01119" lon="5.27756">
        <ele>546.16626</ele>
        <time>2011-11-11T11:46:24Z</time>
      </trkpt>
      <trkpt lat="44.01109" lon="5.27796">
        <ele>543.282104</ele>
        <time>2011-11-11T11:46:54Z</time>
      </trkpt>
      <trkpt lat="44.01107" lon="5.278">
        <ele>542.320923</ele>
        <time>2011-11-11T11:47:12Z</time>
      </trkpt>
      <trkpt lat="44.01104" lon="5.27804">
        <ele>541.84021</ele>
        <time>2011-11-11T11:47:20Z</time>
      </trkpt>
      <trkpt lat="44.0109" lon="5.27808">
        <ele>539.43689</ele>
        <time>2011-11-11T11:47:41Z</time>
      </trkpt>
      <trkpt lat="44.01081" lon="5.27808">
        <ele>539.43689</ele>
        <time>2011-11-11T11:47:57Z</time>
      </trkpt>
      <trkpt lat="44.01082" lon="5.27808">
        <ele>539.43689</ele>
        <time>2011-11-11T11:48:17Z</time>
      </trkpt>
      <trkpt lat="44.01077" lon="5.27815">
        <ele>538.475708</ele>
        <time>2011-11-11T11:49:00Z</time>
      </trkpt>
      <trkpt lat="44.01069" lon="5.27822">
        <ele>538.475708</ele>
        <time>2011-11-11T11:49:21Z</time>
      </trkpt>
      <trkpt lat="44.01063" lon="5.27826">
        <ele>537.994995</ele>
        <time>2011-11-11T11:49:34Z</time>
      </trkpt>
      <trkpt lat="44.01062" lon="5.27826">
        <ele>537.994995</ele>
        <time>2011-11-11T11:49:35Z</time>
      </trkpt>
      <trkpt lat="44.01059" lon="5.27827">
        <ele>537.994995</ele>
        <time>2011-11-11T11:49:38Z</time>
      </trkpt>
      <trkpt lat="44.01042" lon="5.2784">
        <ele>538.475708</ele>
        <time>2011-11-11T11:49:56Z</time>
      </trkpt>
      <trkpt lat="44.01018" lon="5.27843">
        <ele>538.956299</ele>
        <time>2011-11-11T11:50:21Z</time>
      </trkpt>
      <trkpt lat="44.00995" lon="5.27842">
        <ele>539.917603</ele>
        <time>2011-11-11T11:50:45Z</time>
      </trkpt>
      <trkpt lat="44.00974" lon="5.27844">
        <ele>541.359497</ele>
        <time>2011-11-11T11:51:07Z</time>
      </trkpt>
      <trkpt lat="44.00954" lon="5.27854">
        <ele>543.762817</ele>
        <time>2011-11-11T11:51:30Z</time>
      </trkpt>
      <trkpt lat="44.00931" lon="5.27867">
        <ele>546.16626</ele>
        <time>2011-11-11T11:51:54Z</time>
      </trkpt>
      <trkpt lat="44.0091" lon="5.2789">
        <ele>547.608154</ele>
        <time>2011-11-11T11:52:19Z</time>
      </trkpt>
      <trkpt lat="44.00893" lon="5.27923">
        <ele>549.530762</ele>
        <time>2011-11-11T11:52:48Z</time>
      </trkpt>
      <trkpt lat="44.00895" lon="5.27918">
        <ele>549.050049</ele>
        <time>2011-11-11T11:53:11Z</time>
      </trkpt>
      <trkpt lat="44.00891" lon="5.27924">
        <ele>549.050049</ele>
        <time>2011-11-11T11:53:34Z</time>
      </trkpt>
      <trkpt lat="44.00885" lon="5.27928">
        <ele>550.011475</ele>
        <time>2011-11-11T11:53:40Z</time>
      </trkpt>
      <trkpt lat="44.00876" lon="5.27928">
        <ele>549.530762</ele>
        <time>2011-11-11T11:53:49Z</time>
      </trkpt>
      <trkpt lat="44.00863" lon="5.27929">
        <ele>550.492188</ele>
        <time>2011-11-11T11:54:03Z</time>
      </trkpt>
      <trkpt lat="44.00862" lon="5.2793">
        <ele>550.492188</ele>
        <time>2011-11-11T11:54:05Z</time>
      </trkpt>
      <trkpt lat="44.00852" lon="5.27933">
        <ele>551.934082</ele>
        <time>2011-11-11T11:54:15Z</time>
      </trkpt>
      <trkpt lat="44.00837" lon="5.27941">
        <ele>552.414551</ele>
        <time>2011-11-11T11:54:33Z</time>
      </trkpt>
      <trkpt lat="44.00806" lon="5.27953">
        <ele>553.856689</ele>
        <time>2011-11-11T11:55:04Z</time>
      </trkpt>
      <trkpt lat="44.00788" lon="5.27961">
        <ele>554.817871</ele>
        <time>2011-11-11T11:55:24Z</time>
      </trkpt>
      <trkpt lat="44.00785" lon="5.27959">
        <ele>555.298584</ele>
        <time>2011-11-11T11:55:40Z</time>
      </trkpt>
      <trkpt lat="44.00785" lon="5.27959">
        <ele>554.337402</ele>
        <time>2011-11-11T11:55:52Z</time>
      </trkpt>
      <trkpt lat="44.0078" lon="5.27962">
        <ele>555.298584</ele>
        <time>2011-11-11T11:56:40Z</time>
      </trkpt>
      <trkpt lat="44.00778" lon="5.27967">
        <ele>554.817871</ele>
        <time>2011-11-11T11:56:52Z</time>
      </trkpt>
      <trkpt lat="44.00779" lon="5.2797">
        <ele>555.298584</ele>
        <time>2011-11-11T11:56:54Z</time>
      </trkpt>
      <trkpt lat="44.00784" lon="5.27982">
        <ele>555.298584</ele>
        <time>2011-11-11T11:57:01Z</time>
      </trkpt>
      <trkpt lat="44.00784" lon="5.2799">
        <ele>555.779297</ele>
        <time>2011-11-11T11:57:06Z</time>
      </trkpt>
      <trkpt lat="44.00774" lon="5.27999">
        <ele>556.740723</ele>
        <time>2011-11-11T11:57:17Z</time>
      </trkpt>
      <trkpt lat="44.00773" lon="5.28003">
        <ele>557.702148</ele>
        <time>2011-11-11T11:57:20Z</time>
      </trkpt>
      <trkpt lat="44.00769" lon="5.28021">
        <ele>558.66333</ele>
        <time>2011-11-11T11:57:34Z</time>
      </trkpt>
      <trkpt lat="44.00764" lon="5.28024">
        <ele>559.624756</ele>
        <time>2011-11-11T11:57:40Z</time>
      </trkpt>
      <trkpt lat="44.00748" lon="5.28029">
        <ele>561.06665</ele>
        <time>2011-11-11T11:57:57Z</time>
      </trkpt>
      <trkpt lat="44.00732" lon="5.2804">
        <ele>562.508545</ele>
        <time>2011-11-11T11:58:15Z</time>
      </trkpt>
      <trkpt lat="44.00726" lon="5.28041">
        <ele>563.469971</ele>
        <time>2011-11-11T11:58:20Z</time>
      </trkpt>
      <trkpt lat="44.00722" lon="5.28046">
        <ele>563.950439</ele>
        <time>2011-11-11T11:58:27Z</time>
      </trkpt>
      <trkpt lat="44.00719" lon="5.28049">
        <ele>564.431152</ele>
        <time>2011-11-11T11:58:30Z</time>
      </trkpt>
      <trkpt lat="44.00711" lon="5.28055">
        <ele>564.911865</ele>
        <time>2011-11-11T11:58:38Z</time>
      </trkpt>
      <trkpt lat="44.00701" lon="5.28059">
        <ele>566.35376</ele>
        <time>2011-11-11T11:58:47Z</time>
      </trkpt>
      <trkpt lat="44.00698" lon="5.28062">
        <ele>566.35376</ele>
        <time>2011-11-11T11:58:51Z</time>
      </trkpt>
      <trkpt lat="44.00684" lon="5.2807">
        <ele>567.795654</ele>
        <time>2011-11-11T11:59:06Z</time>
      </trkpt>
      <trkpt lat="44.00678" lon="5.28073">
        <ele>568.276367</ele>
        <time>2011-11-11T11:59:13Z</time>
      </trkpt>
      <trkpt lat="44.0067" lon="5.28075">
        <ele>570.679688</ele>
        <time>2011-11-11T11:59:24Z</time>
      </trkpt>
      <trkpt lat="44.0067" lon="5.28074">
        <ele>571.640869</ele>
        <time>2011-11-11T11:59:36Z</time>
      </trkpt>
      <trkpt lat="44.00671" lon="5.28074">
        <ele>571.640869</ele>
        <time>2011-11-11T12:00:01Z</time>
      </trkpt>
      <trkpt lat="44.00672" lon="5.28089">
        <ele>572.121826</ele>
        <time>2011-11-11T12:00:21Z</time>
      </trkpt>
      <trkpt lat="44.00671" lon="5.28094">
        <ele>572.121826</ele>
        <time>2011-11-11T12:00:28Z</time>
      </trkpt>
      <trkpt lat="44.00672" lon="5.28099">
        <ele>572.121826</ele>
        <time>2011-11-11T12:00:32Z</time>
      </trkpt>
      <trkpt lat="44.00667" lon="5.28117">
        <ele>573.563965</ele>
        <time>2011-11-11T12:00:54Z</time>
      </trkpt>
      <trkpt lat="44.00665" lon="5.28116">
        <ele>573.563965</ele>
        <time>2011-11-11T12:00:58Z</time>
      </trkpt>
      <trkpt lat="44.00646" lon="5.28106">
        <ele>575.967041</ele>
        <time>2011-11-11T12:01:19Z</time>
      </trkpt>
      <trkpt lat="44.00642" lon="5.28108">
        <ele>576.447754</ele>
        <time>2011-11-11T12:01:35Z</time>
      </trkpt>
      <trkpt lat="44.00628" lon="5.28113">
        <ele>577.889648</ele>
        <time>2011-11-11T12:02:07Z</time>
      </trkpt>
      <trkpt lat="44.00616" lon="5.28117">
        <ele>579.331543</ele>
        <time>2011-11-11T12:02:21Z</time>
      </trkpt>
      <trkpt lat="44.00615" lon="5.28119">
        <ele>579.331543</ele>
        <time>2011-11-11T12:02:23Z</time>
      </trkpt>
      <trkpt lat="44.00611" lon="5.28121">
        <ele>579.812256</ele>
        <time>2011-11-11T12:02:26Z</time>
      </trkpt>
      <trkpt lat="44.00602" lon="5.28123">
        <ele>580.773682</ele>
        <time>2011-11-11T12:02:34Z</time>
      </trkpt>
      <trkpt lat="44.00599" lon="5.28123">
        <ele>580.773682</ele>
        <time>2011-11-11T12:02:36Z</time>
      </trkpt>
      <trkpt lat="44.00587" lon="5.28137">
        <ele>582.696289</ele>
        <time>2011-11-11T12:02:52Z</time>
      </trkpt>
      <trkpt lat="44.0058" lon="5.28146">
        <ele>583.657471</ele>
        <time>2011-11-11T12:03:01Z</time>
      </trkpt>
      <trkpt lat="44.00572" lon="5.28152">
        <ele>584.618896</ele>
        <time>2011-11-11T12:03:15Z</time>
      </trkpt>
      <trkpt lat="44.00569" lon="5.28159">
        <ele>585.580078</ele>
        <time>2011-11-11T12:03:26Z</time>
      </trkpt>
      <trkpt lat="44.00561" lon="5.28166">
        <ele>586.541504</ele>
        <time>2011-11-11T12:03:38Z</time>
      </trkpt>
      <trkpt lat="44.00555" lon="5.28173">
        <ele>587.502686</ele>
        <time>2011-11-11T12:03:51Z</time>
      </trkpt>
      <trkpt lat="44.0054" lon="5.28188">
        <ele>589.425537</ele>
        <time>2011-11-11T12:04:07Z</time>
      </trkpt>
      <trkpt lat="44.00528" lon="5.28205">
        <ele>591.348145</ele>
        <time>2011-11-11T12:04:25Z</time>
      </trkpt>
      <trkpt lat="44.00518" lon="5.28224">
        <ele>592.790283</ele>
        <time>2011-11-11T12:04:40Z</time>
      </trkpt>
      <trkpt lat="44.00512" lon="5.28234">
        <ele>593.751465</ele>
        <time>2011-11-11T12:04:51Z</time>
      </trkpt>
      <trkpt lat="44.00506" lon="5.28245">
        <ele>594.712646</ele>
        <time>2011-11-11T12:04:59Z</time>
      </trkpt>
      <trkpt lat="44.005" lon="5.28254">
        <ele>595.674072</ele>
        <time>2011-11-11T12:05:11Z</time>
      </trkpt>
      <trkpt lat="44.0049" lon="5.28261">
        <ele>598.077393</ele>
        <time>2011-11-11T12:05:23Z</time>
      </trkpt>
      <trkpt lat="44.00487" lon="5.28263">
        <ele>599.038574</ele>
        <time>2011-11-11T12:05:27Z</time>
      </trkpt>
      <trkpt lat="44.00475" lon="5.28265">
        <ele>600.961182</ele>
        <time>2011-11-11T12:05:40Z</time>
      </trkpt>
      <trkpt lat="44.00461" lon="5.28262">
        <ele>602.883789</ele>
        <time>2011-11-11T12:05:57Z</time>
      </trkpt>
      <trkpt lat="44.00452" lon="5.28263">
        <ele>603.845215</ele>
        <time>2011-11-11T12:06:09Z</time>
      </trkpt>
      <trkpt lat="44.00447" lon="5.28266">
        <ele>604.806641</ele>
        <time>2011-11-11T12:06:22Z</time>
      </trkpt>
      <trkpt lat="44.00441" lon="5.28265">
        <ele>605.768066</ele>
        <time>2011-11-11T12:06:29Z</time>
      </trkpt>
      <trkpt lat="44.00425" lon="5.28263">
        <ele>607.209961</ele>
        <time>2011-11-11T12:06:46Z</time>
      </trkpt>
      <trkpt lat="44.0041" lon="5.2826">
        <ele>609.132568</ele>
        <time>2011-11-11T12:07:04Z</time>
      </trkpt>
      <trkpt lat="44.00409" lon="5.2826">
        <ele>609.132568</ele>
        <time>2011-11-11T12:07:06Z</time>
      </trkpt>
      <trkpt lat="44.00403" lon="5.28259">
        <ele>610.09375</ele>
        <time>2011-11-11T12:07:12Z</time>
      </trkpt>
      <trkpt lat="44.00393" lon="5.28254">
        <ele>611.055176</ele>
        <time>2011-11-11T12:07:30Z</time>
      </trkpt>
      <trkpt lat="44.00384" lon="5.28245">
        <ele>612.977783</ele>
        <time>2011-11-11T12:07:43Z</time>
      </trkpt>
      <trkpt lat="44.00372" lon="5.28234">
        <ele>613.938965</ele>
        <time>2011-11-11T12:07:51Z</time>
      </trkpt>
      <trkpt lat="44.00361" lon="5.28219">
        <ele>615.861816</ele>
        <time>2011-11-11T12:08:07Z</time>
      </trkpt>
      <trkpt lat="44.00358" lon="5.28216">
        <ele>617.303711</ele>
        <time>2011-11-11T12:08:16Z</time>
      </trkpt>
      <trkpt lat="44.00354" lon="5.28213">
        <ele>618.264893</ele>
        <time>2011-11-11T12:08:23Z</time>
      </trkpt>
      <trkpt lat="44.00351" lon="5.2821">
        <ele>619.226318</ele>
        <time>2011-11-11T12:08:27Z</time>
      </trkpt>
      <trkpt lat="44.00349" lon="5.28205">
        <ele>619.707031</ele>
        <time>2011-11-11T12:08:30Z</time>
      </trkpt>
      <trkpt lat="44.00341" lon="5.28201">
        <ele>620.668457</ele>
        <time>2011-11-11T12:08:37Z</time>
      </trkpt>
      <trkpt lat="44.00338" lon="5.28204">
        <ele>621.14917</ele>
        <time>2011-11-11T12:08:42Z</time>
      </trkpt>
      <trkpt lat="44.00322" lon="5.28203">
        <ele>623.55249</ele>
        <time>2011-11-11T12:08:57Z</time>
      </trkpt>
      <trkpt lat="44.00302" lon="5.28213">
        <ele>626.436279</ele>
        <time>2011-11-11T12:09:21Z</time>
      </trkpt>
      <trkpt lat="44.00301" lon="5.28213">
        <ele>626.436279</ele>
        <time>2011-11-11T12:09:22Z</time>
      </trkpt>
      <trkpt lat="44.00291" lon="5.28216">
        <ele>627.878174</ele>
        <time>2011-11-11T12:09:36Z</time>
      </trkpt>
      <trkpt lat="44.00274" lon="5.28223">
        <ele>629.800781</ele>
        <time>2011-11-11T12:09:54Z</time>
      </trkpt>
      <trkpt lat="44.00258" lon="5.2824">
        <ele>632.684814</ele>
        <time>2011-11-11T12:10:12Z</time>
      </trkpt>
      <trkpt lat="44.00255" lon="5.28246">
        <ele>632.684814</ele>
        <time>2011-11-11T12:10:26Z</time>
      </trkpt>
      <trkpt lat="44.00249" lon="5.28258">
        <ele>634.126709</ele>
        <time>2011-11-11T12:10:38Z</time>
      </trkpt>
      <trkpt lat="44.00241" lon="5.2827">
        <ele>636.049561</ele>
        <time>2011-11-11T12:10:50Z</time>
      </trkpt>
      <trkpt lat="44.00231" lon="5.28282">
        <ele>637.972168</ele>
        <time>2011-11-11T12:11:06Z</time>
      </trkpt>
      <trkpt lat="44.0023" lon="5.28283">
        <ele>637.972168</ele>
        <time>2011-11-11T12:11:07Z</time>
      </trkpt>
      <trkpt lat="44.00227" lon="5.28287">
        <ele>638.933594</ele>
        <time>2011-11-11T12:11:11Z</time>
      </trkpt>
      <trkpt lat="44.00223" lon="5.28295">
        <ele>639.414063</ele>
        <time>2011-11-11T12:11:18Z</time>
      </trkpt>
      <trkpt lat="44.00219" lon="5.28302">
        <ele>640.855957</ele>
        <time>2011-11-11T12:11:27Z</time>
      </trkpt>
      <trkpt lat="44.00213" lon="5.28317">
        <ele>642.778809</ele>
        <time>2011-11-11T12:11:45Z</time>
      </trkpt>
      <trkpt lat="44.00212" lon="5.28318">
        <ele>642.778809</ele>
        <time>2011-11-11T12:11:54Z</time>
      </trkpt>
      <trkpt lat="44.00207" lon="5.28326">
        <ele>643.73999</ele>
        <time>2011-11-11T12:12:11Z</time>
      </trkpt>
      <trkpt lat="44.00206" lon="5.28321">
        <ele>644.220703</ele>
        <time>2011-11-11T12:12:26Z</time>
      </trkpt>
      <trkpt lat="44.00208" lon="5.28303">
        <ele>645.662598</ele>
        <time>2011-11-11T12:12:45Z</time>
      </trkpt>
      <trkpt lat="44.00209" lon="5.28293">
        <ele>645.662598</ele>
        <time>2011-11-11T12:12:55Z</time>
      </trkpt>
      <trkpt lat="44.00214" lon="5.28279">
        <ele>645.181885</ele>
        <time>2011-11-11T12:13:05Z</time>
      </trkpt>
      <trkpt lat="44.00216" lon="5.28271">
        <ele>645.181885</ele>
        <time>2011-11-11T12:13:10Z</time>
      </trkpt>
      <trkpt lat="44.00221" lon="5.28258">
        <ele>645.662598</ele>
        <time>2011-11-11T12:13:18Z</time>
      </trkpt>
      <trkpt lat="44.00222" lon="5.28251">
        <ele>646.143311</ele>
        <time>2011-11-11T12:13:25Z</time>
      </trkpt>
      <trkpt lat="44.00227" lon="5.28232">
        <ele>646.624023</ele>
        <time>2011-11-11T12:13:36Z</time>
      </trkpt>
      <trkpt lat="44.00231" lon="5.28224">
        <ele>646.624023</ele>
        <time>2011-11-11T12:13:43Z</time>
      </trkpt>
      <trkpt lat="44.00233" lon="5.28216">
        <ele>646.624023</ele>
        <time>2011-11-11T12:13:48Z</time>
      </trkpt>
      <trkpt lat="44.00241" lon="5.28193">
        <ele>647.104492</ele>
        <time>2011-11-11T12:14:03Z</time>
      </trkpt>
      <trkpt lat="44.00247" lon="5.2818">
        <ele>647.104492</ele>
        <time>2011-11-11T12:14:14Z</time>
      </trkpt>
      <trkpt lat="44.0025" lon="5.28174">
        <ele>648.065918</ele>
        <time>2011-11-11T12:14:19Z</time>
      </trkpt>
      <trkpt lat="44.00252" lon="5.28173">
        <ele>648.065918</ele>
        <time>2011-11-11T12:14:21Z</time>
      </trkpt>
      <trkpt lat="44.00262" lon="5.28155">
        <ele>649.0271</ele>
        <time>2011-11-11T12:14:37Z</time>
      </trkpt>
      <trkpt lat="44.00263" lon="5.28154">
        <ele>649.0271</ele>
        <time>2011-11-11T12:14:38Z</time>
      </trkpt>
      <trkpt lat="44.0028" lon="5.28133">
        <ele>648.546387</ele>
        <time>2011-11-11T12:14:58Z</time>
      </trkpt>
      <trkpt lat="44.00288" lon="5.28116">
        <ele>649.507813</ele>
        <time>2011-11-11T12:15:13Z</time>
      </trkpt>
      <trkpt lat="44.00288" lon="5.28115">
        <ele>649.507813</ele>
        <time>2011-11-11T12:15:50Z</time>
      </trkpt>
      <trkpt lat="44.00283" lon="5.28108">
        <ele>650.469238</ele>
        <time>2011-11-11T12:16:24Z</time>
      </trkpt>
      <trkpt lat="44.00276" lon="5.28099">
        <ele>650.949707</ele>
        <time>2011-11-11T12:16:33Z</time>
      </trkpt>
      <trkpt lat="44.00265" lon="5.281">
        <ele>652.391846</ele>
        <time>2011-11-11T12:16:47Z</time>
      </trkpt>
      <trkpt lat="44.00249" lon="5.28111">
        <ele>654.795166</ele>
        <time>2011-11-11T12:17:05Z</time>
      </trkpt>
      <trkpt lat="44.00248" lon="5.28115">
        <ele>654.795166</ele>
        <time>2011-11-11T12:17:08Z</time>
      </trkpt>
      <trkpt lat="44.00241" lon="5.28126">
        <ele>655.756592</ele>
        <time>2011-11-11T12:17:18Z</time>
      </trkpt>
      <trkpt lat="44.00226" lon="5.28145">
        <ele>658.159912</ele>
        <time>2011-11-11T12:17:39Z</time>
      </trkpt>
      <trkpt lat="44.0022" lon="5.28149">
        <ele>659.121094</ele>
        <time>2011-11-11T12:17:46Z</time>
      </trkpt>
      <trkpt lat="44.00201" lon="5.28148">
        <ele>661.524414</ele>
        <time>2011-11-11T12:18:06Z</time>
      </trkpt>
      <trkpt lat="44.00188" lon="5.28147">
        <ele>663.447021</ele>
        <time>2011-11-11T12:18:24Z</time>
      </trkpt>
      <trkpt lat="44.00183" lon="5.28147">
        <ele>664.408203</ele>
        <time>2011-11-11T12:18:29Z</time>
      </trkpt>
      <trkpt lat="44.00174" lon="5.28149">
        <ele>665.850342</ele>
        <time>2011-11-11T12:18:43Z</time>
      </trkpt>
      <trkpt lat="44.00173" lon="5.28172">
        <ele>668.734375</ele>
        <time>2011-11-11T12:19:01Z</time>
      </trkpt>
      <trkpt lat="44.00169" lon="5.28193">
        <ele>671.137695</ele>
        <time>2011-11-11T12:19:18Z</time>
      </trkpt>
      <trkpt lat="44.00161" lon="5.28205">
        <ele>673.541016</ele>
        <time>2011-11-11T12:19:32Z</time>
      </trkpt>
      <trkpt lat="44.00153" lon="5.28213">
        <ele>675.463379</ele>
        <time>2011-11-11T12:19:47Z</time>
      </trkpt>
      <trkpt lat="44.00145" lon="5.28217">
        <ele>676.905518</ele>
        <time>2011-11-11T12:20:01Z</time>
      </trkpt>
      <trkpt lat="44.00138" lon="5.28217">
        <ele>678.347412</ele>
        <time>2011-11-11T12:20:13Z</time>
      </trkpt>
      <trkpt lat="44.00132" lon="5.28216">
        <ele>679.789307</ele>
        <time>2011-11-11T12:20:19Z</time>
      </trkpt>
      <trkpt lat="44.00127" lon="5.28214">
        <ele>680.27002</ele>
        <time>2011-11-11T12:20:24Z</time>
      </trkpt>
      <trkpt lat="44.00115" lon="5.28228">
        <ele>683.153809</ele>
        <time>2011-11-11T12:20:41Z</time>
      </trkpt>
      <trkpt lat="44.00111" lon="5.28231">
        <ele>684.115479</ele>
        <time>2011-11-11T12:20:46Z</time>
      </trkpt>
      <trkpt lat="44.00104" lon="5.28234">
        <ele>685.557373</ele>
        <time>2011-11-11T12:20:55Z</time>
      </trkpt>
      <trkpt lat="44.00095" lon="5.28248">
        <ele>688.441406</ele>
        <time>2011-11-11T12:21:11Z</time>
      </trkpt>
      <trkpt lat="44.00084" lon="5.28265">
        <ele>691.325195</ele>
        <time>2011-11-11T12:21:30Z</time>
      </trkpt>
      <trkpt lat="44.00078" lon="5.28271">
        <ele>692.767334</ele>
        <time>2011-11-11T12:21:41Z</time>
      </trkpt>
      <trkpt lat="44.00075" lon="5.28275">
        <ele>693.728516</ele>
        <time>2011-11-11T12:21:48Z</time>
      </trkpt>
      <trkpt lat="44.00066" lon="5.28284">
        <ele>695.651123</ele>
        <time>2011-11-11T12:22:00Z</time>
      </trkpt>
      <trkpt lat="44.00058" lon="5.28293">
        <ele>697.093018</ele>
        <time>2011-11-11T12:22:13Z</time>
      </trkpt>
      <trkpt lat="44.00058" lon="5.28294">
        <ele>697.093018</ele>
        <time>2011-11-11T12:22:15Z</time>
      </trkpt>
      <trkpt lat="44.00048" lon="5.28303">
        <ele>699.496338</ele>
        <time>2011-11-11T12:22:29Z</time>
      </trkpt>
      <trkpt lat="44.00046" lon="5.28304">
        <ele>699.977051</ele>
        <time>2011-11-11T12:22:32Z</time>
      </trkpt>
      <trkpt lat="44.00044" lon="5.28309">
        <ele>700.458008</ele>
        <time>2011-11-11T12:22:37Z</time>
      </trkpt>
      <trkpt lat="44.00038" lon="5.2832">
        <ele>701.899902</ele>
        <time>2011-11-11T12:22:49Z</time>
      </trkpt>
      <trkpt lat="44.00037" lon="5.28324">
        <ele>702.380371</ele>
        <time>2011-11-11T12:22:52Z</time>
      </trkpt>
      <trkpt lat="44.00032" lon="5.2834">
        <ele>703.82251</ele>
        <time>2011-11-11T12:23:05Z</time>
      </trkpt>
      <trkpt lat="44.00026" lon="5.28349">
        <ele>705.264404</ele>
        <time>2011-11-11T12:23:15Z</time>
      </trkpt>
      <trkpt lat="44.00024" lon="5.2835">
        <ele>705.264404</ele>
        <time>2011-11-11T12:23:18Z</time>
      </trkpt>
      <trkpt lat="44.00016" lon="5.28361">
        <ele>706.706299</ele>
        <time>2011-11-11T12:23:27Z</time>
      </trkpt>
      <trkpt lat="44.00005" lon="5.28372">
        <ele>708.148438</ele>
        <time>2011-11-11T12:23:41Z</time>
      </trkpt>
      <trkpt lat="44.00003" lon="5.28373">
        <ele>708.148438</ele>
        <time>2011-11-11T12:23:43Z</time>
      </trkpt>
      <trkpt lat="43.99999" lon="5.28374">
        <ele>709.109619</ele>
        <time>2011-11-11T12:23:48Z</time>
      </trkpt>
      <trkpt lat="43.99993" lon="5.28376">
        <ele>709.109619</ele>
        <time>2011-11-11T12:23:53Z</time>
      </trkpt>
      <trkpt lat="43.99991" lon="5.2838">
        <ele>709.590332</ele>
        <time>2011-11-11T12:23:56Z</time>
      </trkpt>
      <trkpt lat="43.99986" lon="5.28391">
        <ele>711.032227</ele>
        <time>2011-11-11T12:24:08Z</time>
      </trkpt>
      <trkpt lat="43.99981" lon="5.28399">
        <ele>711.993652</ele>
        <time>2011-11-11T12:24:15Z</time>
      </trkpt>
      <trkpt lat="43.99978" lon="5.28402">
        <ele>711.993652</ele>
        <time>2011-11-11T12:24:19Z</time>
      </trkpt>
      <trkpt lat="43.99975" lon="5.2841">
        <ele>712.954834</ele>
        <time>2011-11-11T12:24:25Z</time>
      </trkpt>
      <trkpt lat="43.99965" lon="5.28418">
        <ele>714.396729</ele>
        <time>2011-11-11T12:24:39Z</time>
      </trkpt>
      <trkpt lat="43.99961" lon="5.2842">
        <ele>714.396729</ele>
        <time>2011-11-11T12:24:49Z</time>
      </trkpt>
      <trkpt lat="43.99956" lon="5.28417">
        <ele>715.358154</ele>
        <time>2011-11-11T12:25:02Z</time>
      </trkpt>
      <trkpt lat="43.9995" lon="5.28423">
        <ele>715.358154</ele>
        <time>2011-11-11T12:25:29Z</time>
      </trkpt>
      <trkpt lat="43.99938" lon="5.28437">
        <ele>717.761475</ele>
        <time>2011-11-11T12:25:48Z</time>
      </trkpt>
      <trkpt lat="43.99929" lon="5.28447">
        <ele>719.203613</ele>
        <time>2011-11-11T12:26:01Z</time>
      </trkpt>
      <trkpt lat="43.99925" lon="5.28451">
        <ele>719.684326</ele>
        <time>2011-11-11T12:26:07Z</time>
      </trkpt>
      <trkpt lat="43.99918" lon="5.28456">
        <ele>720.164795</ele>
        <time>2011-11-11T12:26:17Z</time>
      </trkpt>
      <trkpt lat="43.9991" lon="5.2846">
        <ele>721.606689</ele>
        <time>2011-11-11T12:26:32Z</time>
      </trkpt>
      <trkpt lat="43.99909" lon="5.2846">
        <ele>721.606689</ele>
        <time>2011-11-11T12:27:13Z</time>
      </trkpt>
      <trkpt lat="43.99907" lon="5.28461">
        <ele>722.087402</ele>
        <time>2011-11-11T12:30:02Z</time>
      </trkpt>
      <trkpt lat="43.99906" lon="5.28463">
        <ele>722.568115</ele>
        <time>2011-11-11T12:31:27Z</time>
      </trkpt>
      <trkpt lat="43.99892" lon="5.28478">
        <ele>724.971436</ele>
        <time>2011-11-11T12:31:44Z</time>
      </trkpt>
      <trkpt lat="43.99888" lon="5.28485">
        <ele>726.41333</ele>
        <time>2011-11-11T12:31:53Z</time>
      </trkpt>
      <trkpt lat="43.99874" lon="5.285">
        <ele>728.335938</ele>
        <time>2011-11-11T12:32:09Z</time>
      </trkpt>
      <trkpt lat="43.99855" lon="5.28519">
        <ele>731.219971</ele>
        <time>2011-11-11T12:32:30Z</time>
      </trkpt>
      <trkpt lat="43.99854" lon="5.28521">
        <ele>731.219971</ele>
        <time>2011-11-11T12:32:32Z</time>
      </trkpt>
      <trkpt lat="43.99844" lon="5.28526">
        <ele>733.142578</ele>
        <time>2011-11-11T12:32:42Z</time>
      </trkpt>
      <trkpt lat="43.99833" lon="5.28536">
        <ele>735.06543</ele>
        <time>2011-11-11T12:32:55Z</time>
      </trkpt>
      <trkpt lat="43.99817" lon="5.2856">
        <ele>737.468506</ele>
        <time>2011-11-11T12:33:16Z</time>
      </trkpt>
      <trkpt lat="43.99807" lon="5.28576">
        <ele>738.910645</ele>
        <time>2011-11-11T12:33:31Z</time>
      </trkpt>
      <trkpt lat="43.99797" lon="5.28586">
        <ele>739.871826</ele>
        <time>2011-11-11T12:33:42Z</time>
      </trkpt>
      <trkpt lat="43.99793" lon="5.28588">
        <ele>740.352539</ele>
        <time>2011-11-11T12:33:45Z</time>
      </trkpt>
      <trkpt lat="43.9977" lon="5.28603">
        <ele>741.794434</ele>
        <time>2011-11-11T12:34:07Z</time>
      </trkpt>
      <trkpt lat="43.99754" lon="5.28606">
        <ele>742.275146</ele>
        <time>2011-11-11T12:34:22Z</time>
      </trkpt>
      <trkpt lat="43.9975" lon="5.28611">
        <ele>742.275146</ele>
        <time>2011-11-11T12:34:35Z</time>
      </trkpt>
      <trkpt lat="43.9975" lon="5.28618">
        <ele>742.275146</ele>
        <time>2011-11-11T12:34:48Z</time>
      </trkpt>
      <trkpt lat="43.99748" lon="5.28618">
        <ele>742.275146</ele>
        <time>2011-11-11T12:35:04Z</time>
      </trkpt>
      <trkpt lat="43.99748" lon="5.28617">
        <ele>742.755859</ele>
        <time>2011-11-11T12:35:24Z</time>
      </trkpt>
      <trkpt lat="43.99742" lon="5.28622">
        <ele>742.275146</ele>
        <time>2011-11-11T12:35:38Z</time>
      </trkpt>
      <trkpt lat="43.9974" lon="5.28622">
        <ele>743.236328</ele>
        <time>2011-11-11T12:36:13Z</time>
      </trkpt>
      <trkpt lat="43.99741" lon="5.28615">
        <ele>743.236328</ele>
        <time>2011-11-11T12:36:37Z</time>
      </trkpt>
      <trkpt lat="43.99741" lon="5.28611">
        <ele>743.717041</ele>
        <time>2011-11-11T12:37:13Z</time>
      </trkpt>
      <trkpt lat="43.99735" lon="5.28599">
        <ele>743.236328</ele>
        <time>2011-11-11T12:37:30Z</time>
      </trkpt>
      <trkpt lat="43.99726" lon="5.28583">
        <ele>744.197754</ele>
        <time>2011-11-11T12:37:45Z</time>
      </trkpt>
      <trkpt lat="43.9972" lon="5.28574">
        <ele>744.678223</ele>
        <time>2011-11-11T12:37:54Z</time>
      </trkpt>
      <trkpt lat="43.99719" lon="5.28571">
        <ele>745.158936</ele>
        <time>2011-11-11T12:37:56Z</time>
      </trkpt>
      <trkpt lat="43.99709" lon="5.28551">
        <ele>746.120361</ele>
        <time>2011-11-11T12:38:13Z</time>
      </trkpt>
      <trkpt lat="43.99706" lon="5.28547">
        <ele>747.081543</ele>
        <time>2011-11-11T12:38:21Z</time>
      </trkpt>
      <trkpt lat="43.99699" lon="5.28535">
        <ele>748.523682</ele>
        <time>2011-11-11T12:38:32Z</time>
      </trkpt>
      <trkpt lat="43.99691" lon="5.2852">
        <ele>749.96582</ele>
        <time>2011-11-11T12:38:45Z</time>
      </trkpt>
      <trkpt lat="43.99687" lon="5.28513">
        <ele>750.446533</ele>
        <time>2011-11-11T12:38:51Z</time>
      </trkpt>
      <trkpt lat="43.99678" lon="5.28496">
        <ele>751.888428</ele>
        <time>2011-11-11T12:39:07Z</time>
      </trkpt>
      <trkpt lat="43.9967" lon="5.28481">
        <ele>753.811035</ele>
        <time>2011-11-11T12:39:20Z</time>
      </trkpt>
      <trkpt lat="43.99657" lon="5.2846">
        <ele>756.694824</ele>
        <time>2011-11-11T12:39:41Z</time>
      </trkpt>
      <trkpt lat="43.99648" lon="5.28441">
        <ele>758.617432</ele>
        <time>2011-11-11T12:39:56Z</time>
      </trkpt>
      <trkpt lat="43.99642" lon="5.28432">
        <ele>759.578857</ele>
        <time>2011-11-11T12:40:07Z</time>
      </trkpt>
      <trkpt lat="43.99634" lon="5.28418">
        <ele>761.020752</ele>
        <time>2011-11-11T12:40:20Z</time>
      </trkpt>
      <trkpt lat="43.99629" lon="5.28412">
        <ele>762.462646</ele>
        <time>2011-11-11T12:40:35Z</time>
      </trkpt>
      <trkpt lat="43.99618" lon="5.28395">
        <ele>764.385498</ele>
        <time>2011-11-11T12:41:44Z</time>
      </trkpt>
      <trkpt lat="43.99619" lon="5.2839">
        <ele>765.346924</ele>
        <time>2011-11-11T12:41:58Z</time>
      </trkpt>
      <trkpt lat="43.99631" lon="5.28374">
        <ele>763.904541</ele>
        <time>2011-11-11T12:42:18Z</time>
      </trkpt>
      <trkpt lat="43.99631" lon="5.2837">
        <ele>763.904541</ele>
        <time>2011-11-11T12:42:22Z</time>
      </trkpt>
      <trkpt lat="43.9963" lon="5.28359">
        <ele>765.346924</ele>
        <time>2011-11-11T12:42:34Z</time>
      </trkpt>
      <trkpt lat="43.99631" lon="5.28346">
        <ele>766.788818</ele>
        <time>2011-11-11T12:42:45Z</time>
      </trkpt>
      <trkpt lat="43.99631" lon="5.28327">
        <ele>768.711426</ele>
        <time>2011-11-11T12:42:59Z</time>
      </trkpt>
      <trkpt lat="43.99631" lon="5.28308">
        <ele>770.15332</ele>
        <time>2011-11-11T12:43:12Z</time>
      </trkpt>
      <trkpt lat="43.9963" lon="5.28275">
        <ele>772.075928</ele>
        <time>2011-11-11T12:43:34Z</time>
      </trkpt>
      <trkpt lat="43.99629" lon="5.28256">
        <ele>773.518066</ele>
        <time>2011-11-11T12:43:46Z</time>
      </trkpt>
      <trkpt lat="43.99628" lon="5.28255">
        <ele>773.518066</ele>
        <time>2011-11-11T12:43:47Z</time>
      </trkpt>
      <trkpt lat="43.99628" lon="5.28241">
        <ele>773.998535</ele>
        <time>2011-11-11T12:43:56Z</time>
      </trkpt>
      <trkpt lat="43.99628" lon="5.28238">
        <ele>774.479248</ele>
        <time>2011-11-11T12:43:58Z</time>
      </trkpt>
      <trkpt lat="43.99627" lon="5.2823">
        <ele>775.44043</ele>
        <time>2011-11-11T12:44:03Z</time>
      </trkpt>
      <trkpt lat="43.99627" lon="5.2822">
        <ele>776.401855</ele>
        <time>2011-11-11T12:44:10Z</time>
      </trkpt>
      <trkpt lat="43.99627" lon="5.28209">
        <ele>776.882568</ele>
        <time>2011-11-11T12:44:18Z</time>
      </trkpt>
      <trkpt lat="43.99629" lon="5.28199">
        <ele>777.84375</ele>
        <time>2011-11-11T12:44:25Z</time>
      </trkpt>
      <trkpt lat="43.99629" lon="5.28187">
        <ele>778.324463</ele>
        <time>2011-11-11T12:44:34Z</time>
      </trkpt>
      <trkpt lat="43.99629" lon="5.28183">
        <ele>778.324463</ele>
        <time>2011-11-11T12:44:37Z</time>
      </trkpt>
      <trkpt lat="43.99627" lon="5.28165">
        <ele>779.766357</ele>
        <time>2011-11-11T12:44:47Z</time>
      </trkpt>
      <trkpt lat="43.99626" lon="5.2814">
        <ele>780.247314</ele>
        <time>2011-11-11T12:45:03Z</time>
      </trkpt>
      <trkpt lat="43.99626" lon="5.28122">
        <ele>781.20874</ele>
        <time>2011-11-11T12:45:17Z</time>
      </trkpt>
      <trkpt lat="43.99626" lon="5.28111">
        <ele>782.169922</ele>
        <time>2011-11-11T12:45:26Z</time>
      </trkpt>
      <trkpt lat="43.99628" lon="5.28099">
        <ele>782.650635</ele>
        <time>2011-11-11T12:45:38Z</time>
      </trkpt>
      <trkpt lat="43.99627" lon="5.28071">
        <ele>784.573242</ele>
        <time>2011-11-11T12:45:54Z</time>
      </trkpt>
      <trkpt lat="43.99627" lon="5.28049">
        <ele>785.053955</ele>
        <time>2011-11-11T12:46:09Z</time>
      </trkpt>
      <trkpt lat="43.99627" lon="5.28043">
        <ele>785.053955</ele>
        <time>2011-11-11T12:46:14Z</time>
      </trkpt>
      <trkpt lat="43.99624" lon="5.28018">
        <ele>785.534424</ele>
        <time>2011-11-11T12:46:25Z</time>
      </trkpt>
      <trkpt lat="43.99623" lon="5.28016">
        <ele>786.015137</ele>
        <time>2011-11-11T12:46:26Z</time>
      </trkpt>
      <trkpt lat="43.99624" lon="5.28011">
        <ele>786.015137</ele>
        <time>2011-11-11T12:46:30Z</time>
      </trkpt>
      <trkpt lat="43.99623" lon="5.27982">
        <ele>786.976318</ele>
        <time>2011-11-11T12:46:47Z</time>
      </trkpt>
      <trkpt lat="43.99622" lon="5.27954">
        <ele>786.976318</ele>
        <time>2011-11-11T12:47:08Z</time>
      </trkpt>
      <trkpt lat="43.99623" lon="5.27939">
        <ele>786.976318</ele>
        <time>2011-11-11T12:47:22Z</time>
      </trkpt>
      <trkpt lat="43.99624" lon="5.27938">
        <ele>786.976318</ele>
        <time>2011-11-11T12:47:25Z</time>
      </trkpt>
      <trkpt lat="43.99624" lon="5.27926">
        <ele>787.937744</ele>
        <time>2011-11-11T12:47:37Z</time>
      </trkpt>
      <trkpt lat="43.99623" lon="5.2792">
        <ele>787.457031</ele>
        <time>2011-11-11T12:47:42Z</time>
      </trkpt>
      <trkpt lat="43.99623" lon="5.27901">
        <ele>786.976318</ele>
        <time>2011-11-11T12:47:54Z</time>
      </trkpt>
      <trkpt lat="43.99624" lon="5.27895">
        <ele>786.976318</ele>
        <time>2011-11-11T12:47:59Z</time>
      </trkpt>
      <trkpt lat="43.9962" lon="5.27881">
        <ele>786.976318</ele>
        <time>2011-11-11T12:48:05Z</time>
      </trkpt>
      <trkpt lat="43.9962" lon="5.27874">
        <ele>786.976318</ele>
        <time>2011-11-11T12:48:10Z</time>
      </trkpt>
      <trkpt lat="43.99623" lon="5.27874">
        <ele>786.49585</ele>
        <time>2011-11-11T12:48:14Z</time>
      </trkpt>
      <trkpt lat="43.99622" lon="5.27861">
        <ele>786.49585</ele>
        <time>2011-11-11T12:48:20Z</time>
      </trkpt>
      <trkpt lat="43.99618" lon="5.27852">
        <ele>786.49585</ele>
        <time>2011-11-11T12:48:24Z</time>
      </trkpt>
      <trkpt lat="43.99616" lon="5.27847">
        <ele>786.49585</ele>
        <time>2011-11-11T12:48:26Z</time>
      </trkpt>
      <trkpt lat="43.99613" lon="5.27833">
        <ele>786.49585</ele>
        <time>2011-11-11T12:48:38Z</time>
      </trkpt>
      <trkpt lat="43.99612" lon="5.27831">
        <ele>786.49585</ele>
        <time>2011-11-11T12:48:39Z</time>
      </trkpt>
      <trkpt lat="43.99608" lon="5.27826">
        <ele>786.49585</ele>
        <time>2011-11-11T12:48:43Z</time>
      </trkpt>
      <trkpt lat="43.99601" lon="5.27809">
        <ele>786.015137</ele>
        <time>2011-11-11T12:48:58Z</time>
      </trkpt>
      <trkpt lat="43.99597" lon="5.27809">
        <ele>786.015137</ele>
        <time>2011-11-11T12:49:18Z</time>
      </trkpt>
      <trkpt lat="43.99597" lon="5.27809">
        <ele>786.015137</ele>
        <time>2011-11-11T12:49:48Z</time>
      </trkpt>
      <trkpt lat="43.99596" lon="5.27807">
        <ele>789.379639</ele>
        <time>2011-11-11T13:25:05Z</time>
      </trkpt>
      <trkpt lat="43.99595" lon="5.27808">
        <ele>789.379639</ele>
        <time>2011-11-11T13:25:25Z</time>
      </trkpt>
      <trkpt lat="43.99595" lon="5.27808">
        <ele>786.49585</ele>
        <time>2011-11-11T13:25:28Z</time>
      </trkpt>
      <trkpt lat="43.99595" lon="5.27808">
        <ele>789.860352</ele>
        <time>2011-11-11T13:25:32Z</time>
      </trkpt>
      <trkpt lat="43.99595" lon="5.27808">
        <ele>786.49585</ele>
        <time>2011-11-11T13:25:46Z</time>
      </trkpt>
      <trkpt lat="43.99595" lon="5.27808">
        <ele>786.976318</ele>
        <time>2011-11-11T13:25:47Z</time>
      </trkpt>
      <trkpt lat="43.99595" lon="5.27808">
        <ele>792.263672</ele>
        <time>2011-11-11T13:26:25Z</time>
      </trkpt>
      <trkpt lat="43.99595" lon="5.27808">
        <ele>788.418457</ele>
        <time>2011-11-11T13:26:26Z</time>
      </trkpt>
      <trkpt lat="43.99597" lon="5.27807">
        <ele>789.379639</ele>
        <time>2011-11-11T13:27:27Z</time>
      </trkpt>
      <trkpt lat="43.99597" lon="5.27807">
        <ele>789.379639</ele>
        <time>2011-11-11T13:27:49Z</time>
      </trkpt>
      <trkpt lat="43.99597" lon="5.27807">
        <ele>789.379639</ele>
        <time>2011-11-11T13:28:28Z</time>
      </trkpt>
      <trkpt lat="43.99598" lon="5.27807">
        <ele>788.89917</ele>
        <time>2011-11-11T13:28:43Z</time>
      </trkpt>
      <trkpt lat="43.99593" lon="5.27791">
        <ele>787.937744</ele>
        <time>2011-11-11T13:29:00Z</time>
      </trkpt>
      <trkpt lat="43.99581" lon="5.2777">
        <ele>786.015137</ele>
        <time>2011-11-11T13:29:21Z</time>
      </trkpt>
      <trkpt lat="43.99574" lon="5.27752">
        <ele>784.573242</ele>
        <time>2011-11-11T13:29:37Z</time>
      </trkpt>
      <trkpt lat="43.99569" lon="5.27742">
        <ele>783.131104</ele>
        <time>2011-11-11T13:29:50Z</time>
      </trkpt>
      <trkpt lat="43.99557" lon="5.27718">
        <ele>780.728027</ele>
        <time>2011-11-11T13:30:12Z</time>
      </trkpt>
      <trkpt lat="43.99546" lon="5.27698">
        <ele>777.84375</ele>
        <time>2011-11-11T13:30:33Z</time>
      </trkpt>
      <trkpt lat="43.99534" lon="5.27666">
        <ele>775.44043</ele>
        <time>2011-11-11T13:30:59Z</time>
      </trkpt>
      <trkpt lat="43.99519" lon="5.27634">
        <ele>772.075928</ele>
        <time>2011-11-11T13:31:28Z</time>
      </trkpt>
      <trkpt lat="43.99507" lon="5.2761">
        <ele>771.114746</ele>
        <time>2011-11-11T13:31:51Z</time>
      </trkpt>
      <trkpt lat="43.99495" lon="5.27586">
        <ele>771.595215</ele>
        <time>2011-11-11T13:32:11Z</time>
      </trkpt>
      <trkpt lat="43.99481" lon="5.27558">
        <ele>772.556641</ele>
        <time>2011-11-11T13:32:34Z</time>
      </trkpt>
      <trkpt lat="43.99474" lon="5.27531">
        <ele>773.037354</ele>
        <time>2011-11-11T13:32:53Z</time>
      </trkpt>
      <trkpt lat="43.99471" lon="5.27486">
        <ele>774.479248</ele>
        <time>2011-11-11T13:33:24Z</time>
      </trkpt>
      <trkpt lat="43.99475" lon="5.27448">
        <ele>773.998535</ele>
        <time>2011-11-11T13:33:51Z</time>
      </trkpt>
      <trkpt lat="43.99481" lon="5.27419">
        <ele>774.479248</ele>
        <time>2011-11-11T13:34:11Z</time>
      </trkpt>
      <trkpt lat="43.99488" lon="5.27375">
        <ele>776.401855</ele>
        <time>2011-11-11T13:34:41Z</time>
      </trkpt>
      <trkpt lat="43.99493" lon="5.27341">
        <ele>778.324463</ele>
        <time>2011-11-11T13:35:06Z</time>
      </trkpt>
      <trkpt lat="43.99501" lon="5.27296">
        <ele>779.766357</ele>
        <time>2011-11-11T13:35:38Z</time>
      </trkpt>
      <trkpt lat="43.99509" lon="5.27251">
        <ele>780.728027</ele>
        <time>2011-11-11T13:36:08Z</time>
      </trkpt>
      <trkpt lat="43.99518" lon="5.27207">
        <ele>780.247314</ele>
        <time>2011-11-11T13:36:36Z</time>
      </trkpt>
      <trkpt lat="43.99519" lon="5.27201">
        <ele>779.766357</ele>
        <time>2011-11-11T13:36:40Z</time>
      </trkpt>
      <trkpt lat="43.99526" lon="5.27162">
        <ele>779.285645</ele>
        <time>2011-11-11T13:37:06Z</time>
      </trkpt>
      <trkpt lat="43.9953" lon="5.27132">
        <ele>778.324463</ele>
        <time>2011-11-11T13:37:26Z</time>
      </trkpt>
      <trkpt lat="43.99539" lon="5.2709">
        <ele>777.84375</ele>
        <time>2011-11-11T13:37:53Z</time>
      </trkpt>
      <trkpt lat="43.99547" lon="5.27048">
        <ele>777.84375</ele>
        <time>2011-11-11T13:38:19Z</time>
      </trkpt>
      <trkpt lat="43.99556" lon="5.27003">
        <ele>777.363281</ele>
        <time>2011-11-11T13:38:47Z</time>
      </trkpt>
      <trkpt lat="43.99562" lon="5.26958">
        <ele>776.401855</ele>
        <time>2011-11-11T13:39:15Z</time>
      </trkpt>
      <trkpt lat="43.9957" lon="5.26929">
        <ele>776.882568</ele>
        <time>2011-11-11T13:39:34Z</time>
      </trkpt>
      <trkpt lat="43.99581" lon="5.26872">
        <ele>778.324463</ele>
        <time>2011-11-11T13:40:10Z</time>
      </trkpt>
      <trkpt lat="43.99582" lon="5.2687">
        <ele>778.324463</ele>
        <time>2011-11-11T13:40:11Z</time>
      </trkpt>
      <trkpt lat="43.99586" lon="5.2683">
        <ele>779.766357</ele>
        <time>2011-11-11T13:40:36Z</time>
      </trkpt>
      <trkpt lat="43.99579" lon="5.26788">
        <ele>780.247314</ele>
        <time>2011-11-11T13:41:03Z</time>
      </trkpt>
      <trkpt lat="43.99575" lon="5.26743">
        <ele>781.20874</ele>
        <time>2011-11-11T13:41:31Z</time>
      </trkpt>
      <trkpt lat="43.99576" lon="5.26695">
        <ele>782.169922</ele>
        <time>2011-11-11T13:42:00Z</time>
      </trkpt>
      <trkpt lat="43.99586" lon="5.26639">
        <ele>782.169922</ele>
        <time>2011-11-11T13:42:34Z</time>
      </trkpt>
      <trkpt lat="43.99602" lon="5.26587">
        <ele>779.766357</ele>
        <time>2011-11-11T13:43:06Z</time>
      </trkpt>
      <trkpt lat="43.99612" lon="5.26547">
        <ele>776.882568</ele>
        <time>2011-11-11T13:43:33Z</time>
      </trkpt>
      <trkpt lat="43.99612" lon="5.26522">
        <ele>774.479248</ele>
        <time>2011-11-11T13:43:54Z</time>
      </trkpt>
      <trkpt lat="43.99612" lon="5.26509">
        <ele>773.037354</ele>
        <time>2011-11-11T13:44:11Z</time>
      </trkpt>
      <trkpt lat="43.99616" lon="5.26491">
        <ele>770.634033</ele>
        <time>2011-11-11T13:44:31Z</time>
      </trkpt>
      <trkpt lat="43.99617" lon="5.26487">
        <ele>770.634033</ele>
        <time>2011-11-11T13:44:34Z</time>
      </trkpt>
      <trkpt lat="43.99621" lon="5.26465">
        <ele>767.75</ele>
        <time>2011-11-11T13:44:50Z</time>
      </trkpt>
      <trkpt lat="43.99625" lon="5.26449">
        <ele>766.308105</ele>
        <time>2011-11-11T13:45:01Z</time>
      </trkpt>
      <trkpt lat="43.99635" lon="5.26422">
        <ele>762.943359</ele>
        <time>2011-11-11T13:45:23Z</time>
      </trkpt>
      <trkpt lat="43.99643" lon="5.26396">
        <ele>760.059326</ele>
        <time>2011-11-11T13:45:47Z</time>
      </trkpt>
      <trkpt lat="43.99643" lon="5.26385">
        <ele>759.578857</ele>
        <time>2011-11-11T13:45:56Z</time>
      </trkpt>
      <trkpt lat="43.99641" lon="5.26354">
        <ele>756.694824</ele>
        <time>2011-11-11T13:46:18Z</time>
      </trkpt>
      <trkpt lat="43.99639" lon="5.26324">
        <ele>754.772217</ele>
        <time>2011-11-11T13:46:38Z</time>
      </trkpt>
      <trkpt lat="43.9964" lon="5.26291">
        <ele>751.407715</ele>
        <time>2011-11-11T13:47:00Z</time>
      </trkpt>
      <trkpt lat="43.99641" lon="5.2627">
        <ele>749.485107</ele>
        <time>2011-11-11T13:47:14Z</time>
      </trkpt>
      <trkpt lat="43.99644" lon="5.26241">
        <ele>747.081543</ele>
        <time>2011-11-11T13:47:37Z</time>
      </trkpt>
      <trkpt lat="43.99644" lon="5.26241">
        <ele>747.081543</ele>
        <time>2011-11-11T13:48:16Z</time>
      </trkpt>
      <trkpt lat="43.99644" lon="5.26236">
        <ele>746.120361</ele>
        <time>2011-11-11T13:49:37Z</time>
      </trkpt>
      <trkpt lat="43.99645" lon="5.26237">
        <ele>746.601074</ele>
        <time>2011-11-11T13:50:01Z</time>
      </trkpt>
      <trkpt lat="43.99648" lon="5.26225">
        <ele>745.158936</ele>
        <time>2011-11-11T13:50:23Z</time>
      </trkpt>
      <trkpt lat="43.99654" lon="5.26195">
        <ele>744.197754</ele>
        <time>2011-11-11T13:50:42Z</time>
      </trkpt>
      <trkpt lat="43.99655" lon="5.26185">
        <ele>744.197754</ele>
        <time>2011-11-11T13:50:48Z</time>
      </trkpt>
      <trkpt lat="43.99668" lon="5.26143">
        <ele>743.236328</ele>
        <time>2011-11-11T13:51:18Z</time>
      </trkpt>
      <trkpt lat="43.9967" lon="5.26103">
        <ele>743.236328</ele>
        <time>2011-11-11T13:51:43Z</time>
      </trkpt>
      <trkpt lat="43.99667" lon="5.2607">
        <ele>744.678223</ele>
        <time>2011-11-11T13:52:07Z</time>
      </trkpt>
      <trkpt lat="43.99664" lon="5.26025">
        <ele>746.120361</ele>
        <time>2011-11-11T13:52:36Z</time>
      </trkpt>
      <trkpt lat="43.99655" lon="5.25978">
        <ele>748.043213</ele>
        <time>2011-11-11T13:53:06Z</time>
      </trkpt>
      <trkpt lat="43.99643" lon="5.25935">
        <ele>750.927002</ele>
        <time>2011-11-11T13:53:36Z</time>
      </trkpt>
      <trkpt lat="43.99627" lon="5.25897">
        <ele>750.927002</ele>
        <time>2011-11-11T13:54:04Z</time>
      </trkpt>
      <trkpt lat="43.99607" lon="5.25866">
        <ele>750.446533</ele>
        <time>2011-11-11T13:54:31Z</time>
      </trkpt>
      <trkpt lat="43.99588" lon="5.2584">
        <ele>749.485107</ele>
        <time>2011-11-11T13:54:55Z</time>
      </trkpt>
      <trkpt lat="43.99566" lon="5.25808">
        <ele>748.523682</ele>
        <time>2011-11-11T13:55:21Z</time>
      </trkpt>
      <trkpt lat="43.99564" lon="5.25801">
        <ele>747.562256</ele>
        <time>2011-11-11T13:55:26Z</time>
      </trkpt>
      <trkpt lat="43.99565" lon="5.2579">
        <ele>747.562256</ele>
        <time>2011-11-11T13:55:35Z</time>
      </trkpt>
      <trkpt lat="43.99549" lon="5.25769">
        <ele>745.158936</ele>
        <time>2011-11-11T13:55:58Z</time>
      </trkpt>
      <trkpt lat="43.99549" lon="5.25767">
        <ele>746.120361</ele>
        <time>2011-11-11T13:55:59Z</time>
      </trkpt>
      <trkpt lat="43.99544" lon="5.25757">
        <ele>745.158936</ele>
        <time>2011-11-11T13:56:14Z</time>
      </trkpt>
      <trkpt lat="43.99544" lon="5.25758">
        <ele>745.158936</ele>
        <time>2011-11-11T13:57:01Z</time>
      </trkpt>
      <trkpt lat="43.99543" lon="5.25758">
        <ele>744.197754</ele>
        <time>2011-11-11T13:57:32Z</time>
      </trkpt>
      <trkpt lat="43.99543" lon="5.25759">
        <ele>745.639648</ele>
        <time>2011-11-11T13:58:30Z</time>
      </trkpt>
      <trkpt lat="43.99535" lon="5.2574">
        <ele>744.197754</ele>
        <time>2011-11-11T13:58:43Z</time>
      </trkpt>
      <trkpt lat="43.99529" lon="5.2572">
        <ele>744.678223</ele>
        <time>2011-11-11T13:58:56Z</time>
      </trkpt>
      <trkpt lat="43.99521" lon="5.25715">
        <ele>744.678223</ele>
        <time>2011-11-11T13:59:10Z</time>
      </trkpt>
      <trkpt lat="43.99519" lon="5.25712">
        <ele>744.678223</ele>
        <time>2011-11-11T13:59:13Z</time>
      </trkpt>
      <trkpt lat="43.99516" lon="5.25703">
        <ele>745.158936</ele>
        <time>2011-11-11T13:59:19Z</time>
      </trkpt>
      <trkpt lat="43.99498" lon="5.25678">
        <ele>747.562256</ele>
        <time>2011-11-11T13:59:40Z</time>
      </trkpt>
      <trkpt lat="43.99478" lon="5.2566">
        <ele>749.485107</ele>
        <time>2011-11-11T14:00:03Z</time>
      </trkpt>
      <trkpt lat="43.9946" lon="5.25649">
        <ele>751.407715</ele>
        <time>2011-11-11T14:00:24Z</time>
      </trkpt>
      <trkpt lat="43.99445" lon="5.25636">
        <ele>752.849609</ele>
        <time>2011-11-11T14:00:42Z</time>
      </trkpt>
      <trkpt lat="43.99444" lon="5.25635">
        <ele>752.849609</ele>
        <time>2011-11-11T14:00:43Z</time>
      </trkpt>
      <trkpt lat="43.99437" lon="5.25622">
        <ele>752.849609</ele>
        <time>2011-11-11T14:00:55Z</time>
      </trkpt>
      <trkpt lat="43.99427" lon="5.25602">
        <ele>753.811035</ele>
        <time>2011-11-11T14:01:12Z</time>
      </trkpt>
      <trkpt lat="43.99408" lon="5.25565">
        <ele>757.175537</ele>
        <time>2011-11-11T14:01:42Z</time>
      </trkpt>
      <trkpt lat="43.99389" lon="5.25531">
        <ele>759.578857</ele>
        <time>2011-11-11T14:02:08Z</time>
      </trkpt>
      <trkpt lat="43.99375" lon="5.25484">
        <ele>761.020752</ele>
        <time>2011-11-11T14:02:38Z</time>
      </trkpt>
      <trkpt lat="43.9936" lon="5.2545">
        <ele>761.020752</ele>
        <time>2011-11-11T14:03:01Z</time>
      </trkpt>
      <trkpt lat="43.99347" lon="5.25431">
        <ele>761.020752</ele>
        <time>2011-11-11T14:03:18Z</time>
      </trkpt>
      <trkpt lat="43.99325" lon="5.25399">
        <ele>761.501465</ele>
        <time>2011-11-11T14:03:45Z</time>
      </trkpt>
      <trkpt lat="43.993" lon="5.25366">
        <ele>762.462646</ele>
        <time>2011-11-11T14:04:17Z</time>
      </trkpt>
      <trkpt lat="43.99284" lon="5.25341">
        <ele>762.462646</ele>
        <time>2011-11-11T14:04:37Z</time>
      </trkpt>
      <trkpt lat="43.99279" lon="5.25322">
        <ele>761.501465</ele>
        <time>2011-11-11T14:04:50Z</time>
      </trkpt>
      <trkpt lat="43.99275" lon="5.25311">
        <ele>761.501465</ele>
        <time>2011-11-11T14:04:58Z</time>
      </trkpt>
      <trkpt lat="43.99267" lon="5.25287">
        <ele>758.617432</ele>
        <time>2011-11-11T14:05:19Z</time>
      </trkpt>
      <trkpt lat="43.99258" lon="5.25262">
        <ele>756.694824</ele>
        <time>2011-11-11T14:05:38Z</time>
      </trkpt>
      <trkpt lat="43.99249" lon="5.25242">
        <ele>754.772217</ele>
        <time>2011-11-11T14:05:56Z</time>
      </trkpt>
      <trkpt lat="43.99241" lon="5.25205">
        <ele>752.368896</ele>
        <time>2011-11-11T14:06:22Z</time>
      </trkpt>
      <trkpt lat="43.99237" lon="5.2518">
        <ele>750.446533</ele>
        <time>2011-11-11T14:06:40Z</time>
      </trkpt>
      <trkpt lat="43.99234" lon="5.25152">
        <ele>749.485107</ele>
        <time>2011-11-11T14:07:03Z</time>
      </trkpt>
      <trkpt lat="43.99227" lon="5.25116">
        <ele>749.004395</ele>
        <time>2011-11-11T14:07:29Z</time>
      </trkpt>
      <trkpt lat="43.99216" lon="5.2507">
        <ele>747.562256</ele>
        <time>2011-11-11T14:08:03Z</time>
      </trkpt>
      <trkpt lat="43.99206" lon="5.25034">
        <ele>746.120361</ele>
        <time>2011-11-11T14:08:28Z</time>
      </trkpt>
      <trkpt lat="43.99194" lon="5.24995">
        <ele>745.639648</ele>
        <time>2011-11-11T14:08:56Z</time>
      </trkpt>
      <trkpt lat="43.99182" lon="5.24958">
        <ele>747.081543</ele>
        <time>2011-11-11T14:09:23Z</time>
      </trkpt>
      <trkpt lat="43.99172" lon="5.24925">
        <ele>748.523682</ele>
        <time>2011-11-11T14:09:47Z</time>
      </trkpt>
      <trkpt lat="43.99164" lon="5.24893">
        <ele>750.446533</ele>
        <time>2011-11-11T14:10:11Z</time>
      </trkpt>
      <trkpt lat="43.99162" lon="5.2489">
        <ele>750.927002</ele>
        <time>2011-11-11T14:10:14Z</time>
      </trkpt>
      <trkpt lat="43.99151" lon="5.24856">
        <ele>751.407715</ele>
        <time>2011-11-11T14:10:38Z</time>
      </trkpt>
      <trkpt lat="43.99138" lon="5.24825">
        <ele>752.368896</ele>
        <time>2011-11-11T14:11:01Z</time>
      </trkpt>
      <trkpt lat="43.99113" lon="5.24799">
        <ele>751.888428</ele>
        <time>2011-11-11T14:11:28Z</time>
      </trkpt>
      <trkpt lat="43.99095" lon="5.24788">
        <ele>751.888428</ele>
        <time>2011-11-11T14:11:44Z</time>
      </trkpt>
      <trkpt lat="43.99069" lon="5.24773">
        <ele>752.368896</ele>
        <time>2011-11-11T14:12:09Z</time>
      </trkpt>
      <trkpt lat="43.99047" lon="5.24737">
        <ele>750.927002</ele>
        <time>2011-11-11T14:12:41Z</time>
      </trkpt>
      <trkpt lat="43.99046" lon="5.24729">
        <ele>749.96582</ele>
        <time>2011-11-11T14:12:47Z</time>
      </trkpt>
      <trkpt lat="43.99046" lon="5.247">
        <ele>747.562256</ele>
        <time>2011-11-11T14:13:10Z</time>
      </trkpt>
      <trkpt lat="43.99047" lon="5.24669">
        <ele>744.678223</ele>
        <time>2011-11-11T14:13:33Z</time>
      </trkpt>
      <trkpt lat="43.99047" lon="5.24667">
        <ele>744.197754</ele>
        <time>2011-11-11T14:13:34Z</time>
      </trkpt>
      <trkpt lat="43.99046" lon="5.2465">
        <ele>742.755859</ele>
        <time>2011-11-11T14:13:49Z</time>
      </trkpt>
      <trkpt lat="43.99046" lon="5.24645">
        <ele>742.755859</ele>
        <time>2011-11-11T14:13:52Z</time>
      </trkpt>
      <trkpt lat="43.99042" lon="5.24635">
        <ele>741.313721</ele>
        <time>2011-11-11T14:13:59Z</time>
      </trkpt>
      <trkpt lat="43.99041" lon="5.24633">
        <ele>741.794434</ele>
        <time>2011-11-11T14:14:01Z</time>
      </trkpt>
      <trkpt lat="43.99039" lon="5.24626">
        <ele>741.313721</ele>
        <time>2011-11-11T14:14:06Z</time>
      </trkpt>
      <trkpt lat="43.99035" lon="5.24606">
        <ele>739.391113</ele>
        <time>2011-11-11T14:14:22Z</time>
      </trkpt>
      <trkpt lat="43.99034" lon="5.246">
        <ele>739.391113</ele>
        <time>2011-11-11T14:14:26Z</time>
      </trkpt>
      <trkpt lat="43.99028" lon="5.24578">
        <ele>737.468506</ele>
        <time>2011-11-11T14:14:42Z</time>
      </trkpt>
      <trkpt lat="43.99022" lon="5.24561">
        <ele>735.545898</ele>
        <time>2011-11-11T14:14:56Z</time>
      </trkpt>
      <trkpt lat="43.9902" lon="5.24558">
        <ele>735.06543</ele>
        <time>2011-11-11T14:14:59Z</time>
      </trkpt>
      <trkpt lat="43.99015" lon="5.24537">
        <ele>733.142578</ele>
        <time>2011-11-11T14:15:14Z</time>
      </trkpt>
      <trkpt lat="43.99015" lon="5.24518">
        <ele>731.700439</ele>
        <time>2011-11-11T14:15:28Z</time>
      </trkpt>
      <trkpt lat="43.99022" lon="5.24488">
        <ele>730.739258</ele>
        <time>2011-11-11T14:15:52Z</time>
      </trkpt>
      <trkpt lat="43.99023" lon="5.24482">
        <ele>731.219971</ele>
        <time>2011-11-11T14:16:09Z</time>
      </trkpt>
      <trkpt lat="43.99025" lon="5.24476">
        <ele>730.739258</ele>
        <time>2011-11-11T14:16:29Z</time>
      </trkpt>
      <trkpt lat="43.99026" lon="5.2447">
        <ele>730.258545</ele>
        <time>2011-11-11T14:16:50Z</time>
      </trkpt>
      <trkpt lat="43.99038" lon="5.24446">
        <ele>731.219971</ele>
        <time>2011-11-11T14:17:09Z</time>
      </trkpt>
      <trkpt lat="43.99038" lon="5.24445">
        <ele>730.739258</ele>
        <time>2011-11-11T14:17:24Z</time>
      </trkpt>
      <trkpt lat="43.99039" lon="5.24444">
        <ele>730.739258</ele>
        <time>2011-11-11T14:17:48Z</time>
      </trkpt>
      <trkpt lat="43.99051" lon="5.24434">
        <ele>730.258545</ele>
        <time>2011-11-11T14:18:03Z</time>
      </trkpt>
      <trkpt lat="43.99053" lon="5.24432">
        <ele>730.258545</ele>
        <time>2011-11-11T14:18:27Z</time>
      </trkpt>
      <trkpt lat="43.99053" lon="5.24432">
        <ele>729.777832</ele>
        <time>2011-11-11T14:20:53Z</time>
      </trkpt>
      <trkpt lat="43.99058" lon="5.24432">
        <ele>729.297119</ele>
        <time>2011-11-11T14:21:41Z</time>
      </trkpt>
      <trkpt lat="43.99083" lon="5.24414">
        <ele>726.894043</ele>
        <time>2011-11-11T14:22:04Z</time>
      </trkpt>
      <trkpt lat="43.99084" lon="5.24412">
        <ele>726.894043</ele>
        <time>2011-11-11T14:22:06Z</time>
      </trkpt>
      <trkpt lat="43.99098" lon="5.24395">
        <ele>724.971436</ele>
        <time>2011-11-11T14:22:25Z</time>
      </trkpt>
      <trkpt lat="43.99109" lon="5.24371">
        <ele>722.568115</ele>
        <time>2011-11-11T14:22:44Z</time>
      </trkpt>
      <trkpt lat="43.9911" lon="5.24368">
        <ele>722.568115</ele>
        <time>2011-11-11T14:22:49Z</time>
      </trkpt>
      <trkpt lat="43.99111" lon="5.24365">
        <ele>722.568115</ele>
        <time>2011-11-11T14:22:53Z</time>
      </trkpt>
      <trkpt lat="43.99113" lon="5.24362">
        <ele>722.087402</ele>
        <time>2011-11-11T14:22:55Z</time>
      </trkpt>
      <trkpt lat="43.99114" lon="5.2436">
        <ele>721.606689</ele>
        <time>2011-11-11T14:22:57Z</time>
      </trkpt>
      <trkpt lat="43.99116" lon="5.24353">
        <ele>721.126221</ele>
        <time>2011-11-11T14:23:01Z</time>
      </trkpt>
      <trkpt lat="43.99116" lon="5.2435">
        <ele>720.164795</ele>
        <time>2011-11-11T14:23:05Z</time>
      </trkpt>
      <trkpt lat="43.99118" lon="5.24348">
        <ele>720.164795</ele>
        <time>2011-11-11T14:23:08Z</time>
      </trkpt>
      <trkpt lat="43.99119" lon="5.24346">
        <ele>720.164795</ele>
        <time>2011-11-11T14:23:10Z</time>
      </trkpt>
      <trkpt lat="43.99122" lon="5.24339">
        <ele>719.203613</ele>
        <time>2011-11-11T14:23:14Z</time>
      </trkpt>
      <trkpt lat="43.99126" lon="5.24332">
        <ele>718.242188</ele>
        <time>2011-11-11T14:23:25Z</time>
      </trkpt>
      <trkpt lat="43.99131" lon="5.24327">
        <ele>717.761475</ele>
        <time>2011-11-11T14:23:31Z</time>
      </trkpt>
      <trkpt lat="43.99137" lon="5.24315">
        <ele>717.281006</ele>
        <time>2011-11-11T14:23:39Z</time>
      </trkpt>
      <trkpt lat="43.99141" lon="5.24311">
        <ele>716.31958</ele>
        <time>2011-11-11T14:23:46Z</time>
      </trkpt>
      <trkpt lat="43.99148" lon="5.24296">
        <ele>714.396729</ele>
        <time>2011-11-11T14:23:56Z</time>
      </trkpt>
      <trkpt lat="43.99152" lon="5.24288">
        <ele>713.916016</ele>
        <time>2011-11-11T14:24:05Z</time>
      </trkpt>
      <trkpt lat="43.99154" lon="5.24282">
        <ele>712.954834</ele>
        <time>2011-11-11T14:24:10Z</time>
      </trkpt>
      <trkpt lat="43.99155" lon="5.24277">
        <ele>712.474121</ele>
        <time>2011-11-11T14:24:13Z</time>
      </trkpt>
      <trkpt lat="43.99159" lon="5.24262">
        <ele>712.474121</ele>
        <time>2011-11-11T14:24:26Z</time>
      </trkpt>
      <trkpt lat="43.99161" lon="5.24221">
        <ele>709.590332</ele>
        <time>2011-11-11T14:24:52Z</time>
      </trkpt>
      <trkpt lat="43.99162" lon="5.24215">
        <ele>709.109619</ele>
        <time>2011-11-11T14:24:55Z</time>
      </trkpt>
      <trkpt lat="43.99162" lon="5.24204">
        <ele>708.628906</ele>
        <time>2011-11-11T14:25:03Z</time>
      </trkpt>
      <trkpt lat="43.99163" lon="5.24197">
        <ele>708.148438</ele>
        <time>2011-11-11T14:25:08Z</time>
      </trkpt>
      <trkpt lat="43.9916" lon="5.2416">
        <ele>705.264404</ele>
        <time>2011-11-11T14:25:34Z</time>
      </trkpt>
      <trkpt lat="43.99155" lon="5.24121">
        <ele>702.380371</ele>
        <time>2011-11-11T14:26:01Z</time>
      </trkpt>
      <trkpt lat="43.99144" lon="5.24094">
        <ele>700.458008</ele>
        <time>2011-11-11T14:26:22Z</time>
      </trkpt>
      <trkpt lat="43.99126" lon="5.24076">
        <ele>698.054443</ele>
        <time>2011-11-11T14:26:44Z</time>
      </trkpt>
      <trkpt lat="43.99118" lon="5.24064">
        <ele>697.093018</ele>
        <time>2011-11-11T14:26:59Z</time>
      </trkpt>
      <trkpt lat="43.99114" lon="5.24045">
        <ele>696.131836</ele>
        <time>2011-11-11T14:27:15Z</time>
      </trkpt>
      <trkpt lat="43.99108" lon="5.24024">
        <ele>694.689697</ele>
        <time>2011-11-11T14:27:32Z</time>
      </trkpt>
      <trkpt lat="43.99105" lon="5.24012">
        <ele>693.728516</ele>
        <time>2011-11-11T14:27:42Z</time>
      </trkpt>
      <trkpt lat="43.99098" lon="5.23987">
        <ele>691.325195</ele>
        <time>2011-11-11T14:28:02Z</time>
      </trkpt>
      <trkpt lat="43.991" lon="5.2398">
        <ele>690.844482</ele>
        <time>2011-11-11T14:28:08Z</time>
      </trkpt>
      <trkpt lat="43.99089" lon="5.23945">
        <ele>687.960693</ele>
        <time>2011-11-11T14:28:30Z</time>
      </trkpt>
      <trkpt lat="43.99082" lon="5.23924">
        <ele>686.999268</ele>
        <time>2011-11-11T14:28:49Z</time>
      </trkpt>
      <trkpt lat="43.99077" lon="5.23909">
        <ele>685.557373</ele>
        <time>2011-11-11T14:29:04Z</time>
      </trkpt>
      <trkpt lat="43.99078" lon="5.23909">
        <ele>685.076904</ele>
        <time>2011-11-11T14:29:37Z</time>
      </trkpt>
      <trkpt lat="43.99077" lon="5.23904">
        <ele>685.557373</ele>
        <time>2011-11-11T14:29:52Z</time>
      </trkpt>
      <trkpt lat="43.99076" lon="5.2391">
        <ele>686.038086</ele>
        <time>2011-11-11T14:30:03Z</time>
      </trkpt>
      <trkpt lat="43.99077" lon="5.2391">
        <ele>686.038086</ele>
        <time>2011-11-11T14:30:57Z</time>
      </trkpt>
      <trkpt lat="43.99075" lon="5.23914">
        <ele>685.557373</ele>
        <time>2011-11-11T14:31:11Z</time>
      </trkpt>
      <trkpt lat="43.99074" lon="5.23913">
        <ele>686.038086</ele>
        <time>2011-11-11T14:31:26Z</time>
      </trkpt>
      <trkpt lat="43.99075" lon="5.23913">
        <ele>685.557373</ele>
        <time>2011-11-11T14:32:33Z</time>
      </trkpt>
      <trkpt lat="43.99075" lon="5.23913">
        <ele>685.076904</ele>
        <time>2011-11-11T14:32:54Z</time>
      </trkpt>
      <trkpt lat="43.99076" lon="5.23913">
        <ele>685.076904</ele>
        <time>2011-11-11T14:33:34Z</time>
      </trkpt>
      <trkpt lat="43.99075" lon="5.23913">
        <ele>685.557373</ele>
        <time>2011-11-11T14:34:11Z</time>
      </trkpt>
      <trkpt lat="43.99075" lon="5.23913">
        <ele>686.038086</ele>
        <time>2011-11-11T14:34:29Z</time>
      </trkpt>
      <trkpt lat="43.99075" lon="5.23915">
        <ele>685.076904</ele>
        <time>2011-11-11T14:35:13Z</time>
      </trkpt>
      <trkpt lat="43.99074" lon="5.23914">
        <ele>685.076904</ele>
        <time>2011-11-11T14:35:45Z</time>
      </trkpt>
      <trkpt lat="43.99075" lon="5.23915">
        <ele>685.076904</ele>
        <time>2011-11-11T14:37:05Z</time>
      </trkpt>
      <trkpt lat="43.99074" lon="5.23914">
        <ele>685.557373</ele>
        <time>2011-11-11T14:37:34Z</time>
      </trkpt>
      <trkpt lat="43.99073" lon="5.23913">
        <ele>685.076904</ele>
        <time>2011-11-11T14:37:52Z</time>
      </trkpt>
      <trkpt lat="43.99072" lon="5.23913">
        <ele>685.076904</ele>
        <time>2011-11-11T14:37:53Z</time>
      </trkpt>
      <trkpt lat="43.99069" lon="5.23911">
        <ele>685.076904</ele>
        <time>2011-11-11T14:38:08Z</time>
      </trkpt>
      <trkpt lat="43.99065" lon="5.23906">
        <ele>684.596191</ele>
        <time>2011-11-11T14:38:23Z</time>
      </trkpt>
      <trkpt lat="43.99064" lon="5.23904">
        <ele>685.076904</ele>
        <time>2011-11-11T14:38:34Z</time>
      </trkpt>
      <trkpt lat="43.99063" lon="5.23905">
        <ele>685.076904</ele>
        <time>2011-11-11T14:38:40Z</time>
      </trkpt>
      <trkpt lat="43.99057" lon="5.23899">
        <ele>681.711914</ele>
        <time>2011-11-11T14:38:48Z</time>
      </trkpt>
      <trkpt lat="43.99056" lon="5.23898">
        <ele>685.076904</ele>
        <time>2011-11-11T14:38:51Z</time>
      </trkpt>
      <trkpt lat="43.99054" lon="5.23896">
        <ele>684.115479</ele>
        <time>2011-11-11T14:39:04Z</time>
      </trkpt>
      <trkpt lat="43.99067" lon="5.23906">
        <ele>685.557373</ele>
        <time>2011-11-11T14:39:21Z</time>
      </trkpt>
      <trkpt lat="43.99074" lon="5.2391">
        <ele>685.557373</ele>
        <time>2011-11-11T14:39:35Z</time>
      </trkpt>
      <trkpt lat="43.99076" lon="5.23906">
        <ele>685.557373</ele>
        <time>2011-11-11T14:39:40Z</time>
      </trkpt>
      <trkpt lat="43.99076" lon="5.23897">
        <ele>685.557373</ele>
        <time>2011-11-11T14:39:48Z</time>
      </trkpt>
      <trkpt lat="43.99079" lon="5.23888">
        <ele>686.038086</ele>
        <time>2011-11-11T14:40:04Z</time>
      </trkpt>
      <trkpt lat="43.9908" lon="5.23888">
        <ele>686.038086</ele>
        <time>2011-11-11T14:40:14Z</time>
      </trkpt>
      <trkpt lat="43.99086" lon="5.23863">
        <ele>686.038086</ele>
        <time>2011-11-11T14:40:30Z</time>
      </trkpt>
      <trkpt lat="43.99087" lon="5.23861">
        <ele>685.557373</ele>
        <time>2011-11-11T14:40:32Z</time>
      </trkpt>
      <trkpt lat="43.99088" lon="5.23851">
        <ele>685.557373</ele>
        <time>2011-11-11T14:40:43Z</time>
      </trkpt>
      <trkpt lat="43.99087" lon="5.23859">
        <ele>685.557373</ele>
        <time>2011-11-11T14:41:02Z</time>
      </trkpt>
      <trkpt lat="43.99088" lon="5.23866">
        <ele>686.038086</ele>
        <time>2011-11-11T14:41:18Z</time>
      </trkpt>
      <trkpt lat="43.99085" lon="5.2388">
        <ele>686.518799</ele>
        <time>2011-11-11T14:41:38Z</time>
      </trkpt>
      <trkpt lat="43.99078" lon="5.23892">
        <ele>686.999268</ele>
        <time>2011-11-11T14:41:53Z</time>
      </trkpt>
      <trkpt lat="43.99076" lon="5.23897">
        <ele>686.999268</ele>
        <time>2011-11-11T14:41:57Z</time>
      </trkpt>
      <trkpt lat="43.99077" lon="5.23912">
        <ele>686.518799</ele>
        <time>2011-11-11T14:42:08Z</time>
      </trkpt>
      <trkpt lat="43.99084" lon="5.23908">
        <ele>686.999268</ele>
        <time>2011-11-11T14:42:19Z</time>
      </trkpt>
      <trkpt lat="43.99093" lon="5.23909">
        <ele>687.47998</ele>
        <time>2011-11-11T14:42:35Z</time>
      </trkpt>
      <trkpt lat="43.99096" lon="5.23909">
        <ele>686.999268</ele>
        <time>2011-11-11T14:42:39Z</time>
      </trkpt>
      <trkpt lat="43.99106" lon="5.23906">
        <ele>686.999268</ele>
        <time>2011-11-11T14:42:59Z</time>
      </trkpt>
      <trkpt lat="43.99108" lon="5.23907">
        <ele>686.999268</ele>
        <time>2011-11-11T14:43:16Z</time>
      </trkpt>
      <trkpt lat="43.99118" lon="5.23908">
        <ele>686.518799</ele>
        <time>2011-11-11T14:43:25Z</time>
      </trkpt>
      <trkpt lat="43.9914" lon="5.23913">
        <ele>685.076904</ele>
        <time>2011-11-11T14:43:45Z</time>
      </trkpt>
      <trkpt lat="43.99141" lon="5.23915">
        <ele>685.076904</ele>
        <time>2011-11-11T14:43:46Z</time>
      </trkpt>
      <trkpt lat="43.99147" lon="5.23921">
        <ele>684.596191</ele>
        <time>2011-11-11T14:43:52Z</time>
      </trkpt>
      <trkpt lat="43.99149" lon="5.23923">
        <ele>684.596191</ele>
        <time>2011-11-11T14:43:56Z</time>
      </trkpt>
      <trkpt lat="43.99156" lon="5.23935">
        <ele>683.153809</ele>
        <time>2011-11-11T14:44:08Z</time>
      </trkpt>
      <trkpt lat="43.99156" lon="5.23937">
        <ele>682.67334</ele>
        <time>2011-11-11T14:44:09Z</time>
      </trkpt>
      <trkpt lat="43.99155" lon="5.2394">
        <ele>682.67334</ele>
        <time>2011-11-11T14:44:11Z</time>
      </trkpt>
      <trkpt lat="43.99154" lon="5.23943">
        <ele>683.153809</ele>
        <time>2011-11-11T14:44:14Z</time>
      </trkpt>
      <trkpt lat="43.99157" lon="5.23958">
        <ele>683.634521</ele>
        <time>2011-11-11T14:44:26Z</time>
      </trkpt>
      <trkpt lat="43.99168" lon="5.23967">
        <ele>684.596191</ele>
        <time>2011-11-11T14:44:39Z</time>
      </trkpt>
      <trkpt lat="43.9918" lon="5.23975">
        <ele>684.115479</ele>
        <time>2011-11-11T14:44:46Z</time>
      </trkpt>
      <trkpt lat="43.99186" lon="5.23977">
        <ele>684.596191</ele>
        <time>2011-11-11T14:44:50Z</time>
      </trkpt>
      <trkpt lat="43.9919" lon="5.23972">
        <ele>684.115479</ele>
        <time>2011-11-11T14:44:54Z</time>
      </trkpt>
      <trkpt lat="43.99202" lon="5.23964">
        <ele>683.153809</ele>
        <time>2011-11-11T14:45:03Z</time>
      </trkpt>
      <trkpt lat="43.99216" lon="5.23962">
        <ele>683.153809</ele>
        <time>2011-11-11T14:45:12Z</time>
      </trkpt>
      <trkpt lat="43.99218" lon="5.23958">
        <ele>683.153809</ele>
        <time>2011-11-11T14:45:14Z</time>
      </trkpt>
      <trkpt lat="43.99235" lon="5.2394">
        <ele>681.711914</ele>
        <time>2011-11-11T14:45:34Z</time>
      </trkpt>
      <trkpt lat="43.99239" lon="5.23929">
        <ele>680.750732</ele>
        <time>2011-11-11T14:45:40Z</time>
      </trkpt>
      <trkpt lat="43.9925" lon="5.2392">
        <ele>680.27002</ele>
        <time>2011-11-11T14:45:50Z</time>
      </trkpt>
      <trkpt lat="43.99252" lon="5.23919">
        <ele>679.789307</ele>
        <time>2011-11-11T14:45:52Z</time>
      </trkpt>
      <trkpt lat="43.99254" lon="5.23909">
        <ele>679.308594</ele>
        <time>2011-11-11T14:45:56Z</time>
      </trkpt>
      <trkpt lat="43.99258" lon="5.23905">
        <ele>678.347412</ele>
        <time>2011-11-11T14:46:06Z</time>
      </trkpt>
      <trkpt lat="43.99266" lon="5.23893">
        <ele>676.905518</ele>
        <time>2011-11-11T14:46:20Z</time>
      </trkpt>
      <trkpt lat="43.99271" lon="5.23882">
        <ele>675.944092</ele>
        <time>2011-11-11T14:46:27Z</time>
      </trkpt>
      <trkpt lat="43.99276" lon="5.23871">
        <ele>675.463379</ele>
        <time>2011-11-11T14:46:36Z</time>
      </trkpt>
      <trkpt lat="43.9929" lon="5.23858">
        <ele>674.502197</ele>
        <time>2011-11-11T14:46:49Z</time>
      </trkpt>
      <trkpt lat="43.99297" lon="5.23852">
        <ele>674.021484</ele>
        <time>2011-11-11T14:46:56Z</time>
      </trkpt>
      <trkpt lat="43.99297" lon="5.23849">
        <ele>674.021484</ele>
        <time>2011-11-11T14:46:58Z</time>
      </trkpt>
      <trkpt lat="43.99308" lon="5.23838">
        <ele>673.060303</ele>
        <time>2011-11-11T14:47:10Z</time>
      </trkpt>
      <trkpt lat="43.9931" lon="5.23833">
        <ele>672.098877</ele>
        <time>2011-11-11T14:47:14Z</time>
      </trkpt>
      <trkpt lat="43.99316" lon="5.23824">
        <ele>671.137695</ele>
        <time>2011-11-11T14:47:22Z</time>
      </trkpt>
      <trkpt lat="43.99321" lon="5.23823">
        <ele>670.17627</ele>
        <time>2011-11-11T14:47:30Z</time>
      </trkpt>
      <trkpt lat="43.99331" lon="5.23805">
        <ele>668.734375</ele>
        <time>2011-11-11T14:47:43Z</time>
      </trkpt>
      <trkpt lat="43.99335" lon="5.23785">
        <ele>667.772705</ele>
        <time>2011-11-11T14:47:59Z</time>
      </trkpt>
      <trkpt lat="43.99345" lon="5.23758">
        <ele>665.369629</ele>
        <time>2011-11-11T14:48:19Z</time>
      </trkpt>
      <trkpt lat="43.99356" lon="5.23743">
        <ele>665.369629</ele>
        <time>2011-11-11T14:48:29Z</time>
      </trkpt>
      <trkpt lat="43.99358" lon="5.23743">
        <ele>664.408203</ele>
        <time>2011-11-11T14:48:33Z</time>
      </trkpt>
      <trkpt lat="43.99362" lon="5.2374">
        <ele>663.92749</ele>
        <time>2011-11-11T14:48:37Z</time>
      </trkpt>
      <trkpt lat="43.99375" lon="5.2372">
        <ele>661.043701</ele>
        <time>2011-11-11T14:48:57Z</time>
      </trkpt>
      <trkpt lat="43.99383" lon="5.23709">
        <ele>659.121094</ele>
        <time>2011-11-11T14:49:13Z</time>
      </trkpt>
      <trkpt lat="43.99383" lon="5.23689">
        <ele>656.717773</ele>
        <time>2011-11-11T14:49:30Z</time>
      </trkpt>
      <trkpt lat="43.99389" lon="5.23683">
        <ele>655.275879</ele>
        <time>2011-11-11T14:49:39Z</time>
      </trkpt>
      <trkpt lat="43.99391" lon="5.23655">
        <ele>652.391846</ele>
        <time>2011-11-11T14:49:57Z</time>
      </trkpt>
      <trkpt lat="43.9939" lon="5.23648">
        <ele>652.391846</ele>
        <time>2011-11-11T14:50:01Z</time>
      </trkpt>
      <trkpt lat="43.99392" lon="5.23639">
        <ele>650.949707</ele>
        <time>2011-11-11T14:50:08Z</time>
      </trkpt>
      <trkpt lat="43.99391" lon="5.23624">
        <ele>649.988525</ele>
        <time>2011-11-11T14:50:20Z</time>
      </trkpt>
      <trkpt lat="43.99391" lon="5.23613">
        <ele>649.0271</ele>
        <time>2011-11-11T14:50:30Z</time>
      </trkpt>
      <trkpt lat="43.99393" lon="5.23595">
        <ele>649.507813</ele>
        <time>2011-11-11T14:50:42Z</time>
      </trkpt>
      <trkpt lat="43.99394" lon="5.23581">
        <ele>649.507813</ele>
        <time>2011-11-11T14:50:54Z</time>
      </trkpt>
      <trkpt lat="43.99394" lon="5.23578">
        <ele>649.988525</ele>
        <time>2011-11-11T14:50:56Z</time>
      </trkpt>
      <trkpt lat="43.99399" lon="5.2356">
        <ele>649.507813</ele>
        <time>2011-11-11T14:51:09Z</time>
      </trkpt>
      <trkpt lat="43.99402" lon="5.23551">
        <ele>649.988525</ele>
        <time>2011-11-11T14:51:16Z</time>
      </trkpt>
      <trkpt lat="43.99403" lon="5.23544">
        <ele>650.469238</ele>
        <time>2011-11-11T14:51:22Z</time>
      </trkpt>
      <trkpt lat="43.99408" lon="5.23506">
        <ele>651.911133</ele>
        <time>2011-11-11T14:51:49Z</time>
      </trkpt>
      <trkpt lat="43.99411" lon="5.23491">
        <ele>651.911133</ele>
        <time>2011-11-11T14:52:00Z</time>
      </trkpt>
      <trkpt lat="43.99411" lon="5.23466">
        <ele>651.43042</ele>
        <time>2011-11-11T14:52:20Z</time>
      </trkpt>
      <trkpt lat="43.99411" lon="5.23438">
        <ele>650.949707</ele>
        <time>2011-11-11T14:52:41Z</time>
      </trkpt>
      <trkpt lat="43.99409" lon="5.23419">
        <ele>649.988525</ele>
        <time>2011-11-11T14:52:57Z</time>
      </trkpt>
      <trkpt lat="43.99407" lon="5.23397">
        <ele>649.0271</ele>
        <time>2011-11-11T14:53:17Z</time>
      </trkpt>
      <trkpt lat="43.99404" lon="5.23383">
        <ele>648.065918</ele>
        <time>2011-11-11T14:53:30Z</time>
      </trkpt>
      <trkpt lat="43.99403" lon="5.23359">
        <ele>647.104492</ele>
        <time>2011-11-11T14:53:46Z</time>
      </trkpt>
      <trkpt lat="43.99404" lon="5.23354">
        <ele>647.104492</ele>
        <time>2011-11-11T14:54:09Z</time>
      </trkpt>
      <trkpt lat="43.99406" lon="5.23351">
        <ele>646.624023</ele>
        <time>2011-11-11T14:54:23Z</time>
      </trkpt>
      <trkpt lat="43.99399" lon="5.23334">
        <ele>646.143311</ele>
        <time>2011-11-11T14:54:40Z</time>
      </trkpt>
      <trkpt lat="43.99399" lon="5.2333">
        <ele>645.662598</ele>
        <time>2011-11-11T14:54:43Z</time>
      </trkpt>
      <trkpt lat="43.994" lon="5.23315">
        <ele>645.181885</ele>
        <time>2011-11-11T14:54:56Z</time>
      </trkpt>
      <trkpt lat="43.99397" lon="5.23298">
        <ele>644.220703</ele>
        <time>2011-11-11T14:55:10Z</time>
      </trkpt>
      <trkpt lat="43.99408" lon="5.23262">
        <ele>642.298096</ele>
        <time>2011-11-11T14:55:38Z</time>
      </trkpt>
      <trkpt lat="43.99412" lon="5.23255">
        <ele>641.817383</ele>
        <time>2011-11-11T14:55:44Z</time>
      </trkpt>
      <trkpt lat="43.99424" lon="5.23229">
        <ele>639.414063</ele>
        <time>2011-11-11T14:56:05Z</time>
      </trkpt>
      <trkpt lat="43.99428" lon="5.23204">
        <ele>636.530273</ele>
        <time>2011-11-11T14:56:25Z</time>
      </trkpt>
      <trkpt lat="43.99438" lon="5.2318">
        <ele>633.645996</ele>
        <time>2011-11-11T14:56:46Z</time>
      </trkpt>
      <trkpt lat="43.99439" lon="5.23176">
        <ele>633.165283</ele>
        <time>2011-11-11T14:56:49Z</time>
      </trkpt>
      <trkpt lat="43.99446" lon="5.2317">
        <ele>632.204102</ele>
        <time>2011-11-11T14:57:03Z</time>
      </trkpt>
      <trkpt lat="43.99449" lon="5.23168">
        <ele>631.723389</ele>
        <time>2011-11-11T14:57:07Z</time>
      </trkpt>
      <trkpt lat="43.99463" lon="5.23161">
        <ele>629.800781</ele>
        <time>2011-11-11T14:57:23Z</time>
      </trkpt>
      <trkpt lat="43.99484" lon="5.23151">
        <ele>626.916992</ele>
        <time>2011-11-11T14:57:46Z</time>
      </trkpt>
      <trkpt lat="43.995" lon="5.23143">
        <ele>624.513672</ele>
        <time>2011-11-11T14:58:04Z</time>
      </trkpt>
      <trkpt lat="43.99505" lon="5.23135">
        <ele>622.591064</ele>
        <time>2011-11-11T14:58:13Z</time>
      </trkpt>
      <trkpt lat="43.99517" lon="5.23117">
        <ele>620.187744</ele>
        <time>2011-11-11T14:58:35Z</time>
      </trkpt>
      <trkpt lat="43.99523" lon="5.23106">
        <ele>617.78418</ele>
        <time>2011-11-11T14:58:48Z</time>
      </trkpt>
      <trkpt lat="43.99528" lon="5.23102">
        <ele>617.303711</ele>
        <time>2011-11-11T14:58:54Z</time>
      </trkpt>
      <trkpt lat="43.99541" lon="5.23103">
        <ele>616.342285</ele>
        <time>2011-11-11T14:59:07Z</time>
      </trkpt>
      <trkpt lat="43.99554" lon="5.23086">
        <ele>613.458496</ele>
        <time>2011-11-11T14:59:27Z</time>
      </trkpt>
      <trkpt lat="43.99563" lon="5.23073">
        <ele>612.016602</ele>
        <time>2011-11-11T14:59:48Z</time>
      </trkpt>
      <trkpt lat="43.99565" lon="5.23073">
        <ele>612.016602</ele>
        <time>2011-11-11T15:00:08Z</time>
      </trkpt>
      <trkpt lat="43.99567" lon="5.23069">
        <ele>612.016602</ele>
        <time>2011-11-11T15:00:23Z</time>
      </trkpt>
      <trkpt lat="43.99569" lon="5.23068">
        <ele>611.535889</ele>
        <time>2011-11-11T15:00:40Z</time>
      </trkpt>
      <trkpt lat="43.99571" lon="5.23058">
        <ele>610.574463</ele>
        <time>2011-11-11T15:00:54Z</time>
      </trkpt>
      <trkpt lat="43.99585" lon="5.23031">
        <ele>608.651855</ele>
        <time>2011-11-11T15:01:17Z</time>
      </trkpt>
      <trkpt lat="43.99587" lon="5.23027">
        <ele>608.651855</ele>
        <time>2011-11-11T15:01:20Z</time>
      </trkpt>
      <trkpt lat="43.99591" lon="5.23016">
        <ele>607.690674</ele>
        <time>2011-11-11T15:01:28Z</time>
      </trkpt>
      <trkpt lat="43.99597" lon="5.23012">
        <ele>607.690674</ele>
        <time>2011-11-11T15:01:34Z</time>
      </trkpt>
      <trkpt lat="43.99609" lon="5.22995">
        <ele>606.248535</ele>
        <time>2011-11-11T15:01:53Z</time>
      </trkpt>
      <trkpt lat="43.99622" lon="5.22975">
        <ele>604.806641</ele>
        <time>2011-11-11T15:02:12Z</time>
      </trkpt>
      <trkpt lat="43.99644" lon="5.22951">
        <ele>602.883789</ele>
        <time>2011-11-11T15:02:39Z</time>
      </trkpt>
      <trkpt lat="43.99661" lon="5.22926">
        <ele>602.403076</ele>
        <time>2011-11-11T15:03:02Z</time>
      </trkpt>
      <trkpt lat="43.99664" lon="5.22919">
        <ele>602.403076</ele>
        <time>2011-11-11T15:03:08Z</time>
      </trkpt>
      <trkpt lat="43.99681" lon="5.22901">
        <ele>603.845215</ele>
        <time>2011-11-11T15:03:28Z</time>
      </trkpt>
      <trkpt lat="43.99694" lon="5.22888">
        <ele>604.806641</ele>
        <time>2011-11-11T15:03:45Z</time>
      </trkpt>
      <trkpt lat="43.99696" lon="5.22884">
        <ele>604.806641</ele>
        <time>2011-11-11T15:03:48Z</time>
      </trkpt>
      <trkpt lat="43.99698" lon="5.22855">
        <ele>605.768066</ele>
        <time>2011-11-11T15:04:09Z</time>
      </trkpt>
      <trkpt lat="43.99699" lon="5.22847">
        <ele>606.248535</ele>
        <time>2011-11-11T15:04:15Z</time>
      </trkpt>
      <trkpt lat="43.99698" lon="5.22808">
        <ele>604.806641</ele>
        <time>2011-11-11T15:04:40Z</time>
      </trkpt>
      <trkpt lat="43.99687" lon="5.2277">
        <ele>603.845215</ele>
        <time>2011-11-11T15:05:05Z</time>
      </trkpt>
      <trkpt lat="43.99681" lon="5.22744">
        <ele>602.403076</ele>
        <time>2011-11-11T15:05:25Z</time>
      </trkpt>
      <trkpt lat="43.9968" lon="5.22741">
        <ele>602.403076</ele>
        <time>2011-11-11T15:05:27Z</time>
      </trkpt>
      <trkpt lat="43.99679" lon="5.22724">
        <ele>602.403076</ele>
        <time>2011-11-11T15:05:40Z</time>
      </trkpt>
      <trkpt lat="43.99678" lon="5.22721">
        <ele>601.922607</ele>
        <time>2011-11-11T15:05:42Z</time>
      </trkpt>
      <trkpt lat="43.99675" lon="5.22711">
        <ele>601.441895</ele>
        <time>2011-11-11T15:05:48Z</time>
      </trkpt>
      <trkpt lat="43.99677" lon="5.22698">
        <ele>600.480713</ele>
        <time>2011-11-11T15:06:01Z</time>
      </trkpt>
      <trkpt lat="43.99678" lon="5.22683">
        <ele>599.519287</ele>
        <time>2011-11-11T15:06:11Z</time>
      </trkpt>
      <trkpt lat="43.99679" lon="5.2267">
        <ele>598.557861</ele>
        <time>2011-11-11T15:06:17Z</time>
      </trkpt>
      <trkpt lat="43.99678" lon="5.22652">
        <ele>596.635498</ele>
        <time>2011-11-11T15:06:27Z</time>
      </trkpt>
      <trkpt lat="43.99672" lon="5.22641">
        <ele>596.154785</ele>
        <time>2011-11-11T15:06:33Z</time>
      </trkpt>
      <trkpt lat="43.99671" lon="5.22637">
        <ele>596.154785</ele>
        <time>2011-11-11T15:06:36Z</time>
      </trkpt>
      <trkpt lat="43.99674" lon="5.22622">
        <ele>594.712646</ele>
        <time>2011-11-11T15:06:46Z</time>
      </trkpt>
      <trkpt lat="43.99675" lon="5.22621">
        <ele>594.712646</ele>
        <time>2011-11-11T15:06:47Z</time>
      </trkpt>
      <trkpt lat="43.99674" lon="5.22617">
        <ele>594.232178</ele>
        <time>2011-11-11T15:06:51Z</time>
      </trkpt>
      <trkpt lat="43.99672" lon="5.22613">
        <ele>593.751465</ele>
        <time>2011-11-11T15:06:54Z</time>
      </trkpt>
      <trkpt lat="43.99672" lon="5.226">
        <ele>593.751465</ele>
        <time>2011-11-11T15:07:02Z</time>
      </trkpt>
      <trkpt lat="43.99672" lon="5.22589">
        <ele>593.270752</ele>
        <time>2011-11-11T15:07:08Z</time>
      </trkpt>
      <trkpt lat="43.99667" lon="5.22563">
        <ele>593.751465</ele>
        <time>2011-11-11T15:07:23Z</time>
      </trkpt>
      <trkpt lat="43.99665" lon="5.22529">
        <ele>594.712646</ele>
        <time>2011-11-11T15:07:44Z</time>
      </trkpt>
      <trkpt lat="43.99669" lon="5.22505">
        <ele>596.635498</ele>
        <time>2011-11-11T15:07:57Z</time>
      </trkpt>
      <trkpt lat="43.99678" lon="5.22469">
        <ele>598.077393</ele>
        <time>2011-11-11T15:08:19Z</time>
      </trkpt>
      <trkpt lat="43.99685" lon="5.2245">
        <ele>598.077393</ele>
        <time>2011-11-11T15:08:29Z</time>
      </trkpt>
      <trkpt lat="43.9969" lon="5.2243">
        <ele>597.59668</ele>
        <time>2011-11-11T15:08:39Z</time>
      </trkpt>
      <trkpt lat="43.99706" lon="5.22412">
        <ele>596.635498</ele>
        <time>2011-11-11T15:08:56Z</time>
      </trkpt>
      <trkpt lat="43.99721" lon="5.22379">
        <ele>595.193359</ele>
        <time>2011-11-11T15:09:18Z</time>
      </trkpt>
      <trkpt lat="43.99726" lon="5.22355">
        <ele>593.270752</ele>
        <time>2011-11-11T15:09:32Z</time>
      </trkpt>
      <trkpt lat="43.99738" lon="5.22337">
        <ele>591.828857</ele>
        <time>2011-11-11T15:09:45Z</time>
      </trkpt>
      <trkpt lat="43.99736" lon="5.22326">
        <ele>591.348145</ele>
        <time>2011-11-11T15:09:51Z</time>
      </trkpt>
      <trkpt lat="43.9973" lon="5.22301">
        <ele>589.425537</ele>
        <time>2011-11-11T15:10:07Z</time>
      </trkpt>
      <trkpt lat="43.99733" lon="5.22286">
        <ele>588.464355</ele>
        <time>2011-11-11T15:10:17Z</time>
      </trkpt>
      <trkpt lat="43.99735" lon="5.22281">
        <ele>587.983398</ele>
        <time>2011-11-11T15:10:21Z</time>
      </trkpt>
      <trkpt lat="43.99732" lon="5.2225">
        <ele>585.580078</ele>
        <time>2011-11-11T15:10:42Z</time>
      </trkpt>
      <trkpt lat="43.99735" lon="5.22243">
        <ele>585.580078</ele>
        <time>2011-11-11T15:10:55Z</time>
      </trkpt>
      <trkpt lat="43.99735" lon="5.22243">
        <ele>584.618896</ele>
        <time>2011-11-11T15:11:31Z</time>
      </trkpt>
      <trkpt lat="43.99735" lon="5.22242">
        <ele>584.618896</ele>
        <time>2011-11-11T15:14:37Z</time>
      </trkpt>
      <trkpt lat="43.99736" lon="5.22241">
        <ele>584.138184</ele>
        <time>2011-11-11T15:14:47Z</time>
      </trkpt>
      <trkpt lat="43.9974" lon="5.22232">
        <ele>583.176758</ele>
        <time>2011-11-11T15:15:05Z</time>
      </trkpt>
      <trkpt lat="43.9974" lon="5.22232">
        <ele>583.176758</ele>
        <time>2011-11-11T15:15:28Z</time>
      </trkpt>
      <trkpt lat="43.99741" lon="5.22229">
        <ele>582.696289</ele>
        <time>2011-11-11T15:16:22Z</time>
      </trkpt>
      <trkpt lat="43.99739" lon="5.22206">
        <ele>579.812256</ele>
        <time>2011-11-11T15:16:39Z</time>
      </trkpt>
      <trkpt lat="43.99749" lon="5.2218">
        <ele>577.889648</ele>
        <time>2011-11-11T15:16:57Z</time>
      </trkpt>
      <trkpt lat="43.99754" lon="5.2215">
        <ele>575.967041</ele>
        <time>2011-11-11T15:17:17Z</time>
      </trkpt>
      <trkpt lat="43.99764" lon="5.22116">
        <ele>575.005859</ele>
        <time>2011-11-11T15:17:40Z</time>
      </trkpt>
      <trkpt lat="43.99766" lon="5.22101">
        <ele>574.525146</ele>
        <time>2011-11-11T15:17:50Z</time>
      </trkpt>
      <trkpt lat="43.99769" lon="5.22075">
        <ele>574.525146</ele>
        <time>2011-11-11T15:18:09Z</time>
      </trkpt>
      <trkpt lat="43.99782" lon="5.22035">
        <ele>574.044434</ele>
        <time>2011-11-11T15:18:36Z</time>
      </trkpt>
      <trkpt lat="43.998" lon="5.22004">
        <ele>572.121826</ele>
        <time>2011-11-11T15:19:00Z</time>
      </trkpt>
      <trkpt lat="43.99805" lon="5.21987">
        <ele>570.679688</ele>
        <time>2011-11-11T15:19:12Z</time>
      </trkpt>
      <trkpt lat="43.9982" lon="5.21968">
        <ele>567.315186</ele>
        <time>2011-11-11T15:19:30Z</time>
      </trkpt>
      <trkpt lat="43.99827" lon="5.21941">
        <ele>564.431152</ele>
        <time>2011-11-11T15:19:51Z</time>
      </trkpt>
      <trkpt lat="43.99832" lon="5.21926">
        <ele>561.06665</ele>
        <time>2011-11-11T15:20:03Z</time>
      </trkpt>
      <trkpt lat="43.99842" lon="5.21911">
        <ele>557.702148</ele>
        <time>2011-11-11T15:20:17Z</time>
      </trkpt>
      <trkpt lat="43.99845" lon="5.21905">
        <ele>556.740723</ele>
        <time>2011-11-11T15:20:22Z</time>
      </trkpt>
      <trkpt lat="43.99843" lon="5.21884">
        <ele>553.375977</ele>
        <time>2011-11-11T15:20:41Z</time>
      </trkpt>
      <trkpt lat="43.99838" lon="5.21857">
        <ele>550.972656</ele>
        <time>2011-11-11T15:21:03Z</time>
      </trkpt>
      <trkpt lat="43.99845" lon="5.21856">
        <ele>549.530762</ele>
        <time>2011-11-11T15:21:21Z</time>
      </trkpt>
      <trkpt lat="43.99845" lon="5.21854">
        <ele>549.530762</ele>
        <time>2011-11-11T15:21:35Z</time>
      </trkpt>
      <trkpt lat="43.99843" lon="5.21855">
        <ele>549.530762</ele>
        <time>2011-11-11T15:21:38Z</time>
      </trkpt>
      <trkpt lat="43.99834" lon="5.21859">
        <ele>550.492188</ele>
        <time>2011-11-11T15:22:00Z</time>
      </trkpt>
      <trkpt lat="43.99835" lon="5.21858">
        <ele>550.492188</ele>
        <time>2011-11-11T15:22:22Z</time>
      </trkpt>
      <trkpt lat="43.99835" lon="5.21858">
        <ele>550.492188</ele>
        <time>2011-11-11T15:22:53Z</time>
      </trkpt>
      <trkpt lat="43.99849" lon="5.2185">
        <ele>548.088867</ele>
        <time>2011-11-11T15:23:12Z</time>
      </trkpt>
      <trkpt lat="43.99856" lon="5.21838">
        <ele>545.204834</ele>
        <time>2011-11-11T15:23:25Z</time>
      </trkpt>
      <trkpt lat="43.9987" lon="5.21834">
        <ele>541.84021</ele>
        <time>2011-11-11T15:23:40Z</time>
      </trkpt>
      <trkpt lat="43.99884" lon="5.21834">
        <ele>538.475708</ele>
        <time>2011-11-11T15:23:56Z</time>
      </trkpt>
      <trkpt lat="43.99899" lon="5.21831">
        <ele>535.591553</ele>
        <time>2011-11-11T15:24:12Z</time>
      </trkpt>
      <trkpt lat="43.99911" lon="5.21827">
        <ele>532.227051</ele>
        <time>2011-11-11T15:24:26Z</time>
      </trkpt>
      <trkpt lat="43.99915" lon="5.21826">
        <ele>531.265747</ele>
        <time>2011-11-11T15:24:32Z</time>
      </trkpt>
      <trkpt lat="43.99925" lon="5.21824">
        <ele>528.862549</ele>
        <time>2011-11-11T15:24:42Z</time>
      </trkpt>
      <trkpt lat="43.99941" lon="5.2182">
        <ele>525.497803</ele>
        <time>2011-11-11T15:24:59Z</time>
      </trkpt>
      <trkpt lat="43.99948" lon="5.21818">
        <ele>524.055786</ele>
        <time>2011-11-11T15:25:14Z</time>
      </trkpt>
      <trkpt lat="43.9996" lon="5.21815">
        <ele>521.171997</ele>
        <time>2011-11-11T15:25:31Z</time>
      </trkpt>
      <trkpt lat="43.99961" lon="5.21815">
        <ele>521.171997</ele>
        <time>2011-11-11T15:25:48Z</time>
      </trkpt>
      <trkpt lat="43.99963" lon="5.21811">
        <ele>520.210571</ele>
        <time>2011-11-11T15:26:23Z</time>
      </trkpt>
      <trkpt lat="43.99975" lon="5.21793">
        <ele>516.845947</ele>
        <time>2011-11-11T15:26:41Z</time>
      </trkpt>
      <trkpt lat="43.99979" lon="5.21782">
        <ele>514.92334</ele>
        <time>2011-11-11T15:26:59Z</time>
      </trkpt>
      <trkpt lat="43.99984" lon="5.21775">
        <ele>513.962036</ele>
        <time>2011-11-11T15:27:14Z</time>
      </trkpt>
      <trkpt lat="43.99983" lon="5.21775">
        <ele>513.962036</ele>
        <time>2011-11-11T15:27:56Z</time>
      </trkpt>
      <trkpt lat="43.99985" lon="5.21772">
        <ele>512.039429</ele>
        <time>2011-11-11T15:28:48Z</time>
      </trkpt>
      <trkpt lat="43.99994" lon="5.21758">
        <ele>508.674683</ele>
        <time>2011-11-11T15:29:01Z</time>
      </trkpt>
      <trkpt lat="43.99999" lon="5.21754">
        <ele>509.636108</ele>
        <time>2011-11-11T15:29:07Z</time>
      </trkpt>
      <trkpt lat="44.00013" lon="5.21753">
        <ele>507.713501</ele>
        <time>2011-11-11T15:29:25Z</time>
      </trkpt>
      <trkpt lat="44.00022" lon="5.21756">
        <ele>505.790894</ele>
        <time>2011-11-11T15:29:35Z</time>
      </trkpt>
      <trkpt lat="44.00027" lon="5.21754">
        <ele>504.829468</ele>
        <time>2011-11-11T15:29:41Z</time>
      </trkpt>
      <trkpt lat="44.00029" lon="5.21746">
        <ele>503.868164</ele>
        <time>2011-11-11T15:29:59Z</time>
      </trkpt>
      <trkpt lat="44.00035" lon="5.21737">
        <ele>502.426147</ele>
        <time>2011-11-11T15:30:13Z</time>
      </trkpt>
      <trkpt lat="44.00035" lon="5.21736">
        <ele>501.945557</ele>
        <time>2011-11-11T15:30:14Z</time>
      </trkpt>
      <trkpt lat="44.00045" lon="5.21732">
        <ele>500.022949</ele>
        <time>2011-11-11T15:30:28Z</time>
      </trkpt>
      <trkpt lat="44.00047" lon="5.21734">
        <ele>499.542236</ele>
        <time>2011-11-11T15:30:41Z</time>
      </trkpt>
      <trkpt lat="44.00054" lon="5.21743">
        <ele>497.138916</ele>
        <time>2011-11-11T15:30:55Z</time>
      </trkpt>
      <trkpt lat="44.00056" lon="5.21745">
        <ele>496.658325</ele>
        <time>2011-11-11T15:30:59Z</time>
      </trkpt>
      <trkpt lat="44.00067" lon="5.21732">
        <ele>493.774292</ele>
        <time>2011-11-11T15:31:20Z</time>
      </trkpt>
      <trkpt lat="44.00075" lon="5.21722">
        <ele>491.851685</ele>
        <time>2011-11-11T15:31:31Z</time>
      </trkpt>
      <trkpt lat="44.00077" lon="5.2172">
        <ele>491.370972</ele>
        <time>2011-11-11T15:31:33Z</time>
      </trkpt>
      <trkpt lat="44.00085" lon="5.21738">
        <ele>488.967773</ele>
        <time>2011-11-11T15:31:51Z</time>
      </trkpt>
      <trkpt lat="44.00087" lon="5.21753">
        <ele>486.564453</ele>
        <time>2011-11-11T15:32:05Z</time>
      </trkpt>
      <trkpt lat="44.00095" lon="5.21771">
        <ele>483.199829</ele>
        <time>2011-11-11T15:32:21Z</time>
      </trkpt>
      <trkpt lat="44.00096" lon="5.21776">
        <ele>482.238525</ele>
        <time>2011-11-11T15:32:25Z</time>
      </trkpt>
      <trkpt lat="44.00096" lon="5.21781">
        <ele>481.757813</ele>
        <time>2011-11-11T15:32:29Z</time>
      </trkpt>
      <trkpt lat="44.00101" lon="5.21789">
        <ele>479.354492</ele>
        <time>2011-11-11T15:32:42Z</time>
      </trkpt>
      <trkpt lat="44.00106" lon="5.21786">
        <ele>478.393188</ele>
        <time>2011-11-11T15:32:53Z</time>
      </trkpt>
      <trkpt lat="44.00115" lon="5.21781">
        <ele>476.470581</ele>
        <time>2011-11-11T15:33:04Z</time>
      </trkpt>
      <trkpt lat="44.00117" lon="5.21782">
        <ele>475.509277</ele>
        <time>2011-11-11T15:33:07Z</time>
      </trkpt>
      <trkpt lat="44.00122" lon="5.21784">
        <ele>474.067261</ele>
        <time>2011-11-11T15:33:15Z</time>
      </trkpt>
      <trkpt lat="44.00128" lon="5.21801">
        <ele>470.702637</ele>
        <time>2011-11-11T15:33:31Z</time>
      </trkpt>
      <trkpt lat="44.00134" lon="5.21811">
        <ele>468.299316</ele>
        <time>2011-11-11T15:33:46Z</time>
      </trkpt>
      <trkpt lat="44.00142" lon="5.21809">
        <ele>466.857422</ele>
        <time>2011-11-11T15:33:54Z</time>
      </trkpt>
      <trkpt lat="44.00148" lon="5.21811">
        <ele>464.934814</ele>
        <time>2011-11-11T15:34:04Z</time>
      </trkpt>
      <trkpt lat="44.00149" lon="5.21835">
        <ele>462.050781</ele>
        <time>2011-11-11T15:34:24Z</time>
      </trkpt>
      <trkpt lat="44.00149" lon="5.21836">
        <ele>461.57019</ele>
        <time>2011-11-11T15:34:25Z</time>
      </trkpt>
      <trkpt lat="44.00147" lon="5.21841">
        <ele>461.089478</ele>
        <time>2011-11-11T15:34:29Z</time>
      </trkpt>
      <trkpt lat="44.00142" lon="5.21853">
        <ele>459.647583</ele>
        <time>2011-11-11T15:34:41Z</time>
      </trkpt>
      <trkpt lat="44.00149" lon="5.21862">
        <ele>458.205566</ele>
        <time>2011-11-11T15:34:56Z</time>
      </trkpt>
      <trkpt lat="44.0015" lon="5.21863">
        <ele>457.244263</ele>
        <time>2011-11-11T15:34:58Z</time>
      </trkpt>
      <trkpt lat="44.00159" lon="5.21866">
        <ele>455.802246</ele>
        <time>2011-11-11T15:35:11Z</time>
      </trkpt>
      <trkpt lat="44.00161" lon="5.21867">
        <ele>454.84082</ele>
        <time>2011-11-11T15:35:14Z</time>
      </trkpt>
      <trkpt lat="44.00165" lon="5.21865">
        <ele>454.84082</ele>
        <time>2011-11-11T15:35:22Z</time>
      </trkpt>
      <trkpt lat="44.00165" lon="5.21866">
        <ele>454.84082</ele>
        <time>2011-11-11T15:35:25Z</time>
      </trkpt>
      <trkpt lat="44.00173" lon="5.21868">
        <ele>452.918213</ele>
        <time>2011-11-11T15:35:33Z</time>
      </trkpt>
      <trkpt lat="44.00182" lon="5.21869">
        <ele>450.995605</ele>
        <time>2011-11-11T15:35:44Z</time>
      </trkpt>
      <trkpt lat="44.00195" lon="5.21869">
        <ele>449.072998</ele>
        <time>2011-11-11T15:35:56Z</time>
      </trkpt>
      <trkpt lat="44.00208" lon="5.21855">
        <ele>447.150269</ele>
        <time>2011-11-11T15:36:12Z</time>
      </trkpt>
      <trkpt lat="44.00211" lon="5.21849">
        <ele>446.189087</ele>
        <time>2011-11-11T15:36:15Z</time>
      </trkpt>
      <trkpt lat="44.00217" lon="5.21856">
        <ele>443.785767</ele>
        <time>2011-11-11T15:36:26Z</time>
      </trkpt>
      <trkpt lat="44.00218" lon="5.2186">
        <ele>443.785767</ele>
        <time>2011-11-11T15:36:30Z</time>
      </trkpt>
      <trkpt lat="44.00218" lon="5.21863">
        <ele>443.305054</ele>
        <time>2011-11-11T15:36:33Z</time>
      </trkpt>
      <trkpt lat="44.00221" lon="5.21865">
        <ele>443.305054</ele>
        <time>2011-11-11T15:36:35Z</time>
      </trkpt>
      <trkpt lat="44.00224" lon="5.2187">
        <ele>442.343872</ele>
        <time>2011-11-11T15:36:38Z</time>
      </trkpt>
      <trkpt lat="44.00231" lon="5.21883">
        <ele>440.421265</ele>
        <time>2011-11-11T15:36:49Z</time>
      </trkpt>
      <trkpt lat="44.0023" lon="5.21884">
        <ele>440.421265</ele>
        <time>2011-11-11T15:37:06Z</time>
      </trkpt>
      <trkpt lat="44.0023" lon="5.21884">
        <ele>440.421265</ele>
        <time>2011-11-11T15:37:08Z</time>
      </trkpt>
      <trkpt lat="44.00231" lon="5.21891">
        <ele>438.979126</ele>
        <time>2011-11-11T15:37:15Z</time>
      </trkpt>
      <trkpt lat="44.00235" lon="5.21899">
        <ele>437.056519</ele>
        <time>2011-11-11T15:37:24Z</time>
      </trkpt>
      <trkpt lat="44.00247" lon="5.21909">
        <ele>433.691895</ele>
        <time>2011-11-11T15:37:40Z</time>
      </trkpt>
      <trkpt lat="44.00252" lon="5.21915">
        <ele>432.25</ele>
        <time>2011-11-11T15:37:48Z</time>
      </trkpt>
      <trkpt lat="44.00254" lon="5.21915">
        <ele>432.25</ele>
        <time>2011-11-11T15:37:50Z</time>
      </trkpt>
      <trkpt lat="44.00258" lon="5.21912">
        <ele>430.807983</ele>
        <time>2011-11-11T15:37:54Z</time>
      </trkpt>
      <trkpt lat="44.00262" lon="5.21909">
        <ele>430.327271</ele>
        <time>2011-11-11T15:37:59Z</time>
      </trkpt>
      <trkpt lat="44.00268" lon="5.21907">
        <ele>428.885376</ele>
        <time>2011-11-11T15:38:05Z</time>
      </trkpt>
      <trkpt lat="44.00273" lon="5.21904">
        <ele>427.92395</ele>
        <time>2011-11-11T15:38:09Z</time>
      </trkpt>
      <trkpt lat="44.00278" lon="5.21897">
        <ele>426.482056</ele>
        <time>2011-11-11T15:38:17Z</time>
      </trkpt>
      <trkpt lat="44.00281" lon="5.21892">
        <ele>424.078735</ele>
        <time>2011-11-11T15:38:29Z</time>
      </trkpt>
      <trkpt lat="44.00284" lon="5.21891">
        <ele>422.636719</ele>
        <time>2011-11-11T15:38:36Z</time>
      </trkpt>
      <trkpt lat="44.00294" lon="5.21896">
        <ele>421.194824</ele>
        <time>2011-11-11T15:38:46Z</time>
      </trkpt>
      <trkpt lat="44.00301" lon="5.21904">
        <ele>419.272217</ele>
        <time>2011-11-11T15:38:58Z</time>
      </trkpt>
      <trkpt lat="44.00303" lon="5.21904">
        <ele>418.791504</ele>
        <time>2011-11-11T15:39:01Z</time>
      </trkpt>
      <trkpt lat="44.0031" lon="5.21907">
        <ele>417.8302</ele>
        <time>2011-11-11T15:39:07Z</time>
      </trkpt>
      <trkpt lat="44.0032" lon="5.21909">
        <ele>416.868896</ele>
        <time>2011-11-11T15:39:16Z</time>
      </trkpt>
      <trkpt lat="44.0032" lon="5.21913">
        <ele>415.907471</ele>
        <time>2011-11-11T15:39:21Z</time>
      </trkpt>
      <trkpt lat="44.00329" lon="5.21927">
        <ele>414.465454</ele>
        <time>2011-11-11T15:39:35Z</time>
      </trkpt>
      <trkpt lat="44.00333" lon="5.21933">
        <ele>413.504272</ele>
        <time>2011-11-11T15:39:41Z</time>
      </trkpt>
      <trkpt lat="44.00343" lon="5.21934">
        <ele>411.100952</ele>
        <time>2011-11-11T15:39:54Z</time>
      </trkpt>
      <trkpt lat="44.00351" lon="5.21922">
        <ele>408.217041</ele>
        <time>2011-11-11T15:40:10Z</time>
      </trkpt>
      <trkpt lat="44.00358" lon="5.21912">
        <ele>405.333008</ele>
        <time>2011-11-11T15:40:23Z</time>
      </trkpt>
      <trkpt lat="44.00364" lon="5.21908">
        <ele>403.891113</ele>
        <time>2011-11-11T15:40:37Z</time>
      </trkpt>
      <trkpt lat="44.00365" lon="5.21913">
        <ele>403.4104</ele>
        <time>2011-11-11T15:40:54Z</time>
      </trkpt>
      <trkpt lat="44.00366" lon="5.21914">
        <ele>402.929688</ele>
        <time>2011-11-11T15:41:15Z</time>
      </trkpt>
      <trkpt lat="44.00365" lon="5.21914">
        <ele>402.929688</ele>
        <time>2011-11-11T15:41:56Z</time>
      </trkpt>
      <trkpt lat="44.00373" lon="5.21926">
        <ele>401.00708</ele>
        <time>2011-11-11T15:43:00Z</time>
      </trkpt>
      <trkpt lat="44.00383" lon="5.21938">
        <ele>398.123169</ele>
        <time>2011-11-11T15:43:15Z</time>
      </trkpt>
      <trkpt lat="44.00391" lon="5.21951">
        <ele>396.200562</ele>
        <time>2011-11-11T15:43:29Z</time>
      </trkpt>
      <trkpt lat="44.00401" lon="5.21965">
        <ele>393.316528</ele>
        <time>2011-11-11T15:43:45Z</time>
      </trkpt>
      <trkpt lat="44.00412" lon="5.21972">
        <ele>390.913208</ele>
        <time>2011-11-11T15:43:58Z</time>
      </trkpt>
      <trkpt lat="44.00422" lon="5.21978">
        <ele>388.51001</ele>
        <time>2011-11-11T15:44:13Z</time>
      </trkpt>
      <trkpt lat="44.00427" lon="5.2198">
        <ele>388.029297</ele>
        <time>2011-11-11T15:44:17Z</time>
      </trkpt>
      <trkpt lat="44.00439" lon="5.21989">
        <ele>385.625977</ele>
        <time>2011-11-11T15:44:32Z</time>
      </trkpt>
      <trkpt lat="44.0045" lon="5.21998">
        <ele>383.703247</ele>
        <time>2011-11-11T15:44:49Z</time>
      </trkpt>
      <trkpt lat="44.00459" lon="5.22005">
        <ele>381.300049</ele>
        <time>2011-11-11T15:45:04Z</time>
      </trkpt>
      <trkpt lat="44.0046" lon="5.22006">
        <ele>380.819458</ele>
        <time>2011-11-11T15:45:06Z</time>
      </trkpt>
      <trkpt lat="44.00476" lon="5.22014">
        <ele>377.935425</ele>
        <time>2011-11-11T15:45:23Z</time>
      </trkpt>
      <trkpt lat="44.00484" lon="5.2202">
        <ele>376.974243</ele>
        <time>2011-11-11T15:45:33Z</time>
      </trkpt>
      <trkpt lat="44.00496" lon="5.22034">
        <ele>374.570801</ele>
        <time>2011-11-11T15:45:50Z</time>
      </trkpt>
      <trkpt lat="44.00504" lon="5.22043">
        <ele>372.648193</ele>
        <time>2011-11-11T15:46:04Z</time>
      </trkpt>
      <trkpt lat="44.0051" lon="5.22056">
        <ele>370.244873</ele>
        <time>2011-11-11T15:46:16Z</time>
      </trkpt>
      <trkpt lat="44.00513" lon="5.2207">
        <ele>367.841553</ele>
        <time>2011-11-11T15:46:29Z</time>
      </trkpt>
      <trkpt lat="44.00518" lon="5.22074">
        <ele>366.880249</ele>
        <time>2011-11-11T15:46:35Z</time>
      </trkpt>
      <trkpt lat="44.00534" lon="5.22084">
        <ele>363.515747</ele>
        <time>2011-11-11T15:46:52Z</time>
      </trkpt>
      <trkpt lat="44.00549" lon="5.22097">
        <ele>360.631714</ele>
        <time>2011-11-11T15:47:10Z</time>
      </trkpt>
      <trkpt lat="44.00552" lon="5.22099">
        <ele>359.67041</ele>
        <time>2011-11-11T15:47:14Z</time>
      </trkpt>
      <trkpt lat="44.00557" lon="5.22105">
        <ele>358.228394</ele>
        <time>2011-11-11T15:47:30Z</time>
      </trkpt>
      <trkpt lat="44.00564" lon="5.22113">
        <ele>356.786377</ele>
        <time>2011-11-11T15:47:44Z</time>
      </trkpt>
      <trkpt lat="44.00567" lon="5.22117">
        <ele>356.305786</ele>
        <time>2011-11-11T15:48:01Z</time>
      </trkpt>
      <trkpt lat="44.00574" lon="5.22123">
        <ele>354.86377</ele>
        <time>2011-11-11T15:48:10Z</time>
      </trkpt>
      <trkpt lat="44.00591" lon="5.22146">
        <ele>351.499146</ele>
        <time>2011-11-11T15:48:34Z</time>
      </trkpt>
      <trkpt lat="44.00596" lon="5.22155">
        <ele>349.576538</ele>
        <time>2011-11-11T15:48:46Z</time>
      </trkpt>
      <trkpt lat="44.00608" lon="5.22166">
        <ele>347.653931</ele>
        <time>2011-11-11T15:48:59Z</time>
      </trkpt>
      <trkpt lat="44.00624" lon="5.22175">
        <ele>346.212036</ele>
        <time>2011-11-11T15:49:13Z</time>
      </trkpt>
      <trkpt lat="44.00647" lon="5.22189">
        <ele>343.808594</ele>
        <time>2011-11-11T15:49:35Z</time>
      </trkpt>
      <trkpt lat="44.00668" lon="5.22198">
        <ele>341.405273</ele>
        <time>2011-11-11T15:49:56Z</time>
      </trkpt>
      <trkpt lat="44.00691" lon="5.22209">
        <ele>339.963379</ele>
        <time>2011-11-11T15:50:16Z</time>
      </trkpt>
      <trkpt lat="44.00703" lon="5.22215">
        <ele>338.521484</ele>
        <time>2011-11-11T15:50:30Z</time>
      </trkpt>
      <trkpt lat="44.00717" lon="5.22217">
        <ele>337.560059</ele>
        <time>2011-11-11T15:50:41Z</time>
      </trkpt>
      <trkpt lat="44.0073" lon="5.22221">
        <ele>336.598877</ele>
        <time>2011-11-11T15:50:54Z</time>
      </trkpt>
      <trkpt lat="44.0074" lon="5.2222">
        <ele>335.637329</ele>
        <time>2011-11-11T15:51:03Z</time>
      </trkpt>
      <trkpt lat="44.00756" lon="5.22208">
        <ele>334.195435</ele>
        <time>2011-11-11T15:51:16Z</time>
      </trkpt>
      <trkpt lat="44.00769" lon="5.22208">
        <ele>332.75354</ele>
        <time>2011-11-11T15:51:29Z</time>
      </trkpt>
      <trkpt lat="44.0078" lon="5.22216">
        <ele>330.830933</ele>
        <time>2011-11-11T15:51:42Z</time>
      </trkpt>
      <trkpt lat="44.00784" lon="5.22219">
        <ele>330.35022</ele>
        <time>2011-11-11T15:51:47Z</time>
      </trkpt>
      <trkpt lat="44.00813" lon="5.22207">
        <ele>329.388916</ele>
        <time>2011-11-11T15:52:11Z</time>
      </trkpt>
      <trkpt lat="44.00817" lon="5.22203">
        <ele>328.908325</ele>
        <time>2011-11-11T15:52:15Z</time>
      </trkpt>
      <trkpt lat="44.00832" lon="5.22194">
        <ele>328.427612</ele>
        <time>2011-11-11T15:52:29Z</time>
      </trkpt>
      <trkpt lat="44.00856" lon="5.22195">
        <ele>327.946777</ele>
        <time>2011-11-11T15:52:50Z</time>
      </trkpt>
      <trkpt lat="44.00889" lon="5.22199">
        <ele>327.946777</ele>
        <time>2011-11-11T15:53:17Z</time>
      </trkpt>
      <trkpt lat="44.0092" lon="5.22199">
        <ele>328.908325</ele>
        <time>2011-11-11T15:53:45Z</time>
      </trkpt>
      <trkpt lat="44.00925" lon="5.22201">
        <ele>328.908325</ele>
        <time>2011-11-11T15:53:50Z</time>
      </trkpt>
      <trkpt lat="44.0094" lon="5.2221">
        <ele>330.35022</ele>
        <time>2011-11-11T15:54:04Z</time>
      </trkpt>
      <trkpt lat="44.00951" lon="5.22232">
        <ele>330.35022</ele>
        <time>2011-11-11T15:54:23Z</time>
      </trkpt>
      <trkpt lat="44.00963" lon="5.22266">
        <ele>330.35022</ele>
        <time>2011-11-11T15:54:47Z</time>
      </trkpt>
      <trkpt lat="44.00973" lon="5.22291">
        <ele>330.35022</ele>
        <time>2011-11-11T15:55:04Z</time>
      </trkpt>
      <trkpt lat="44.00992" lon="5.22304">
        <ele>329.869507</ele>
        <time>2011-11-11T15:55:21Z</time>
      </trkpt>
      <trkpt lat="44.01015" lon="5.22329">
        <ele>328.427612</ele>
        <time>2011-11-11T15:55:46Z</time>
      </trkpt>
      <trkpt lat="44.01016" lon="5.2233">
        <ele>327.946777</ele>
        <time>2011-11-11T15:55:47Z</time>
      </trkpt>
      <trkpt lat="44.01021" lon="5.22335">
        <ele>327.946777</ele>
        <time>2011-11-11T15:55:52Z</time>
      </trkpt>
      <trkpt lat="44.01037" lon="5.22344">
        <ele>326.504883</ele>
        <time>2011-11-11T15:56:06Z</time>
      </trkpt>
      <trkpt lat="44.01058" lon="5.22342">
        <ele>326.02417</ele>
        <time>2011-11-11T15:56:23Z</time>
      </trkpt>
      <trkpt lat="44.0108" lon="5.22339">
        <ele>324.582275</ele>
        <time>2011-11-11T15:56:44Z</time>
      </trkpt>
      <trkpt lat="44.01102" lon="5.22338">
        <ele>322.659668</ele>
        <time>2011-11-11T15:57:03Z</time>
      </trkpt>
      <trkpt lat="44.01118" lon="5.22337">
        <ele>321.217773</ele>
        <time>2011-11-11T15:57:15Z</time>
      </trkpt>
      <trkpt lat="44.01124" lon="5.22338">
        <ele>320.737061</ele>
        <time>2011-11-11T15:57:22Z</time>
      </trkpt>
      <trkpt lat="44.01131" lon="5.22338">
        <ele>320.256348</ele>
        <time>2011-11-11T15:57:28Z</time>
      </trkpt>
      <trkpt lat="44.01142" lon="5.22337">
        <ele>319.295044</ele>
        <time>2011-11-11T15:57:39Z</time>
      </trkpt>
      <trkpt lat="44.01152" lon="5.22339">
        <ele>317.372437</ele>
        <time>2011-11-11T15:57:51Z</time>
      </trkpt>
      <trkpt lat="44.01164" lon="5.22345">
        <ele>317.372437</ele>
        <time>2011-11-11T15:58:08Z</time>
      </trkpt>
      <trkpt lat="44.01168" lon="5.22354">
        <ele>317.372437</ele>
        <time>2011-11-11T15:58:24Z</time>
      </trkpt>
      <trkpt lat="44.01171" lon="5.22392">
        <ele>317.853027</ele>
        <time>2011-11-11T15:58:50Z</time>
      </trkpt>
      <trkpt lat="44.01176" lon="5.2243">
        <ele>317.853027</ele>
        <time>2011-11-11T15:59:14Z</time>
      </trkpt>
      <trkpt lat="44.01176" lon="5.22431">
        <ele>317.372437</ele>
        <time>2011-11-11T15:59:15Z</time>
      </trkpt>
      <trkpt lat="44.01177" lon="5.22438">
        <ele>316.891724</ele>
        <time>2011-11-11T15:59:19Z</time>
      </trkpt>
      <trkpt lat="44.01181" lon="5.22449">
        <ele>316.411011</ele>
        <time>2011-11-11T15:59:26Z</time>
      </trkpt>
      <trkpt lat="44.01189" lon="5.22452">
        <ele>315.93042</ele>
        <time>2011-11-11T15:59:33Z</time>
      </trkpt>
      <trkpt lat="44.01211" lon="5.22442">
        <ele>314.007813</ele>
        <time>2011-11-11T15:59:54Z</time>
      </trkpt>
      <trkpt lat="44.01237" lon="5.22433">
        <ele>312.565796</ele>
        <time>2011-11-11T16:00:21Z</time>
      </trkpt>
      <trkpt lat="44.0124" lon="5.22431">
        <ele>311.123779</ele>
        <time>2011-11-11T16:00:35Z</time>
      </trkpt>
      <trkpt lat="44.01249" lon="5.22428">
        <ele>310.643066</ele>
        <time>2011-11-11T16:00:49Z</time>
      </trkpt>
      <trkpt lat="44.01252" lon="5.22426">
        <ele>311.123779</ele>
        <time>2011-11-11T16:01:03Z</time>
      </trkpt>
      <trkpt lat="44.01261" lon="5.22429">
        <ele>310.162476</ele>
        <time>2011-11-11T16:01:17Z</time>
      </trkpt>
      <trkpt lat="44.01285" lon="5.2243">
        <ele>308.720459</ele>
        <time>2011-11-11T16:01:40Z</time>
      </trkpt>
      <trkpt lat="44.01318" lon="5.22427">
        <ele>306.797852</ele>
        <time>2011-11-11T16:02:09Z</time>
      </trkpt>
      <trkpt lat="44.01327" lon="5.22426">
        <ele>306.797852</ele>
        <time>2011-11-11T16:02:17Z</time>
      </trkpt>
      <trkpt lat="44.01353" lon="5.22413">
        <ele>305.355957</ele>
        <time>2011-11-11T16:02:44Z</time>
      </trkpt>
      <trkpt lat="44.01369" lon="5.22419">
        <ele>304.875244</ele>
        <time>2011-11-11T16:03:02Z</time>
      </trkpt>
      <trkpt lat="44.01382" lon="5.22422">
        <ele>304.875244</ele>
        <time>2011-11-11T16:03:18Z</time>
      </trkpt>
      <trkpt lat="44.0139" lon="5.22434">
        <ele>304.875244</ele>
        <time>2011-11-11T16:03:33Z</time>
      </trkpt>
      <trkpt lat="44.01403" lon="5.2244">
        <ele>305.355957</ele>
        <time>2011-11-11T16:03:51Z</time>
      </trkpt>
      <trkpt lat="44.01412" lon="5.22435">
        <ele>306.317261</ele>
        <time>2011-11-11T16:04:06Z</time>
      </trkpt>
      <trkpt lat="44.01415" lon="5.22431">
        <ele>307.278564</ele>
        <time>2011-11-11T16:04:20Z</time>
      </trkpt>
      <trkpt lat="44.01419" lon="5.2243">
        <ele>309.201172</ele>
        <time>2011-11-11T16:04:33Z</time>
      </trkpt>
      <trkpt lat="44.01422" lon="5.22433">
        <ele>309.681885</ele>
        <time>2011-11-11T16:04:37Z</time>
      </trkpt>
      <trkpt lat="44.01426" lon="5.22439">
        <ele>309.681885</ele>
        <time>2011-11-11T16:04:53Z</time>
      </trkpt>
      <trkpt lat="44.01427" lon="5.22444">
        <ele>309.201172</ele>
        <time>2011-11-11T16:05:11Z</time>
      </trkpt>
      <trkpt lat="44.01425" lon="5.22443">
        <ele>309.681885</ele>
        <time>2011-11-11T16:05:30Z</time>
      </trkpt>
      <trkpt lat="44.01426" lon="5.22445">
        <ele>309.201172</ele>
        <time>2011-11-11T16:06:07Z</time>
      </trkpt>
      <trkpt lat="44.01435" lon="5.22446">
        <ele>309.681885</ele>
        <time>2011-11-11T16:06:40Z</time>
      </trkpt>
      <trkpt lat="44.0146" lon="5.22464">
        <ele>311.123779</ele>
        <time>2011-11-11T16:07:09Z</time>
      </trkpt>
      <trkpt lat="44.01459" lon="5.22464">
        <ele>311.604492</ele>
        <time>2011-11-11T16:07:18Z</time>
      </trkpt>
      <trkpt lat="44.01467" lon="5.22467">
        <ele>311.604492</ele>
        <time>2011-11-11T16:07:27Z</time>
      </trkpt>
      <trkpt lat="44.01473" lon="5.2248">
        <ele>312.565796</ele>
        <time>2011-11-11T16:07:39Z</time>
      </trkpt>
      <trkpt lat="44.01477" lon="5.22484">
        <ele>313.527222</ele>
        <time>2011-11-11T16:07:46Z</time>
      </trkpt>
      <trkpt lat="44.01482" lon="5.2249">
        <ele>313.527222</ele>
        <time>2011-11-11T16:07:50Z</time>
      </trkpt>
      <trkpt lat="44.01485" lon="5.22492">
        <ele>313.527222</ele>
        <time>2011-11-11T16:07:53Z</time>
      </trkpt>
      <trkpt lat="44.01496" lon="5.22499">
        <ele>314.488403</ele>
        <time>2011-11-11T16:08:03Z</time>
      </trkpt>
      <trkpt lat="44.01512" lon="5.22507">
        <ele>314.969116</ele>
        <time>2011-11-11T16:08:19Z</time>
      </trkpt>
      <trkpt lat="44.0152" lon="5.22517">
        <ele>315.449829</ele>
        <time>2011-11-11T16:08:28Z</time>
      </trkpt>
      <trkpt lat="44.01528" lon="5.22519">
        <ele>315.93042</ele>
        <time>2011-11-11T16:08:37Z</time>
      </trkpt>
      <trkpt lat="44.01534" lon="5.22526">
        <ele>316.411011</ele>
        <time>2011-11-11T16:08:44Z</time>
      </trkpt>
      <trkpt lat="44.01544" lon="5.22534">
        <ele>316.411011</ele>
        <time>2011-11-11T16:08:54Z</time>
      </trkpt>
      <trkpt lat="44.01547" lon="5.22534">
        <ele>316.891724</ele>
        <time>2011-11-11T16:09:01Z</time>
      </trkpt>
      <trkpt lat="44.01548" lon="5.22535">
        <ele>316.891724</ele>
        <time>2011-11-11T16:09:03Z</time>
      </trkpt>
      <trkpt lat="44.01552" lon="5.22535">
        <ele>316.891724</ele>
        <time>2011-11-11T16:09:08Z</time>
      </trkpt>
      <trkpt lat="44.01559" lon="5.22536">
        <ele>316.891724</ele>
        <time>2011-11-11T16:09:15Z</time>
      </trkpt>
      <trkpt lat="44.01569" lon="5.22532">
        <ele>316.891724</ele>
        <time>2011-11-11T16:09:26Z</time>
      </trkpt>
      <trkpt lat="44.01571" lon="5.22532">
        <ele>317.372437</ele>
        <time>2011-11-11T16:09:44Z</time>
      </trkpt>
      <trkpt lat="44.01571" lon="5.22533">
        <ele>317.372437</ele>
        <time>2011-11-11T16:10:01Z</time>
      </trkpt>
    </trkseg>
  </trk>
</gpx>